<?xml version="1.0" encoding="UTF-8" standalone="no" ?>
<gpx xmlns="http://www.topografix.com/GPX/1/1" xmlns:xsi="http://www.w3.org/2001/XMLSchema-instance" xsi:schemaLocation="http://www.topografix.com/GPX/1/1 http://www.topografix.com/GPX/1/1/gpx.xsd" version="1.1" creator="VisuGPX - https://www.visugpx.com">
  <metadata>
    <name>9567228-2019 j4 transfert decouverte</name>
  </metadata>
  <trk>
    <name><![CDATA[9567228-2019 j4 transfert decouverte]]></name>
    <trkseg>
      <trkpt lat="46.07827" lon="6.72631">
        <ele>706</ele>
        <time>2019-06-11T15:33:21Z</time>
      </trkpt>
      <trkpt lat="46.07863" lon="6.72539">
        <ele>703</ele>
        <time>2019-06-11T15:33:34Z</time>
      </trkpt>
      <trkpt lat="46.0788" lon="6.72552">
        <ele>703</ele>
        <time>2019-06-11T15:33:37Z</time>
      </trkpt>
      <trkpt lat="46.07907" lon="6.72566">
        <ele>703</ele>
        <time>2019-06-11T15:33:43Z</time>
      </trkpt>
      <trkpt lat="46.08016" lon="6.72647">
        <ele>704</ele>
        <time>2019-06-11T15:34:04Z</time>
      </trkpt>
      <trkpt lat="46.08031" lon="6.72661">
        <ele>704</ele>
        <time>2019-06-11T15:34:08Z</time>
      </trkpt>
      <trkpt lat="46.08046" lon="6.72683">
        <ele>705</ele>
        <time>2019-06-11T15:34:11Z</time>
      </trkpt>
      <trkpt lat="46.08053" lon="6.72697">
        <ele>705</ele>
        <time>2019-06-11T15:34:14Z</time>
      </trkpt>
      <trkpt lat="46.08047" lon="6.72705">
        <ele>706</ele>
        <time>2019-06-11T15:34:15Z</time>
      </trkpt>
      <trkpt lat="46.08046" lon="6.72717">
        <ele>706</ele>
        <time>2019-06-11T15:34:16Z</time>
      </trkpt>
      <trkpt lat="46.08051" lon="6.72727">
        <ele>707</ele>
        <time>2019-06-11T15:34:18Z</time>
      </trkpt>
      <trkpt lat="46.0806" lon="6.72729">
        <ele>707</ele>
        <time>2019-06-11T15:34:20Z</time>
      </trkpt>
      <trkpt lat="46.08067" lon="6.72724">
        <ele>706</ele>
        <time>2019-06-11T15:34:21Z</time>
      </trkpt>
      <trkpt lat="46.0807" lon="6.72712">
        <ele>706</ele>
        <time>2019-06-11T15:34:23Z</time>
      </trkpt>
      <trkpt lat="46.08069" lon="6.72705">
        <ele>706</ele>
        <time>2019-06-11T15:34:23Z</time>
      </trkpt>
      <trkpt lat="46.08065" lon="6.72698">
        <ele>705</ele>
        <time>2019-06-11T15:34:25Z</time>
      </trkpt>
      <trkpt lat="46.08226" lon="6.72404">
        <ele>701</ele>
        <time>2019-06-11T15:35:11Z</time>
      </trkpt>
      <trkpt lat="46.08228" lon="6.72401">
        <ele>700</ele>
        <time>2019-06-11T15:35:11Z</time>
      </trkpt>
      <trkpt lat="46.08234" lon="6.72408">
        <ele>700</ele>
        <time>2019-06-11T15:35:13Z</time>
      </trkpt>
      <trkpt lat="46.08238" lon="6.7241">
        <ele>700</ele>
        <time>2019-06-11T15:35:13Z</time>
      </trkpt>
      <trkpt lat="46.08243" lon="6.72409">
        <ele>700</ele>
        <time>2019-06-11T15:35:14Z</time>
      </trkpt>
      <trkpt lat="46.08247" lon="6.72405">
        <ele>700</ele>
        <time>2019-06-11T15:35:15Z</time>
      </trkpt>
      <trkpt lat="46.08251" lon="6.72396">
        <ele>700</ele>
        <time>2019-06-11T15:35:17Z</time>
      </trkpt>
      <trkpt lat="46.0825" lon="6.72384">
        <ele>700</ele>
        <time>2019-06-11T15:35:18Z</time>
      </trkpt>
      <trkpt lat="46.08254" lon="6.72379">
        <ele>700</ele>
        <time>2019-06-11T15:35:19Z</time>
      </trkpt>
      <trkpt lat="46.08278" lon="6.72336">
        <ele>700</ele>
        <time>2019-06-11T15:35:26Z</time>
      </trkpt>
      <trkpt lat="46.08302" lon="6.72328">
        <ele>699</ele>
        <time>2019-06-11T15:35:30Z</time>
      </trkpt>
      <trkpt lat="46.08307" lon="6.7233">
        <ele>699</ele>
        <time>2019-06-11T15:35:31Z</time>
      </trkpt>
      <trkpt lat="46.08413" lon="6.72417">
        <ele>707</ele>
        <time>2019-06-11T15:35:53Z</time>
      </trkpt>
      <trkpt lat="46.0842" lon="6.72416">
        <ele>707</ele>
        <time>2019-06-11T15:35:54Z</time>
      </trkpt>
      <trkpt lat="46.08423" lon="6.72411">
        <ele>707</ele>
        <time>2019-06-11T15:35:55Z</time>
      </trkpt>
      <trkpt lat="46.08428" lon="6.72384">
        <ele>706</ele>
        <time>2019-06-11T15:35:58Z</time>
      </trkpt>
      <trkpt lat="46.08429" lon="6.72249">
        <ele>702</ele>
        <time>2019-06-11T15:36:15Z</time>
      </trkpt>
      <trkpt lat="46.08435" lon="6.72188">
        <ele>701</ele>
        <time>2019-06-11T15:36:23Z</time>
      </trkpt>
      <trkpt lat="46.08475" lon="6.72012">
        <ele>695</ele>
        <time>2019-06-11T15:36:45Z</time>
      </trkpt>
      <trkpt lat="46.08539" lon="6.71745">
        <ele>700</ele>
        <time>2019-06-11T15:37:20Z</time>
      </trkpt>
      <trkpt lat="46.08541" lon="6.71724">
        <ele>700</ele>
        <time>2019-06-11T15:37:23Z</time>
      </trkpt>
      <trkpt lat="46.08538" lon="6.71688">
        <ele>701</ele>
        <time>2019-06-11T15:37:27Z</time>
      </trkpt>
      <trkpt lat="46.08533" lon="6.7167">
        <ele>701</ele>
        <time>2019-06-11T15:37:30Z</time>
      </trkpt>
      <trkpt lat="46.08522" lon="6.71645">
        <ele>701</ele>
        <time>2019-06-11T15:37:33Z</time>
      </trkpt>
      <trkpt lat="46.08474" lon="6.71553">
        <ele>698</ele>
        <time>2019-06-11T15:37:48Z</time>
      </trkpt>
      <trkpt lat="46.08463" lon="6.71517">
        <ele>697</ele>
        <time>2019-06-11T15:37:52Z</time>
      </trkpt>
      <trkpt lat="46.08457" lon="6.71481">
        <ele>698</ele>
        <time>2019-06-11T15:37:57Z</time>
      </trkpt>
      <trkpt lat="46.08447" lon="6.71354">
        <ele>700</ele>
        <time>2019-06-11T15:38:13Z</time>
      </trkpt>
      <trkpt lat="46.08442" lon="6.71279">
        <ele>697</ele>
        <time>2019-06-11T15:38:22Z</time>
      </trkpt>
      <trkpt lat="46.08441" lon="6.71196">
        <ele>695</ele>
        <time>2019-06-11T15:38:32Z</time>
      </trkpt>
      <trkpt lat="46.08443" lon="6.7111">
        <ele>691</ele>
        <time>2019-06-11T15:38:43Z</time>
      </trkpt>
      <trkpt lat="46.08448" lon="6.7101">
        <ele>689</ele>
        <time>2019-06-11T15:38:55Z</time>
      </trkpt>
      <trkpt lat="46.08452" lon="6.70971">
        <ele>688</ele>
        <time>2019-06-11T15:39:00Z</time>
      </trkpt>
      <trkpt lat="46.0846" lon="6.709">
        <ele>688</ele>
        <time>2019-06-11T15:39:09Z</time>
      </trkpt>
      <trkpt lat="46.08468" lon="6.70847">
        <ele>688</ele>
        <time>2019-06-11T15:39:16Z</time>
      </trkpt>
      <trkpt lat="46.085" lon="6.70673">
        <ele>684</ele>
        <time>2019-06-11T15:39:38Z</time>
      </trkpt>
      <trkpt lat="46.08519" lon="6.70578">
        <ele>684</ele>
        <time>2019-06-11T15:39:50Z</time>
      </trkpt>
      <trkpt lat="46.08585" lon="6.70218">
        <ele>685</ele>
        <time>2019-06-11T15:40:36Z</time>
      </trkpt>
      <trkpt lat="46.08725" lon="6.69396">
        <ele>685</ele>
        <time>2019-06-11T15:42:21Z</time>
      </trkpt>
      <trkpt lat="46.08776" lon="6.69102">
        <ele>681</ele>
        <time>2019-06-11T15:42:58Z</time>
      </trkpt>
      <trkpt lat="46.08794" lon="6.69032">
        <ele>681</ele>
        <time>2019-06-11T15:43:07Z</time>
      </trkpt>
      <trkpt lat="46.08837" lon="6.68877">
        <ele>681</ele>
        <time>2019-06-11T15:43:28Z</time>
      </trkpt>
      <trkpt lat="46.08843" lon="6.68843">
        <ele>681</ele>
        <time>2019-06-11T15:43:32Z</time>
      </trkpt>
      <trkpt lat="46.0885" lon="6.68788">
        <ele>681</ele>
        <time>2019-06-11T15:43:39Z</time>
      </trkpt>
      <trkpt lat="46.08882" lon="6.68453">
        <ele>685</ele>
        <time>2019-06-11T15:44:21Z</time>
      </trkpt>
      <trkpt lat="46.08927" lon="6.6795">
        <ele>672</ele>
        <time>2019-06-11T15:45:23Z</time>
      </trkpt>
      <trkpt lat="46.0893" lon="6.67951">
        <ele>672</ele>
        <time>2019-06-11T15:45:24Z</time>
      </trkpt>
      <trkpt lat="46.08936" lon="6.67948">
        <ele>672</ele>
        <time>2019-06-11T15:45:25Z</time>
      </trkpt>
      <trkpt lat="46.08939" lon="6.6794">
        <ele>672</ele>
        <time>2019-06-11T15:45:26Z</time>
      </trkpt>
      <trkpt lat="46.08936" lon="6.67928">
        <ele>671</ele>
        <time>2019-06-11T15:45:28Z</time>
      </trkpt>
      <trkpt lat="46.08929" lon="6.67924">
        <ele>671</ele>
        <time>2019-06-11T15:45:29Z</time>
      </trkpt>
      <trkpt lat="46.08951" lon="6.67845">
        <ele>668</ele>
        <time>2019-06-11T15:45:40Z</time>
      </trkpt>
      <trkpt lat="46.09025" lon="6.67605">
        <ele>665</ele>
        <time>2019-06-11T15:46:12Z</time>
      </trkpt>
      <trkpt lat="46.09128" lon="6.67286">
        <ele>666</ele>
        <time>2019-06-11T15:46:55Z</time>
      </trkpt>
      <trkpt lat="46.09169" lon="6.67174">
        <ele>664</ele>
        <time>2019-06-11T15:47:11Z</time>
      </trkpt>
      <trkpt lat="46.09337" lon="6.66745">
        <ele>660</ele>
        <time>2019-06-11T15:48:12Z</time>
      </trkpt>
      <trkpt lat="46.09364" lon="6.66694">
        <ele>661</ele>
        <time>2019-06-11T15:48:20Z</time>
      </trkpt>
      <trkpt lat="46.09438" lon="6.66577">
        <ele>660</ele>
        <time>2019-06-11T15:48:39Z</time>
      </trkpt>
      <trkpt lat="46.09467" lon="6.66527">
        <ele>661</ele>
        <time>2019-06-11T15:48:47Z</time>
      </trkpt>
      <trkpt lat="46.09485" lon="6.6649">
        <ele>661</ele>
        <time>2019-06-11T15:48:53Z</time>
      </trkpt>
      <trkpt lat="46.095" lon="6.66449">
        <ele>663</ele>
        <time>2019-06-11T15:48:59Z</time>
      </trkpt>
      <trkpt lat="46.09511" lon="6.66415">
        <ele>665</ele>
        <time>2019-06-11T15:49:03Z</time>
      </trkpt>
      <trkpt lat="46.096" lon="6.66098">
        <ele>656</ele>
        <time>2019-06-11T15:49:45Z</time>
      </trkpt>
      <trkpt lat="46.09665" lon="6.65893">
        <ele>654</ele>
        <time>2019-06-11T15:50:13Z</time>
      </trkpt>
      <trkpt lat="46.09695" lon="6.65788">
        <ele>654</ele>
        <time>2019-06-11T15:50:27Z</time>
      </trkpt>
      <trkpt lat="46.09859" lon="6.65198">
        <ele>653</ele>
        <time>2019-06-11T15:51:46Z</time>
      </trkpt>
      <trkpt lat="46.09871" lon="6.65141">
        <ele>653</ele>
        <time>2019-06-11T15:51:53Z</time>
      </trkpt>
      <trkpt lat="46.10034" lon="6.64151">
        <ele>644</ele>
        <time>2019-06-11T15:53:59Z</time>
      </trkpt>
      <trkpt lat="46.10108" lon="6.63781">
        <ele>644</ele>
        <time>2019-06-11T15:54:46Z</time>
      </trkpt>
      <trkpt lat="46.10123" lon="6.63702">
        <ele>644</ele>
        <time>2019-06-11T15:54:56Z</time>
      </trkpt>
      <trkpt lat="46.1013" lon="6.63649">
        <ele>643</ele>
        <time>2019-06-11T15:55:03Z</time>
      </trkpt>
      <trkpt lat="46.10139" lon="6.63565">
        <ele>643</ele>
        <time>2019-06-11T15:55:13Z</time>
      </trkpt>
      <trkpt lat="46.10151" lon="6.63343">
        <ele>647</ele>
        <time>2019-06-11T15:55:41Z</time>
      </trkpt>
      <trkpt lat="46.10158" lon="6.63305">
        <ele>646</ele>
        <time>2019-06-11T15:55:46Z</time>
      </trkpt>
      <trkpt lat="46.10168" lon="6.63268">
        <ele>644</ele>
        <time>2019-06-11T15:55:51Z</time>
      </trkpt>
      <trkpt lat="46.10259" lon="6.63005">
        <ele>638</ele>
        <time>2019-06-11T15:56:27Z</time>
      </trkpt>
      <trkpt lat="46.10305" lon="6.62889">
        <ele>639</ele>
        <time>2019-06-11T15:56:43Z</time>
      </trkpt>
      <trkpt lat="46.10359" lon="6.6277">
        <ele>637</ele>
        <time>2019-06-11T15:57:01Z</time>
      </trkpt>
      <trkpt lat="46.10424" lon="6.62588">
        <ele>642</ele>
        <time>2019-06-11T15:57:26Z</time>
      </trkpt>
      <trkpt lat="46.10516" lon="6.62287">
        <ele>642</ele>
        <time>2019-06-11T15:58:07Z</time>
      </trkpt>
      <trkpt lat="46.10536" lon="6.62192">
        <ele>640</ele>
        <time>2019-06-11T15:58:19Z</time>
      </trkpt>
      <trkpt lat="46.10554" lon="6.62077">
        <ele>639</ele>
        <time>2019-06-11T15:58:33Z</time>
      </trkpt>
      <trkpt lat="46.10557" lon="6.6205">
        <ele>638</ele>
        <time>2019-06-11T15:58:37Z</time>
      </trkpt>
      <trkpt lat="46.10559" lon="6.62002">
        <ele>636</ele>
        <time>2019-06-11T15:58:43Z</time>
      </trkpt>
      <trkpt lat="46.10558" lon="6.61628">
        <ele>637</ele>
        <time>2019-06-11T15:59:29Z</time>
      </trkpt>
      <trkpt lat="46.10563" lon="6.61585">
        <ele>637</ele>
        <time>2019-06-11T15:59:34Z</time>
      </trkpt>
      <trkpt lat="46.10577" lon="6.61524">
        <ele>636</ele>
        <time>2019-06-11T15:59:42Z</time>
      </trkpt>
      <trkpt lat="46.10594" lon="6.61419">
        <ele>635</ele>
        <time>2019-06-11T15:59:56Z</time>
      </trkpt>
      <trkpt lat="46.10597" lon="6.61377">
        <ele>634</ele>
        <time>2019-06-11T16:00:01Z</time>
      </trkpt>
      <trkpt lat="46.10606" lon="6.60787">
        <ele>629</ele>
        <time>2019-06-11T16:01:14Z</time>
      </trkpt>
      <trkpt lat="46.10607" lon="6.60757">
        <ele>629</ele>
        <time>2019-06-11T16:01:17Z</time>
      </trkpt>
      <trkpt lat="46.10612" lon="6.60674">
        <ele>630</ele>
        <time>2019-06-11T16:01:28Z</time>
      </trkpt>
      <trkpt lat="46.10625" lon="6.60544">
        <ele>630</ele>
        <time>2019-06-11T16:01:44Z</time>
      </trkpt>
      <trkpt lat="46.1065" lon="6.6043">
        <ele>632</ele>
        <time>2019-06-11T16:01:58Z</time>
      </trkpt>
      <trkpt lat="46.10654" lon="6.604">
        <ele>631</ele>
        <time>2019-06-11T16:02:02Z</time>
      </trkpt>
      <trkpt lat="46.10665" lon="6.60035">
        <ele>631</ele>
        <time>2019-06-11T16:02:47Z</time>
      </trkpt>
      <trkpt lat="46.10669" lon="6.59997">
        <ele>631</ele>
        <time>2019-06-11T16:02:52Z</time>
      </trkpt>
      <trkpt lat="46.10688" lon="6.59883">
        <ele>632</ele>
        <time>2019-06-11T16:03:07Z</time>
      </trkpt>
      <trkpt lat="46.10697" lon="6.59787">
        <ele>633</ele>
        <time>2019-06-11T16:03:18Z</time>
      </trkpt>
      <trkpt lat="46.10722" lon="6.59374">
        <ele>642</ele>
        <time>2019-06-11T16:04:10Z</time>
      </trkpt>
      <trkpt lat="46.10727" lon="6.59341">
        <ele>644</ele>
        <time>2019-06-11T16:04:14Z</time>
      </trkpt>
      <trkpt lat="46.10738" lon="6.59298">
        <ele>645</ele>
        <time>2019-06-11T16:04:19Z</time>
      </trkpt>
      <trkpt lat="46.10741" lon="6.5929">
        <ele>646</ele>
        <time>2019-06-11T16:04:21Z</time>
      </trkpt>
      <trkpt lat="46.10742" lon="6.59279">
        <ele>646</ele>
        <time>2019-06-11T16:04:22Z</time>
      </trkpt>
      <trkpt lat="46.10756" lon="6.59228">
        <ele>647</ele>
        <time>2019-06-11T16:04:29Z</time>
      </trkpt>
      <trkpt lat="46.10787" lon="6.59134">
        <ele>648</ele>
        <time>2019-06-11T16:04:42Z</time>
      </trkpt>
      <trkpt lat="46.10793" lon="6.59133">
        <ele>648</ele>
        <time>2019-06-11T16:04:43Z</time>
      </trkpt>
      <trkpt lat="46.10795" lon="6.5913">
        <ele>648</ele>
        <time>2019-06-11T16:04:43Z</time>
      </trkpt>
      <trkpt lat="46.10797" lon="6.59122">
        <ele>648</ele>
        <time>2019-06-11T16:04:44Z</time>
      </trkpt>
      <trkpt lat="46.10794" lon="6.59115">
        <ele>648</ele>
        <time>2019-06-11T16:04:45Z</time>
      </trkpt>
      <trkpt lat="46.10792" lon="6.59113">
        <ele>648</ele>
        <time>2019-06-11T16:04:46Z</time>
      </trkpt>
      <trkpt lat="46.10796" lon="6.59057">
        <ele>646</ele>
        <time>2019-06-11T16:04:53Z</time>
      </trkpt>
      <trkpt lat="46.10827" lon="6.58476">
        <ele>640</ele>
        <time>2019-06-11T16:06:04Z</time>
      </trkpt>
      <trkpt lat="46.10838" lon="6.58301">
        <ele>637</ele>
        <time>2019-06-11T16:06:26Z</time>
      </trkpt>
      <trkpt lat="46.10847" lon="6.58235">
        <ele>638</ele>
        <time>2019-06-11T16:06:34Z</time>
      </trkpt>
      <trkpt lat="46.10848" lon="6.58228">
        <ele>638</ele>
        <time>2019-06-11T16:06:35Z</time>
      </trkpt>
      <trkpt lat="46.10852" lon="6.58221">
        <ele>638</ele>
        <time>2019-06-11T16:06:36Z</time>
      </trkpt>
      <trkpt lat="46.10854" lon="6.58215">
        <ele>639</ele>
        <time>2019-06-11T16:06:37Z</time>
      </trkpt>
      <trkpt lat="46.10847" lon="6.58186">
        <ele>637</ele>
        <time>2019-06-11T16:06:41Z</time>
      </trkpt>
      <trkpt lat="46.10843" lon="6.58106">
        <ele>635</ele>
        <time>2019-06-11T16:06:51Z</time>
      </trkpt>
      <trkpt lat="46.10835" lon="6.57038">
        <ele>618</ele>
        <time>2019-06-11T16:09:03Z</time>
      </trkpt>
      <trkpt lat="46.1084" lon="6.56978">
        <ele>617</ele>
        <time>2019-06-11T16:09:10Z</time>
      </trkpt>
      <trkpt lat="46.10894" lon="6.56593">
        <ele>613</ele>
        <time>2019-06-11T16:09:59Z</time>
      </trkpt>
      <trkpt lat="46.10904" lon="6.56557">
        <ele>612</ele>
        <time>2019-06-11T16:10:03Z</time>
      </trkpt>
      <trkpt lat="46.11079" lon="6.56045">
        <ele>613</ele>
        <time>2019-06-11T16:11:14Z</time>
      </trkpt>
      <trkpt lat="46.11088" lon="6.56008">
        <ele>618</ele>
        <time>2019-06-11T16:11:19Z</time>
      </trkpt>
      <trkpt lat="46.11095" lon="6.55934">
        <ele>627</ele>
        <time>2019-06-11T16:11:28Z</time>
      </trkpt>
      <trkpt lat="46.11102" lon="6.55723">
        <ele>629</ele>
        <time>2019-06-11T16:11:54Z</time>
      </trkpt>
      <trkpt lat="46.11109" lon="6.55676">
        <ele>630</ele>
        <time>2019-06-11T16:12:00Z</time>
      </trkpt>
      <trkpt lat="46.11119" lon="6.55642">
        <ele>630</ele>
        <time>2019-06-11T16:12:04Z</time>
      </trkpt>
      <trkpt lat="46.11131" lon="6.55612">
        <ele>628</ele>
        <time>2019-06-11T16:12:09Z</time>
      </trkpt>
      <trkpt lat="46.11182" lon="6.55516">
        <ele>623</ele>
        <time>2019-06-11T16:12:24Z</time>
      </trkpt>
      <trkpt lat="46.11194" lon="6.55499">
        <ele>622</ele>
        <time>2019-06-11T16:12:27Z</time>
      </trkpt>
      <trkpt lat="46.11212" lon="6.55478">
        <ele>622</ele>
        <time>2019-06-11T16:12:31Z</time>
      </trkpt>
      <trkpt lat="46.11261" lon="6.55439">
        <ele>622</ele>
        <time>2019-06-11T16:12:41Z</time>
      </trkpt>
      <trkpt lat="46.11379" lon="6.55348">
        <ele>620</ele>
        <time>2019-06-11T16:13:04Z</time>
      </trkpt>
      <trkpt lat="46.11399" lon="6.55336">
        <ele>621</ele>
        <time>2019-06-11T16:13:08Z</time>
      </trkpt>
      <trkpt lat="46.11429" lon="6.55329">
        <ele>621</ele>
        <time>2019-06-11T16:13:14Z</time>
      </trkpt>
      <trkpt lat="46.11713" lon="6.55324">
        <ele>633</ele>
        <time>2019-06-11T16:14:04Z</time>
      </trkpt>
      <trkpt lat="46.11741" lon="6.55316">
        <ele>633</ele>
        <time>2019-06-11T16:14:09Z</time>
      </trkpt>
      <trkpt lat="46.1176" lon="6.55305">
        <ele>632</ele>
        <time>2019-06-11T16:14:13Z</time>
      </trkpt>
      <trkpt lat="46.11778" lon="6.5529">
        <ele>631</ele>
        <time>2019-06-11T16:14:17Z</time>
      </trkpt>
      <trkpt lat="46.11794" lon="6.55269">
        <ele>629</ele>
        <time>2019-06-11T16:14:21Z</time>
      </trkpt>
      <trkpt lat="46.11807" lon="6.55235">
        <ele>627</ele>
        <time>2019-06-11T16:14:25Z</time>
      </trkpt>
      <trkpt lat="46.11824" lon="6.55171">
        <ele>625</ele>
        <time>2019-06-11T16:14:34Z</time>
      </trkpt>
      <trkpt lat="46.11869" lon="6.55063">
        <ele>629</ele>
        <time>2019-06-11T16:14:49Z</time>
      </trkpt>
      <trkpt lat="46.11936" lon="6.54938">
        <ele>632</ele>
        <time>2019-06-11T16:15:09Z</time>
      </trkpt>
      <trkpt lat="46.1201" lon="6.54808">
        <ele>634</ele>
        <time>2019-06-11T16:15:30Z</time>
      </trkpt>
      <trkpt lat="46.12021" lon="6.54775">
        <ele>634</ele>
        <time>2019-06-11T16:15:34Z</time>
      </trkpt>
      <trkpt lat="46.12057" lon="6.54624">
        <ele>635</ele>
        <time>2019-06-11T16:15:54Z</time>
      </trkpt>
      <trkpt lat="46.12071" lon="6.54591">
        <ele>635</ele>
        <time>2019-06-11T16:15:59Z</time>
      </trkpt>
      <trkpt lat="46.12295" lon="6.54147">
        <ele>645</ele>
        <time>2019-06-11T16:17:06Z</time>
      </trkpt>
      <trkpt lat="46.12308" lon="6.54125">
        <ele>645</ele>
        <time>2019-06-11T16:17:10Z</time>
      </trkpt>
      <trkpt lat="46.1233" lon="6.54093">
        <ele>646</ele>
        <time>2019-06-11T16:17:15Z</time>
      </trkpt>
      <trkpt lat="46.12353" lon="6.5407">
        <ele>647</ele>
        <time>2019-06-11T16:17:20Z</time>
      </trkpt>
      <trkpt lat="46.12556" lon="6.53882">
        <ele>648</ele>
        <time>2019-06-11T16:18:03Z</time>
      </trkpt>
      <trkpt lat="46.12598" lon="6.53852">
        <ele>649</ele>
        <time>2019-06-11T16:18:12Z</time>
      </trkpt>
      <trkpt lat="46.12702" lon="6.53795">
        <ele>652</ele>
        <time>2019-06-11T16:18:31Z</time>
      </trkpt>
      <trkpt lat="46.12732" lon="6.5377">
        <ele>653</ele>
        <time>2019-06-11T16:18:38Z</time>
      </trkpt>
      <trkpt lat="46.12744" lon="6.53754">
        <ele>650</ele>
        <time>2019-06-11T16:18:40Z</time>
      </trkpt>
      <trkpt lat="46.12851" lon="6.53526">
        <ele>652</ele>
        <time>2019-06-11T16:19:14Z</time>
      </trkpt>
      <trkpt lat="46.12912" lon="6.53418">
        <ele>648</ele>
        <time>2019-06-11T16:19:32Z</time>
      </trkpt>
      <trkpt lat="46.12922" lon="6.53394">
        <ele>648</ele>
        <time>2019-06-11T16:19:35Z</time>
      </trkpt>
      <trkpt lat="46.12944" lon="6.53296">
        <ele>641</ele>
        <time>2019-06-11T16:19:48Z</time>
      </trkpt>
      <trkpt lat="46.12955" lon="6.53263">
        <ele>640</ele>
        <time>2019-06-11T16:19:52Z</time>
      </trkpt>
      <trkpt lat="46.12967" lon="6.53236">
        <ele>639</ele>
        <time>2019-06-11T16:19:56Z</time>
      </trkpt>
      <trkpt lat="46.13071" lon="6.53046">
        <ele>634</ele>
        <time>2019-06-11T16:20:26Z</time>
      </trkpt>
      <trkpt lat="46.13226" lon="6.52836">
        <ele>635</ele>
        <time>2019-06-11T16:21:04Z</time>
      </trkpt>
      <trkpt lat="46.1325" lon="6.52782">
        <ele>636</ele>
        <time>2019-06-11T16:21:12Z</time>
      </trkpt>
      <trkpt lat="46.13266" lon="6.52731">
        <ele>636</ele>
        <time>2019-06-11T16:21:19Z</time>
      </trkpt>
      <trkpt lat="46.13273" lon="6.52716">
        <ele>636</ele>
        <time>2019-06-11T16:21:21Z</time>
      </trkpt>
      <trkpt lat="46.13279" lon="6.5271">
        <ele>637</ele>
        <time>2019-06-11T16:21:22Z</time>
      </trkpt>
      <trkpt lat="46.13282" lon="6.52705">
        <ele>637</ele>
        <time>2019-06-11T16:21:23Z</time>
      </trkpt>
      <trkpt lat="46.13283" lon="6.52693">
        <ele>636</ele>
        <time>2019-06-11T16:21:25Z</time>
      </trkpt>
      <trkpt lat="46.13282" lon="6.5268">
        <ele>635</ele>
        <time>2019-06-11T16:21:26Z</time>
      </trkpt>
      <trkpt lat="46.13285" lon="6.52665">
        <ele>635</ele>
        <time>2019-06-11T16:21:28Z</time>
      </trkpt>
      <trkpt lat="46.13346" lon="6.52456">
        <ele>639</ele>
        <time>2019-06-11T16:21:56Z</time>
      </trkpt>
      <trkpt lat="46.13367" lon="6.52326">
        <ele>640</ele>
        <time>2019-06-11T16:22:13Z</time>
      </trkpt>
      <trkpt lat="46.13375" lon="6.52252">
        <ele>640</ele>
        <time>2019-06-11T16:22:22Z</time>
      </trkpt>
      <trkpt lat="46.13384" lon="6.52195">
        <ele>639</ele>
        <time>2019-06-11T16:22:29Z</time>
      </trkpt>
      <trkpt lat="46.13404" lon="6.52082">
        <ele>634</ele>
        <time>2019-06-11T16:22:43Z</time>
      </trkpt>
      <trkpt lat="46.13427" lon="6.52002">
        <ele>630</ele>
        <time>2019-06-11T16:22:54Z</time>
      </trkpt>
      <trkpt lat="46.13429" lon="6.51991">
        <ele>630</ele>
        <time>2019-06-11T16:22:55Z</time>
      </trkpt>
      <trkpt lat="46.13428" lon="6.51972">
        <ele>631</ele>
        <time>2019-06-11T16:22:58Z</time>
      </trkpt>
      <trkpt lat="46.13421" lon="6.51952">
        <ele>631</ele>
        <time>2019-06-11T16:23:01Z</time>
      </trkpt>
      <trkpt lat="46.13407" lon="6.51936">
        <ele>631</ele>
        <time>2019-06-11T16:23:04Z</time>
      </trkpt>
      <trkpt lat="46.13332" lon="6.51896">
        <ele>629</ele>
        <time>2019-06-11T16:23:18Z</time>
      </trkpt>
      <trkpt lat="46.13261" lon="6.5186">
        <ele>627</ele>
        <time>2019-06-11T16:23:31Z</time>
      </trkpt>
      <trkpt lat="46.13199" lon="6.51831">
        <ele>627</ele>
        <time>2019-06-11T16:23:43Z</time>
      </trkpt>
      <trkpt lat="46.1315" lon="6.51829">
        <ele>625</ele>
        <time>2019-06-11T16:23:52Z</time>
      </trkpt>
      <trkpt lat="46.13131" lon="6.51824">
        <ele>625</ele>
        <time>2019-06-11T16:23:55Z</time>
      </trkpt>
      <trkpt lat="46.13118" lon="6.51819">
        <ele>625</ele>
        <time>2019-06-11T16:23:57Z</time>
      </trkpt>
      <trkpt lat="46.13085" lon="6.51799">
        <ele>625</ele>
        <time>2019-06-11T16:24:04Z</time>
      </trkpt>
      <trkpt lat="46.13076" lon="6.51789">
        <ele>625</ele>
        <time>2019-06-11T16:24:06Z</time>
      </trkpt>
      <trkpt lat="46.13046" lon="6.51735">
        <ele>626</ele>
        <time>2019-06-11T16:24:14Z</time>
      </trkpt>
      <trkpt lat="46.13038" lon="6.51713">
        <ele>626</ele>
        <time>2019-06-11T16:24:17Z</time>
      </trkpt>
      <trkpt lat="46.13019" lon="6.51648">
        <ele>625</ele>
        <time>2019-06-11T16:24:26Z</time>
      </trkpt>
      <trkpt lat="46.13011" lon="6.51609">
        <ele>625</ele>
        <time>2019-06-11T16:24:31Z</time>
      </trkpt>
      <trkpt lat="46.13007" lon="6.51577">
        <ele>624</ele>
        <time>2019-06-11T16:24:35Z</time>
      </trkpt>
      <trkpt lat="46.13005" lon="6.51545">
        <ele>624</ele>
        <time>2019-06-11T16:24:39Z</time>
      </trkpt>
      <trkpt lat="46.13002" lon="6.51434">
        <ele>624</ele>
        <time>2019-06-11T16:24:53Z</time>
      </trkpt>
      <trkpt lat="46.12988" lon="6.51279">
        <ele>621</ele>
        <time>2019-06-11T16:25:12Z</time>
      </trkpt>
      <trkpt lat="46.12975" lon="6.51157">
        <ele>615</ele>
        <time>2019-06-11T16:25:27Z</time>
      </trkpt>
      <trkpt lat="46.13028" lon="6.51113">
        <ele>632</ele>
        <time>2019-06-11T16:25:38Z</time>
      </trkpt>
      <trkpt lat="46.13038" lon="6.51099">
        <ele>635</ele>
        <time>2019-06-11T16:25:41Z</time>
      </trkpt>
      <trkpt lat="46.13046" lon="6.51081">
        <ele>638</ele>
        <time>2019-06-11T16:25:43Z</time>
      </trkpt>
      <trkpt lat="46.13057" lon="6.51022">
        <ele>639</ele>
        <time>2019-06-11T16:25:51Z</time>
      </trkpt>
      <trkpt lat="46.13061" lon="6.5101">
        <ele>640</ele>
        <time>2019-06-11T16:25:53Z</time>
      </trkpt>
      <trkpt lat="46.13071" lon="6.5099">
        <ele>642</ele>
        <time>2019-06-11T16:25:56Z</time>
      </trkpt>
      <trkpt lat="46.13109" lon="6.50922">
        <ele>651</ele>
        <time>2019-06-11T16:26:06Z</time>
      </trkpt>
      <trkpt lat="46.13114" lon="6.50902">
        <ele>653</ele>
        <time>2019-06-11T16:26:09Z</time>
      </trkpt>
      <trkpt lat="46.13115" lon="6.50873">
        <ele>655</ele>
        <time>2019-06-11T16:26:13Z</time>
      </trkpt>
      <trkpt lat="46.13099" lon="6.50764">
        <ele>660</ele>
        <time>2019-06-11T16:26:26Z</time>
      </trkpt>
      <trkpt lat="46.131" lon="6.50747">
        <ele>661</ele>
        <time>2019-06-11T16:26:28Z</time>
      </trkpt>
      <trkpt lat="46.13104" lon="6.50734">
        <ele>662</ele>
        <time>2019-06-11T16:26:30Z</time>
      </trkpt>
      <trkpt lat="46.1311" lon="6.50726">
        <ele>662</ele>
        <time>2019-06-11T16:26:32Z</time>
      </trkpt>
      <trkpt lat="46.13146" lon="6.50698">
        <ele>664</ele>
        <time>2019-06-11T16:26:39Z</time>
      </trkpt>
      <trkpt lat="46.13158" lon="6.50692">
        <ele>664</ele>
        <time>2019-06-11T16:26:41Z</time>
      </trkpt>
      <trkpt lat="46.13238" lon="6.50665">
        <ele>677</ele>
        <time>2019-06-11T16:26:56Z</time>
      </trkpt>
      <trkpt lat="46.13272" lon="6.50645">
        <ele>684</ele>
        <time>2019-06-11T16:27:02Z</time>
      </trkpt>
      <trkpt lat="46.13295" lon="6.50636">
        <ele>686</ele>
        <time>2019-06-11T16:27:07Z</time>
      </trkpt>
      <trkpt lat="46.13377" lon="6.50619">
        <ele>691</ele>
        <time>2019-06-11T16:27:21Z</time>
      </trkpt>
      <trkpt lat="46.1339" lon="6.50615">
        <ele>692</ele>
        <time>2019-06-11T16:27:24Z</time>
      </trkpt>
      <trkpt lat="46.13403" lon="6.50607">
        <ele>692</ele>
        <time>2019-06-11T16:27:26Z</time>
      </trkpt>
      <trkpt lat="46.13416" lon="6.50595">
        <ele>693</ele>
        <time>2019-06-11T16:27:29Z</time>
      </trkpt>
      <trkpt lat="46.13431" lon="6.50574">
        <ele>696</ele>
        <time>2019-06-11T16:27:33Z</time>
      </trkpt>
      <trkpt lat="46.13518" lon="6.50393">
        <ele>704</ele>
        <time>2019-06-11T16:28:00Z</time>
      </trkpt>
      <trkpt lat="46.13602" lon="6.50302">
        <ele>707</ele>
        <time>2019-06-11T16:28:18Z</time>
      </trkpt>
      <trkpt lat="46.13709" lon="6.50167">
        <ele>714</ele>
        <time>2019-06-11T16:28:44Z</time>
      </trkpt>
      <trkpt lat="46.13779" lon="6.50084">
        <ele>717</ele>
        <time>2019-06-11T16:29:00Z</time>
      </trkpt>
      <trkpt lat="46.13832" lon="6.50032">
        <ele>724</ele>
        <time>2019-06-11T16:29:11Z</time>
      </trkpt>
      <trkpt lat="46.13841" lon="6.50018">
        <ele>724</ele>
        <time>2019-06-11T16:29:14Z</time>
      </trkpt>
      <trkpt lat="46.13852" lon="6.49989">
        <ele>724</ele>
        <time>2019-06-11T16:29:18Z</time>
      </trkpt>
      <trkpt lat="46.13856" lon="6.4997">
        <ele>725</ele>
        <time>2019-06-11T16:29:20Z</time>
      </trkpt>
      <trkpt lat="46.13874" lon="6.49821">
        <ele>728</ele>
        <time>2019-06-11T16:29:39Z</time>
      </trkpt>
      <trkpt lat="46.13882" lon="6.49783">
        <ele>728</ele>
        <time>2019-06-11T16:29:44Z</time>
      </trkpt>
      <trkpt lat="46.139" lon="6.49732">
        <ele>728</ele>
        <time>2019-06-11T16:29:51Z</time>
      </trkpt>
      <trkpt lat="46.13912" lon="6.4971">
        <ele>729</ele>
        <time>2019-06-11T16:29:54Z</time>
      </trkpt>
      <trkpt lat="46.13921" lon="6.49696">
        <ele>730</ele>
        <time>2019-06-11T16:29:57Z</time>
      </trkpt>
      <trkpt lat="46.13932" lon="6.49683">
        <ele>731</ele>
        <time>2019-06-11T16:29:59Z</time>
      </trkpt>
      <trkpt lat="46.13944" lon="6.49672">
        <ele>731</ele>
        <time>2019-06-11T16:30:02Z</time>
      </trkpt>
      <trkpt lat="46.13966" lon="6.49658">
        <ele>730</ele>
        <time>2019-06-11T16:30:06Z</time>
      </trkpt>
      <trkpt lat="46.13979" lon="6.49653">
        <ele>729</ele>
        <time>2019-06-11T16:30:08Z</time>
      </trkpt>
      <trkpt lat="46.14005" lon="6.49648">
        <ele>726</ele>
        <time>2019-06-11T16:30:13Z</time>
      </trkpt>
      <trkpt lat="46.14051" lon="6.49653">
        <ele>723</ele>
        <time>2019-06-11T16:30:21Z</time>
      </trkpt>
      <trkpt lat="46.14073" lon="6.49648">
        <ele>722</ele>
        <time>2019-06-11T16:30:25Z</time>
      </trkpt>
      <trkpt lat="46.14104" lon="6.49635">
        <ele>722</ele>
        <time>2019-06-11T16:30:31Z</time>
      </trkpt>
      <trkpt lat="46.14117" lon="6.49633">
        <ele>722</ele>
        <time>2019-06-11T16:30:33Z</time>
      </trkpt>
      <trkpt lat="46.1423" lon="6.49632">
        <ele>727</ele>
        <time>2019-06-11T16:30:53Z</time>
      </trkpt>
      <trkpt lat="46.14255" lon="6.49629">
        <ele>729</ele>
        <time>2019-06-11T16:30:58Z</time>
      </trkpt>
      <trkpt lat="46.14305" lon="6.49614">
        <ele>732</ele>
        <time>2019-06-11T16:31:07Z</time>
      </trkpt>
      <trkpt lat="46.14323" lon="6.49613">
        <ele>734</ele>
        <time>2019-06-11T16:31:10Z</time>
      </trkpt>
      <trkpt lat="46.14339" lon="6.49616">
        <ele>735</ele>
        <time>2019-06-11T16:31:13Z</time>
      </trkpt>
      <trkpt lat="46.14356" lon="6.49623">
        <ele>736</ele>
        <time>2019-06-11T16:31:16Z</time>
      </trkpt>
      <trkpt lat="46.14504" lon="6.49699">
        <ele>740</ele>
        <time>2019-06-11T16:31:44Z</time>
      </trkpt>
      <trkpt lat="46.14528" lon="6.49707">
        <ele>741</ele>
        <time>2019-06-11T16:31:48Z</time>
      </trkpt>
      <trkpt lat="46.14542" lon="6.49708">
        <ele>742</ele>
        <time>2019-06-11T16:31:51Z</time>
      </trkpt>
      <trkpt lat="46.14569" lon="6.49702">
        <ele>742</ele>
        <time>2019-06-11T16:31:56Z</time>
      </trkpt>
      <trkpt lat="46.1458" lon="6.49696">
        <ele>742</ele>
        <time>2019-06-11T16:31:58Z</time>
      </trkpt>
      <trkpt lat="46.14695" lon="6.496">
        <ele>742</ele>
        <time>2019-06-11T16:32:21Z</time>
      </trkpt>
      <trkpt lat="46.14708" lon="6.49592">
        <ele>742</ele>
        <time>2019-06-11T16:32:24Z</time>
      </trkpt>
      <trkpt lat="46.14757" lon="6.4958">
        <ele>742</ele>
        <time>2019-06-11T16:32:33Z</time>
      </trkpt>
      <trkpt lat="46.14794" lon="6.49562">
        <ele>744</ele>
        <time>2019-06-11T16:32:40Z</time>
      </trkpt>
      <trkpt lat="46.14829" lon="6.49538">
        <ele>746</ele>
        <time>2019-06-11T16:32:47Z</time>
      </trkpt>
      <trkpt lat="46.14897" lon="6.49485">
        <ele>748</ele>
        <time>2019-06-11T16:33:00Z</time>
      </trkpt>
      <trkpt lat="46.14927" lon="6.49465">
        <ele>749</ele>
        <time>2019-06-11T16:33:06Z</time>
      </trkpt>
      <trkpt lat="46.15009" lon="6.49431">
        <ele>750</ele>
        <time>2019-06-11T16:33:21Z</time>
      </trkpt>
      <trkpt lat="46.15041" lon="6.49428">
        <ele>751</ele>
        <time>2019-06-11T16:33:27Z</time>
      </trkpt>
      <trkpt lat="46.1511" lon="6.49443">
        <ele>756</ele>
        <time>2019-06-11T16:33:40Z</time>
      </trkpt>
      <trkpt lat="46.15184" lon="6.49454">
        <ele>761</ele>
        <time>2019-06-11T16:33:53Z</time>
      </trkpt>
      <trkpt lat="46.15197" lon="6.49451">
        <ele>762</ele>
        <time>2019-06-11T16:33:55Z</time>
      </trkpt>
      <trkpt lat="46.15227" lon="6.49429">
        <ele>763</ele>
        <time>2019-06-11T16:34:01Z</time>
      </trkpt>
      <trkpt lat="46.15241" lon="6.49414">
        <ele>763</ele>
        <time>2019-06-11T16:34:04Z</time>
      </trkpt>
      <trkpt lat="46.15244" lon="6.4939">
        <ele>762</ele>
        <time>2019-06-11T16:34:07Z</time>
      </trkpt>
      <trkpt lat="46.15247" lon="6.49383">
        <ele>762</ele>
        <time>2019-06-11T16:34:08Z</time>
      </trkpt>
      <trkpt lat="46.15251" lon="6.49379">
        <ele>762</ele>
        <time>2019-06-11T16:34:09Z</time>
      </trkpt>
      <trkpt lat="46.15265" lon="6.49372">
        <ele>763</ele>
        <time>2019-06-11T16:34:12Z</time>
      </trkpt>
      <trkpt lat="46.15284" lon="6.49368">
        <ele>764</ele>
        <time>2019-06-11T16:34:15Z</time>
      </trkpt>
      <trkpt lat="46.15303" lon="6.49355">
        <ele>765</ele>
        <time>2019-06-11T16:34:19Z</time>
      </trkpt>
      <trkpt lat="46.15363" lon="6.49264">
        <ele>767</ele>
        <time>2019-06-11T16:34:34Z</time>
      </trkpt>
      <trkpt lat="46.15371" lon="6.49249">
        <ele>767</ele>
        <time>2019-06-11T16:34:37Z</time>
      </trkpt>
      <trkpt lat="46.15399" lon="6.49174">
        <ele>768</ele>
        <time>2019-06-11T16:34:47Z</time>
      </trkpt>
      <trkpt lat="46.1541" lon="6.4914">
        <ele>768</ele>
        <time>2019-06-11T16:34:52Z</time>
      </trkpt>
      <trkpt lat="46.15417" lon="6.49128">
        <ele>769</ele>
        <time>2019-06-11T16:34:54Z</time>
      </trkpt>
      <trkpt lat="46.15442" lon="6.49101">
        <ele>770</ele>
        <time>2019-06-11T16:34:59Z</time>
      </trkpt>
      <trkpt lat="46.1566" lon="6.48836">
        <ele>788</ele>
        <time>2019-06-11T16:35:50Z</time>
      </trkpt>
      <trkpt lat="46.15702" lon="6.48782">
        <ele>791</ele>
        <time>2019-06-11T16:36:00Z</time>
      </trkpt>
      <trkpt lat="46.15716" lon="6.48768">
        <ele>792</ele>
        <time>2019-06-11T16:36:03Z</time>
      </trkpt>
      <trkpt lat="46.15729" lon="6.4876">
        <ele>793</ele>
        <time>2019-06-11T16:36:06Z</time>
      </trkpt>
      <trkpt lat="46.15754" lon="6.48749">
        <ele>795</ele>
        <time>2019-06-11T16:36:10Z</time>
      </trkpt>
      <trkpt lat="46.15768" lon="6.48747">
        <ele>797</ele>
        <time>2019-06-11T16:36:13Z</time>
      </trkpt>
      <trkpt lat="46.15781" lon="6.48748">
        <ele>798</ele>
        <time>2019-06-11T16:36:15Z</time>
      </trkpt>
      <trkpt lat="46.15813" lon="6.48761">
        <ele>802</ele>
        <time>2019-06-11T16:36:21Z</time>
      </trkpt>
      <trkpt lat="46.15827" lon="6.48773">
        <ele>803</ele>
        <time>2019-06-11T16:36:24Z</time>
      </trkpt>
      <trkpt lat="46.15843" lon="6.48796">
        <ele>805</ele>
        <time>2019-06-11T16:36:28Z</time>
      </trkpt>
      <trkpt lat="46.1591" lon="6.48919">
        <ele>816</ele>
        <time>2019-06-11T16:36:47Z</time>
      </trkpt>
      <trkpt lat="46.1593" lon="6.4895">
        <ele>819</ele>
        <time>2019-06-11T16:36:52Z</time>
      </trkpt>
      <trkpt lat="46.15941" lon="6.48962">
        <ele>820</ele>
        <time>2019-06-11T16:36:55Z</time>
      </trkpt>
      <trkpt lat="46.15972" lon="6.48991">
        <ele>824</ele>
        <time>2019-06-11T16:37:01Z</time>
      </trkpt>
      <trkpt lat="46.16" lon="6.49007">
        <ele>827</ele>
        <time>2019-06-11T16:37:07Z</time>
      </trkpt>
      <trkpt lat="46.16063" lon="6.49035">
        <ele>830</ele>
        <time>2019-06-11T16:37:19Z</time>
      </trkpt>
      <trkpt lat="46.16071" lon="6.49042">
        <ele>830</ele>
        <time>2019-06-11T16:37:20Z</time>
      </trkpt>
      <trkpt lat="46.16075" lon="6.49057">
        <ele>831</ele>
        <time>2019-06-11T16:37:22Z</time>
      </trkpt>
      <trkpt lat="46.16073" lon="6.49072">
        <ele>831</ele>
        <time>2019-06-11T16:37:24Z</time>
      </trkpt>
      <trkpt lat="46.16066" lon="6.4909">
        <ele>830</ele>
        <time>2019-06-11T16:37:27Z</time>
      </trkpt>
      <trkpt lat="46.16055" lon="6.4911">
        <ele>830</ele>
        <time>2019-06-11T16:37:30Z</time>
      </trkpt>
      <trkpt lat="46.16047" lon="6.49128">
        <ele>830</ele>
        <time>2019-06-11T16:37:32Z</time>
      </trkpt>
      <trkpt lat="46.16046" lon="6.49142">
        <ele>831</ele>
        <time>2019-06-11T16:37:34Z</time>
      </trkpt>
      <trkpt lat="46.1605" lon="6.49154">
        <ele>831</ele>
        <time>2019-06-11T16:37:36Z</time>
      </trkpt>
      <trkpt lat="46.16073" lon="6.49178">
        <ele>833</ele>
        <time>2019-06-11T16:37:41Z</time>
      </trkpt>
      <trkpt lat="46.16083" lon="6.49183">
        <ele>833</ele>
        <time>2019-06-11T16:37:43Z</time>
      </trkpt>
      <trkpt lat="46.16107" lon="6.49185">
        <ele>833</ele>
        <time>2019-06-11T16:37:47Z</time>
      </trkpt>
      <trkpt lat="46.16119" lon="6.49189">
        <ele>833</ele>
        <time>2019-06-11T16:37:49Z</time>
      </trkpt>
      <trkpt lat="46.16156" lon="6.49213">
        <ele>835</ele>
        <time>2019-06-11T16:37:56Z</time>
      </trkpt>
      <trkpt lat="46.16164" lon="6.49213">
        <ele>835</ele>
        <time>2019-06-11T16:37:58Z</time>
      </trkpt>
      <trkpt lat="46.16218" lon="6.4916">
        <ele>833</ele>
        <time>2019-06-11T16:38:09Z</time>
      </trkpt>
      <trkpt lat="46.16231" lon="6.49151">
        <ele>833</ele>
        <time>2019-06-11T16:38:12Z</time>
      </trkpt>
      <trkpt lat="46.16246" lon="6.49152">
        <ele>833</ele>
        <time>2019-06-11T16:38:15Z</time>
      </trkpt>
      <trkpt lat="46.16374" lon="6.49194">
        <ele>832</ele>
        <time>2019-06-11T16:38:38Z</time>
      </trkpt>
      <trkpt lat="46.16392" lon="6.49202">
        <ele>831</ele>
        <time>2019-06-11T16:38:41Z</time>
      </trkpt>
      <trkpt lat="46.16404" lon="6.49212">
        <ele>832</ele>
        <time>2019-06-11T16:38:44Z</time>
      </trkpt>
      <trkpt lat="46.16451" lon="6.49269">
        <ele>832</ele>
        <time>2019-06-11T16:38:55Z</time>
      </trkpt>
      <trkpt lat="46.16463" lon="6.49282">
        <ele>832</ele>
        <time>2019-06-11T16:38:57Z</time>
      </trkpt>
      <trkpt lat="46.16475" lon="6.49291">
        <ele>832</ele>
        <time>2019-06-11T16:39:00Z</time>
      </trkpt>
      <trkpt lat="46.16499" lon="6.49303">
        <ele>831</ele>
        <time>2019-06-11T16:39:04Z</time>
      </trkpt>
      <trkpt lat="46.16565" lon="6.49323">
        <ele>830</ele>
        <time>2019-06-11T16:39:16Z</time>
      </trkpt>
      <trkpt lat="46.16625" lon="6.49357">
        <ele>832</ele>
        <time>2019-06-11T16:39:28Z</time>
      </trkpt>
      <trkpt lat="46.16713" lon="6.49395">
        <ele>838</ele>
        <time>2019-06-11T16:39:44Z</time>
      </trkpt>
      <trkpt lat="46.16723" lon="6.49405">
        <ele>839</ele>
        <time>2019-06-11T16:39:46Z</time>
      </trkpt>
      <trkpt lat="46.16731" lon="6.49419">
        <ele>841</ele>
        <time>2019-06-11T16:39:49Z</time>
      </trkpt>
      <trkpt lat="46.16757" lon="6.49474">
        <ele>847</ele>
        <time>2019-06-11T16:39:57Z</time>
      </trkpt>
      <trkpt lat="46.16813" lon="6.49543">
        <ele>846</ele>
        <time>2019-06-11T16:40:10Z</time>
      </trkpt>
      <trkpt lat="46.16868" lon="6.49627">
        <ele>845</ele>
        <time>2019-06-11T16:40:24Z</time>
      </trkpt>
      <trkpt lat="46.16913" lon="6.49708">
        <ele>844</ele>
        <time>2019-06-11T16:40:37Z</time>
      </trkpt>
      <trkpt lat="46.16924" lon="6.49725">
        <ele>845</ele>
        <time>2019-06-11T16:40:40Z</time>
      </trkpt>
      <trkpt lat="46.16945" lon="6.49744">
        <ele>846</ele>
        <time>2019-06-11T16:40:44Z</time>
      </trkpt>
      <trkpt lat="46.16999" lon="6.49781">
        <ele>847</ele>
        <time>2019-06-11T16:40:55Z</time>
      </trkpt>
      <trkpt lat="46.17008" lon="6.49791">
        <ele>847</ele>
        <time>2019-06-11T16:40:57Z</time>
      </trkpt>
      <trkpt lat="46.1702" lon="6.49814">
        <ele>848</ele>
        <time>2019-06-11T16:41:00Z</time>
      </trkpt>
      <trkpt lat="46.17084" lon="6.50018">
        <ele>855</ele>
        <time>2019-06-11T16:41:28Z</time>
      </trkpt>
      <trkpt lat="46.17094" lon="6.50074">
        <ele>859</ele>
        <time>2019-06-11T16:41:35Z</time>
      </trkpt>
      <trkpt lat="46.17101" lon="6.50092">
        <ele>860</ele>
        <time>2019-06-11T16:41:38Z</time>
      </trkpt>
      <trkpt lat="46.17113" lon="6.50109">
        <ele>860</ele>
        <time>2019-06-11T16:41:41Z</time>
      </trkpt>
      <trkpt lat="46.17149" lon="6.50139">
        <ele>860</ele>
        <time>2019-06-11T16:41:48Z</time>
      </trkpt>
      <trkpt lat="46.17164" lon="6.50158">
        <ele>860</ele>
        <time>2019-06-11T16:41:52Z</time>
      </trkpt>
      <trkpt lat="46.17167" lon="6.50172">
        <ele>861</ele>
        <time>2019-06-11T16:41:53Z</time>
      </trkpt>
      <trkpt lat="46.17166" lon="6.50188">
        <ele>863</ele>
        <time>2019-06-11T16:41:55Z</time>
      </trkpt>
      <trkpt lat="46.17151" lon="6.50217">
        <ele>868</ele>
        <time>2019-06-11T16:42:00Z</time>
      </trkpt>
      <trkpt lat="46.17133" lon="6.50244">
        <ele>872</ele>
        <time>2019-06-11T16:42:04Z</time>
      </trkpt>
      <trkpt lat="46.17131" lon="6.50253">
        <ele>873</ele>
        <time>2019-06-11T16:42:06Z</time>
      </trkpt>
      <trkpt lat="46.17131" lon="6.50267">
        <ele>875</ele>
        <time>2019-06-11T16:42:07Z</time>
      </trkpt>
      <trkpt lat="46.17135" lon="6.50288">
        <ele>877</ele>
        <time>2019-06-11T16:42:10Z</time>
      </trkpt>
      <trkpt lat="46.17143" lon="6.50307">
        <ele>880</ele>
        <time>2019-06-11T16:42:13Z</time>
      </trkpt>
      <trkpt lat="46.17155" lon="6.50325">
        <ele>882</ele>
        <time>2019-06-11T16:42:16Z</time>
      </trkpt>
      <trkpt lat="46.17166" lon="6.50337">
        <ele>883</ele>
        <time>2019-06-11T16:42:18Z</time>
      </trkpt>
      <trkpt lat="46.1718" lon="6.50347">
        <ele>884</ele>
        <time>2019-06-11T16:42:21Z</time>
      </trkpt>
      <trkpt lat="46.17258" lon="6.50366">
        <ele>884</ele>
        <time>2019-06-11T16:42:35Z</time>
      </trkpt>
      <trkpt lat="46.17276" lon="6.5038">
        <ele>883</ele>
        <time>2019-06-11T16:42:39Z</time>
      </trkpt>
      <trkpt lat="46.17302" lon="6.50407">
        <ele>881</ele>
        <time>2019-06-11T16:42:45Z</time>
      </trkpt>
      <trkpt lat="46.17322" lon="6.50446">
        <ele>882</ele>
        <time>2019-06-11T16:42:50Z</time>
      </trkpt>
      <trkpt lat="46.17338" lon="6.5047">
        <ele>881</ele>
        <time>2019-06-11T16:42:55Z</time>
      </trkpt>
      <trkpt lat="46.17346" lon="6.5049">
        <ele>881</ele>
        <time>2019-06-11T16:42:57Z</time>
      </trkpt>
      <trkpt lat="46.17362" lon="6.50544">
        <ele>884</ele>
        <time>2019-06-11T16:43:05Z</time>
      </trkpt>
      <trkpt lat="46.17383" lon="6.50588">
        <ele>885</ele>
        <time>2019-06-11T16:43:11Z</time>
      </trkpt>
      <trkpt lat="46.17394" lon="6.50601">
        <ele>885</ele>
        <time>2019-06-11T16:43:14Z</time>
      </trkpt>
      <trkpt lat="46.17417" lon="6.50611">
        <ele>883</ele>
        <time>2019-06-11T16:43:18Z</time>
      </trkpt>
      <trkpt lat="46.17427" lon="6.50622">
        <ele>882</ele>
        <time>2019-06-11T16:43:20Z</time>
      </trkpt>
      <trkpt lat="46.17432" lon="6.5063">
        <ele>883</ele>
        <time>2019-06-11T16:43:22Z</time>
      </trkpt>
      <trkpt lat="46.17439" lon="6.50649">
        <ele>884</ele>
        <time>2019-06-11T16:43:24Z</time>
      </trkpt>
      <trkpt lat="46.17443" lon="6.50669">
        <ele>886</ele>
        <time>2019-06-11T16:43:27Z</time>
      </trkpt>
      <trkpt lat="46.17446" lon="6.50739">
        <ele>893</ele>
        <time>2019-06-11T16:43:35Z</time>
      </trkpt>
      <trkpt lat="46.17448" lon="6.50748">
        <ele>894</ele>
        <time>2019-06-11T16:43:37Z</time>
      </trkpt>
      <trkpt lat="46.17451" lon="6.50755">
        <ele>895</ele>
        <time>2019-06-11T16:43:38Z</time>
      </trkpt>
      <trkpt lat="46.1746" lon="6.50767">
        <ele>896</ele>
        <time>2019-06-11T16:43:40Z</time>
      </trkpt>
      <trkpt lat="46.17489" lon="6.50776">
        <ele>896</ele>
        <time>2019-06-11T16:43:45Z</time>
      </trkpt>
      <trkpt lat="46.17502" lon="6.50775">
        <ele>896</ele>
        <time>2019-06-11T16:43:47Z</time>
      </trkpt>
      <trkpt lat="46.17508" lon="6.5077">
        <ele>896</ele>
        <time>2019-06-11T16:43:49Z</time>
      </trkpt>
      <trkpt lat="46.17518" lon="6.50757">
        <ele>895</ele>
        <time>2019-06-11T16:43:51Z</time>
      </trkpt>
      <trkpt lat="46.17535" lon="6.50707">
        <ele>891</ele>
        <time>2019-06-11T16:43:58Z</time>
      </trkpt>
      <trkpt lat="46.17538" lon="6.50682">
        <ele>887</ele>
        <time>2019-06-11T16:44:01Z</time>
      </trkpt>
      <trkpt lat="46.17539" lon="6.50641">
        <ele>879</ele>
        <time>2019-06-11T16:44:06Z</time>
      </trkpt>
      <trkpt lat="46.17543" lon="6.50623">
        <ele>877</ele>
        <time>2019-06-11T16:44:08Z</time>
      </trkpt>
      <trkpt lat="46.17564" lon="6.50576">
        <ele>870</ele>
        <time>2019-06-11T16:44:15Z</time>
      </trkpt>
      <trkpt lat="46.17579" lon="6.50548">
        <ele>868</ele>
        <time>2019-06-11T16:44:20Z</time>
      </trkpt>
      <trkpt lat="46.1759" lon="6.50535">
        <ele>867</ele>
        <time>2019-06-11T16:44:22Z</time>
      </trkpt>
      <trkpt lat="46.17601" lon="6.50526">
        <ele>867</ele>
        <time>2019-06-11T16:44:24Z</time>
      </trkpt>
      <trkpt lat="46.17611" lon="6.50522">
        <ele>867</ele>
        <time>2019-06-11T16:44:26Z</time>
      </trkpt>
      <trkpt lat="46.17621" lon="6.5052">
        <ele>868</ele>
        <time>2019-06-11T16:44:28Z</time>
      </trkpt>
      <trkpt lat="46.17676" lon="6.50541">
        <ele>876</ele>
        <time>2019-06-11T16:44:38Z</time>
      </trkpt>
      <trkpt lat="46.17694" lon="6.50541">
        <ele>876</ele>
        <time>2019-06-11T16:44:41Z</time>
      </trkpt>
      <trkpt lat="46.17733" lon="6.50534">
        <ele>876</ele>
        <time>2019-06-11T16:44:48Z</time>
      </trkpt>
      <trkpt lat="46.17754" lon="6.50534">
        <ele>876</ele>
        <time>2019-06-11T16:44:52Z</time>
      </trkpt>
      <trkpt lat="46.17765" lon="6.50535">
        <ele>877</ele>
        <time>2019-06-11T16:44:54Z</time>
      </trkpt>
      <trkpt lat="46.17815" lon="6.5055">
        <ele>880</ele>
        <time>2019-06-11T16:45:03Z</time>
      </trkpt>
      <trkpt lat="46.17832" lon="6.50552">
        <ele>880</ele>
        <time>2019-06-11T16:45:06Z</time>
      </trkpt>
      <trkpt lat="46.17871" lon="6.50537">
        <ele>880</ele>
        <time>2019-06-11T16:45:13Z</time>
      </trkpt>
      <trkpt lat="46.17911" lon="6.50517">
        <ele>879</ele>
        <time>2019-06-11T16:45:21Z</time>
      </trkpt>
      <trkpt lat="46.1802" lon="6.50479">
        <ele>876</ele>
        <time>2019-06-11T16:45:41Z</time>
      </trkpt>
      <trkpt lat="46.18035" lon="6.5048">
        <ele>876</ele>
        <time>2019-06-11T16:45:44Z</time>
      </trkpt>
      <trkpt lat="46.18112" lon="6.50496">
        <ele>877</ele>
        <time>2019-06-11T16:45:57Z</time>
      </trkpt>
      <trkpt lat="46.18159" lon="6.5052">
        <ele>880</ele>
        <time>2019-06-11T16:46:06Z</time>
      </trkpt>
      <trkpt lat="46.18178" lon="6.50524">
        <ele>881</ele>
        <time>2019-06-11T16:46:10Z</time>
      </trkpt>
      <trkpt lat="46.18227" lon="6.50525">
        <ele>883</ele>
        <time>2019-06-11T16:46:18Z</time>
      </trkpt>
      <trkpt lat="46.18301" lon="6.50548">
        <ele>890</ele>
        <time>2019-06-11T16:46:32Z</time>
      </trkpt>
      <trkpt lat="46.18315" lon="6.50548">
        <ele>891</ele>
        <time>2019-06-11T16:46:34Z</time>
      </trkpt>
      <trkpt lat="46.18329" lon="6.50541">
        <ele>892</ele>
        <time>2019-06-11T16:46:37Z</time>
      </trkpt>
      <trkpt lat="46.18341" lon="6.5053">
        <ele>892</ele>
        <time>2019-06-11T16:46:40Z</time>
      </trkpt>
      <trkpt lat="46.18349" lon="6.5051">
        <ele>892</ele>
        <time>2019-06-11T16:46:42Z</time>
      </trkpt>
      <trkpt lat="46.18356" lon="6.50482">
        <ele>891</ele>
        <time>2019-06-11T16:46:46Z</time>
      </trkpt>
      <trkpt lat="46.18368" lon="6.50417">
        <ele>888</ele>
        <time>2019-06-11T16:46:54Z</time>
      </trkpt>
      <trkpt lat="46.18376" lon="6.50396">
        <ele>889</ele>
        <time>2019-06-11T16:46:57Z</time>
      </trkpt>
      <trkpt lat="46.18389" lon="6.50378">
        <ele>891</ele>
        <time>2019-06-11T16:47:01Z</time>
      </trkpt>
      <trkpt lat="46.18406" lon="6.50364">
        <ele>896</ele>
        <time>2019-06-11T16:47:04Z</time>
      </trkpt>
      <trkpt lat="46.18418" lon="6.50358">
        <ele>898</ele>
        <time>2019-06-11T16:47:06Z</time>
      </trkpt>
      <trkpt lat="46.18432" lon="6.50359">
        <ele>899</ele>
        <time>2019-06-11T16:47:09Z</time>
      </trkpt>
      <trkpt lat="46.18474" lon="6.50374">
        <ele>901</ele>
        <time>2019-06-11T16:47:16Z</time>
      </trkpt>
      <trkpt lat="46.18489" lon="6.50376">
        <ele>902</ele>
        <time>2019-06-11T16:47:19Z</time>
      </trkpt>
      <trkpt lat="46.18505" lon="6.50373">
        <ele>902</ele>
        <time>2019-06-11T16:47:22Z</time>
      </trkpt>
      <trkpt lat="46.18539" lon="6.50358">
        <ele>904</ele>
        <time>2019-06-11T16:47:28Z</time>
      </trkpt>
      <trkpt lat="46.18546" lon="6.50357">
        <ele>905</ele>
        <time>2019-06-11T16:47:30Z</time>
      </trkpt>
      <trkpt lat="46.18559" lon="6.50362">
        <ele>906</ele>
        <time>2019-06-11T16:47:32Z</time>
      </trkpt>
      <trkpt lat="46.18576" lon="6.50377">
        <ele>909</ele>
        <time>2019-06-11T16:47:36Z</time>
      </trkpt>
      <trkpt lat="46.18589" lon="6.50379">
        <ele>910</ele>
        <time>2019-06-11T16:47:38Z</time>
      </trkpt>
      <trkpt lat="46.18605" lon="6.50373">
        <ele>910</ele>
        <time>2019-06-11T16:47:41Z</time>
      </trkpt>
      <trkpt lat="46.18623" lon="6.50358">
        <ele>910</ele>
        <time>2019-06-11T16:47:44Z</time>
      </trkpt>
      <trkpt lat="46.18651" lon="6.50325">
        <ele>910</ele>
        <time>2019-06-11T16:47:51Z</time>
      </trkpt>
      <trkpt lat="46.18659" lon="6.50322">
        <ele>910</ele>
        <time>2019-06-11T16:47:52Z</time>
      </trkpt>
      <trkpt lat="46.18667" lon="6.50323">
        <ele>911</ele>
        <time>2019-06-11T16:47:54Z</time>
      </trkpt>
      <trkpt lat="46.18767" lon="6.50348">
        <ele>918</ele>
        <time>2019-06-11T16:48:12Z</time>
      </trkpt>
      <trkpt lat="46.18801" lon="6.50346">
        <ele>918</ele>
        <time>2019-06-11T16:48:18Z</time>
      </trkpt>
      <trkpt lat="46.18828" lon="6.50338">
        <ele>918</ele>
        <time>2019-06-11T16:48:23Z</time>
      </trkpt>
      <trkpt lat="46.18886" lon="6.50311">
        <ele>917</ele>
        <time>2019-06-11T16:48:34Z</time>
      </trkpt>
      <trkpt lat="46.18901" lon="6.50307">
        <ele>916</ele>
        <time>2019-06-11T16:48:36Z</time>
      </trkpt>
      <trkpt lat="46.18955" lon="6.50296">
        <ele>912</ele>
        <time>2019-06-11T16:48:46Z</time>
      </trkpt>
      <trkpt lat="46.18968" lon="6.50296">
        <ele>911</ele>
        <time>2019-06-11T16:48:48Z</time>
      </trkpt>
      <trkpt lat="46.18989" lon="6.50303">
        <ele>910</ele>
        <time>2019-06-11T16:48:52Z</time>
      </trkpt>
      <trkpt lat="46.19043" lon="6.50338">
        <ele>911</ele>
        <time>2019-06-11T16:49:03Z</time>
      </trkpt>
      <trkpt lat="46.19053" lon="6.5034">
        <ele>910</ele>
        <time>2019-06-11T16:49:05Z</time>
      </trkpt>
      <trkpt lat="46.19088" lon="6.50343">
        <ele>908</ele>
        <time>2019-06-11T16:49:11Z</time>
      </trkpt>
      <trkpt lat="46.19156" lon="6.50381">
        <ele>911</ele>
        <time>2019-06-11T16:49:24Z</time>
      </trkpt>
      <trkpt lat="46.19166" lon="6.5039">
        <ele>911</ele>
        <time>2019-06-11T16:49:26Z</time>
      </trkpt>
      <trkpt lat="46.19173" lon="6.50403">
        <ele>912</ele>
        <time>2019-06-11T16:49:28Z</time>
      </trkpt>
      <trkpt lat="46.19202" lon="6.50485">
        <ele>917</ele>
        <time>2019-06-11T16:49:39Z</time>
      </trkpt>
      <trkpt lat="46.19205" lon="6.5049">
        <ele>917</ele>
        <time>2019-06-11T16:49:40Z</time>
      </trkpt>
      <trkpt lat="46.19215" lon="6.50496">
        <ele>916</ele>
        <time>2019-06-11T16:49:42Z</time>
      </trkpt>
      <trkpt lat="46.19233" lon="6.50496">
        <ele>912</ele>
        <time>2019-06-11T16:49:45Z</time>
      </trkpt>
      <trkpt lat="46.19244" lon="6.50493">
        <ele>910</ele>
        <time>2019-06-11T16:49:47Z</time>
      </trkpt>
      <trkpt lat="46.19266" lon="6.50476">
        <ele>909</ele>
        <time>2019-06-11T16:49:52Z</time>
      </trkpt>
      <trkpt lat="46.19281" lon="6.50455">
        <ele>908</ele>
        <time>2019-06-11T16:49:55Z</time>
      </trkpt>
      <trkpt lat="46.19289" lon="6.50447">
        <ele>908</ele>
        <time>2019-06-11T16:49:57Z</time>
      </trkpt>
      <trkpt lat="46.19296" lon="6.50443">
        <ele>909</ele>
        <time>2019-06-11T16:49:58Z</time>
      </trkpt>
      <trkpt lat="46.19306" lon="6.50442">
        <ele>909</ele>
        <time>2019-06-11T16:50:00Z</time>
      </trkpt>
      <trkpt lat="46.19343" lon="6.5045">
        <ele>911</ele>
        <time>2019-06-11T16:50:07Z</time>
      </trkpt>
      <trkpt lat="46.1939" lon="6.50452">
        <ele>910</ele>
        <time>2019-06-11T16:50:15Z</time>
      </trkpt>
      <trkpt lat="46.19482" lon="6.5047">
        <ele>908</ele>
        <time>2019-06-11T16:50:32Z</time>
      </trkpt>
      <trkpt lat="46.19533" lon="6.50458">
        <ele>906</ele>
        <time>2019-06-11T16:50:41Z</time>
      </trkpt>
      <trkpt lat="46.19541" lon="6.50454">
        <ele>905</ele>
        <time>2019-06-11T16:50:42Z</time>
      </trkpt>
      <trkpt lat="46.19547" lon="6.50446">
        <ele>905</ele>
        <time>2019-06-11T16:50:44Z</time>
      </trkpt>
      <trkpt lat="46.1955" lon="6.50438">
        <ele>904</ele>
        <time>2019-06-11T16:50:45Z</time>
      </trkpt>
      <trkpt lat="46.19553" lon="6.50426">
        <ele>902</ele>
        <time>2019-06-11T16:50:47Z</time>
      </trkpt>
      <trkpt lat="46.19555" lon="6.50407">
        <ele>900</ele>
        <time>2019-06-11T16:50:49Z</time>
      </trkpt>
      <trkpt lat="46.19563" lon="6.50384">
        <ele>899</ele>
        <time>2019-06-11T16:50:52Z</time>
      </trkpt>
      <trkpt lat="46.19569" lon="6.50375">
        <ele>898</ele>
        <time>2019-06-11T16:50:54Z</time>
      </trkpt>
      <trkpt lat="46.19575" lon="6.50369">
        <ele>898</ele>
        <time>2019-06-11T16:50:55Z</time>
      </trkpt>
      <trkpt lat="46.196" lon="6.5035">
        <ele>897</ele>
        <time>2019-06-11T16:51:00Z</time>
      </trkpt>
      <trkpt lat="46.19612" lon="6.50346">
        <ele>897</ele>
        <time>2019-06-11T16:51:02Z</time>
      </trkpt>
      <trkpt lat="46.19751" lon="6.50318">
        <ele>895</ele>
        <time>2019-06-11T16:51:27Z</time>
      </trkpt>
      <trkpt lat="46.19846" lon="6.50275">
        <ele>890</ele>
        <time>2019-06-11T16:51:45Z</time>
      </trkpt>
      <trkpt lat="46.19858" lon="6.50264">
        <ele>890</ele>
        <time>2019-06-11T16:51:47Z</time>
      </trkpt>
      <trkpt lat="46.19864" lon="6.50257">
        <ele>890</ele>
        <time>2019-06-11T16:51:49Z</time>
      </trkpt>
      <trkpt lat="46.1987" lon="6.50234">
        <ele>888</ele>
        <time>2019-06-11T16:51:52Z</time>
      </trkpt>
      <trkpt lat="46.19872" lon="6.5021">
        <ele>887</ele>
        <time>2019-06-11T16:51:55Z</time>
      </trkpt>
      <trkpt lat="46.19869" lon="6.5002">
        <ele>879</ele>
        <time>2019-06-11T16:52:18Z</time>
      </trkpt>
      <trkpt lat="46.19873" lon="6.49988">
        <ele>878</ele>
        <time>2019-06-11T16:52:22Z</time>
      </trkpt>
      <trkpt lat="46.19883" lon="6.49958">
        <ele>878</ele>
        <time>2019-06-11T16:52:26Z</time>
      </trkpt>
      <trkpt lat="46.19892" lon="6.49943">
        <ele>878</ele>
        <time>2019-06-11T16:52:29Z</time>
      </trkpt>
      <trkpt lat="46.19978" lon="6.49831">
        <ele>886</ele>
        <time>2019-06-11T16:52:49Z</time>
      </trkpt>
      <trkpt lat="46.19983" lon="6.49822">
        <ele>887</ele>
        <time>2019-06-11T16:52:51Z</time>
      </trkpt>
      <trkpt lat="46.19985" lon="6.49811">
        <ele>887</ele>
        <time>2019-06-11T16:52:52Z</time>
      </trkpt>
      <trkpt lat="46.20005" lon="6.49811">
        <ele>887</ele>
        <time>2019-06-11T16:52:56Z</time>
      </trkpt>
      <trkpt lat="46.20189" lon="6.4987">
        <ele>887</ele>
        <time>2019-06-11T16:53:29Z</time>
      </trkpt>
      <trkpt lat="46.21013" lon="6.50142">
        <ele>892</ele>
        <time>2019-06-11T16:56:00Z</time>
      </trkpt>
      <trkpt lat="46.21462" lon="6.50294">
        <ele>909</ele>
        <time>2019-06-11T16:57:22Z</time>
      </trkpt>
      <trkpt lat="46.21487" lon="6.50307">
        <ele>910</ele>
        <time>2019-06-11T16:57:26Z</time>
      </trkpt>
      <trkpt lat="46.21511" lon="6.50326">
        <ele>911</ele>
        <time>2019-06-11T16:57:31Z</time>
      </trkpt>
      <trkpt lat="46.21532" lon="6.50347">
        <ele>912</ele>
        <time>2019-06-11T16:57:36Z</time>
      </trkpt>
      <trkpt lat="46.21769" lon="6.50624">
        <ele>942</ele>
        <time>2019-06-11T16:58:30Z</time>
      </trkpt>
      <trkpt lat="46.21812" lon="6.50686">
        <ele>945</ele>
        <time>2019-06-11T16:58:41Z</time>
      </trkpt>
      <trkpt lat="46.2196" lon="6.50841">
        <ele>952</ele>
        <time>2019-06-11T16:59:13Z</time>
      </trkpt>
      <trkpt lat="46.22004" lon="6.5087">
        <ele>954</ele>
        <time>2019-06-11T16:59:22Z</time>
      </trkpt>
      <trkpt lat="46.22052" lon="6.50916">
        <ele>956</ele>
        <time>2019-06-11T16:59:32Z</time>
      </trkpt>
      <trkpt lat="46.22094" lon="6.50945">
        <ele>957</ele>
        <time>2019-06-11T16:59:41Z</time>
      </trkpt>
      <trkpt lat="46.2218" lon="6.51026">
        <ele>966</ele>
        <time>2019-06-11T16:59:59Z</time>
      </trkpt>
      <trkpt lat="46.22263" lon="6.51085">
        <ele>967</ele>
        <time>2019-06-11T17:00:15Z</time>
      </trkpt>
      <trkpt lat="46.22317" lon="6.51135">
        <ele>972</ele>
        <time>2019-06-11T17:00:27Z</time>
      </trkpt>
      <trkpt lat="46.22329" lon="6.51153">
        <ele>976</ele>
        <time>2019-06-11T17:00:30Z</time>
      </trkpt>
      <trkpt lat="46.22342" lon="6.51163">
        <ele>977</ele>
        <time>2019-06-11T17:00:32Z</time>
      </trkpt>
      <trkpt lat="46.22372" lon="6.51169">
        <ele>970</ele>
        <time>2019-06-11T17:00:38Z</time>
      </trkpt>
      <trkpt lat="46.22452" lon="6.51234">
        <ele>974</ele>
        <time>2019-06-11T17:00:54Z</time>
      </trkpt>
      <trkpt lat="46.22498" lon="6.51304">
        <ele>986</ele>
        <time>2019-06-11T17:01:06Z</time>
      </trkpt>
      <trkpt lat="46.22604" lon="6.51362">
        <ele>984</ele>
        <time>2019-06-11T17:01:26Z</time>
      </trkpt>
      <trkpt lat="46.22637" lon="6.51385">
        <ele>987</ele>
        <time>2019-06-11T17:01:33Z</time>
      </trkpt>
      <trkpt lat="46.22674" lon="6.51422">
        <ele>995</ele>
        <time>2019-06-11T17:01:41Z</time>
      </trkpt>
      <trkpt lat="46.22695" lon="6.51438">
        <ele>999</ele>
        <time>2019-06-11T17:01:45Z</time>
      </trkpt>
      <trkpt lat="46.22782" lon="6.51489">
        <ele>1008</ele>
        <time>2019-06-11T17:02:02Z</time>
      </trkpt>
      <trkpt lat="46.22802" lon="6.51491">
        <ele>1006</ele>
        <time>2019-06-11T17:02:05Z</time>
      </trkpt>
      <trkpt lat="46.22816" lon="6.51498">
        <ele>1007</ele>
        <time>2019-06-11T17:02:08Z</time>
      </trkpt>
      <trkpt lat="46.22855" lon="6.51533">
        <ele>1018</ele>
        <time>2019-06-11T17:02:16Z</time>
      </trkpt>
      <trkpt lat="46.22874" lon="6.51543">
        <ele>1020</ele>
        <time>2019-06-11T17:02:20Z</time>
      </trkpt>
      <trkpt lat="46.22887" lon="6.51545">
        <ele>1019</ele>
        <time>2019-06-11T17:02:22Z</time>
      </trkpt>
      <trkpt lat="46.22924" lon="6.51538">
        <ele>1008</ele>
        <time>2019-06-11T17:02:28Z</time>
      </trkpt>
      <trkpt lat="46.22944" lon="6.51547">
        <ele>1009</ele>
        <time>2019-06-11T17:02:32Z</time>
      </trkpt>
      <trkpt lat="46.23042" lon="6.51602">
        <ele>1018</ele>
        <time>2019-06-11T17:02:51Z</time>
      </trkpt>
      <trkpt lat="46.23081" lon="6.51629">
        <ele>1024</ele>
        <time>2019-06-11T17:02:59Z</time>
      </trkpt>
      <trkpt lat="46.23129" lon="6.51673">
        <ele>1027</ele>
        <time>2019-06-11T17:03:09Z</time>
      </trkpt>
      <trkpt lat="46.23161" lon="6.51693">
        <ele>1023</ele>
        <time>2019-06-11T17:03:15Z</time>
      </trkpt>
      <trkpt lat="46.23264" lon="6.51774">
        <ele>1033</ele>
        <time>2019-06-11T17:03:36Z</time>
      </trkpt>
      <trkpt lat="46.23299" lon="6.51794">
        <ele>1034</ele>
        <time>2019-06-11T17:03:42Z</time>
      </trkpt>
      <trkpt lat="46.23344" lon="6.51831">
        <ele>1042</ele>
        <time>2019-06-11T17:03:52Z</time>
      </trkpt>
      <trkpt lat="46.23401" lon="6.51886">
        <ele>1043</ele>
        <time>2019-06-11T17:04:04Z</time>
      </trkpt>
      <trkpt lat="46.23418" lon="6.51896">
        <ele>1041</ele>
        <time>2019-06-11T17:04:07Z</time>
      </trkpt>
      <trkpt lat="46.23458" lon="6.51928">
        <ele>1044</ele>
        <time>2019-06-11T17:04:15Z</time>
      </trkpt>
      <trkpt lat="46.23503" lon="6.51989">
        <ele>1040</ele>
        <time>2019-06-11T17:04:26Z</time>
      </trkpt>
      <trkpt lat="46.23509" lon="6.52004">
        <ele>1041</ele>
        <time>2019-06-11T17:04:28Z</time>
      </trkpt>
      <trkpt lat="46.23511" lon="6.52031">
        <ele>1040</ele>
        <time>2019-06-11T17:04:32Z</time>
      </trkpt>
      <trkpt lat="46.23501" lon="6.52263">
        <ele>1034</ele>
        <time>2019-06-11T17:05:00Z</time>
      </trkpt>
      <trkpt lat="46.23506" lon="6.523">
        <ele>1036</ele>
        <time>2019-06-11T17:05:05Z</time>
      </trkpt>
      <trkpt lat="46.23513" lon="6.52323">
        <ele>1037</ele>
        <time>2019-06-11T17:05:08Z</time>
      </trkpt>
      <trkpt lat="46.23598" lon="6.52524">
        <ele>1024</ele>
        <time>2019-06-11T17:05:37Z</time>
      </trkpt>
      <trkpt lat="46.23612" lon="6.52551">
        <ele>1022</ele>
        <time>2019-06-11T17:05:41Z</time>
      </trkpt>
      <trkpt lat="46.23629" lon="6.5257">
        <ele>1021</ele>
        <time>2019-06-11T17:05:45Z</time>
      </trkpt>
      <trkpt lat="46.23637" lon="6.52575">
        <ele>1021</ele>
        <time>2019-06-11T17:05:47Z</time>
      </trkpt>
      <trkpt lat="46.23679" lon="6.5259">
        <ele>1023</ele>
        <time>2019-06-11T17:05:54Z</time>
      </trkpt>
      <trkpt lat="46.23688" lon="6.52596">
        <ele>1023</ele>
        <time>2019-06-11T17:05:56Z</time>
      </trkpt>
      <trkpt lat="46.23699" lon="6.52611">
        <ele>1022</ele>
        <time>2019-06-11T17:05:59Z</time>
      </trkpt>
      <trkpt lat="46.2372" lon="6.52651">
        <ele>1015</ele>
        <time>2019-06-11T17:06:05Z</time>
      </trkpt>
      <trkpt lat="46.23728" lon="6.5266">
        <ele>1014</ele>
        <time>2019-06-11T17:06:07Z</time>
      </trkpt>
      <trkpt lat="46.23742" lon="6.5267">
        <ele>1013</ele>
        <time>2019-06-11T17:06:10Z</time>
      </trkpt>
      <trkpt lat="46.23757" lon="6.52672">
        <ele>1013</ele>
        <time>2019-06-11T17:06:12Z</time>
      </trkpt>
      <trkpt lat="46.23809" lon="6.52669">
        <ele>1015</ele>
        <time>2019-06-11T17:06:21Z</time>
      </trkpt>
      <trkpt lat="46.23899" lon="6.52693">
        <ele>1014</ele>
        <time>2019-06-11T17:06:38Z</time>
      </trkpt>
      <trkpt lat="46.23917" lon="6.52693">
        <ele>1015</ele>
        <time>2019-06-11T17:06:41Z</time>
      </trkpt>
      <trkpt lat="46.23927" lon="6.52699">
        <ele>1013</ele>
        <time>2019-06-11T17:06:43Z</time>
      </trkpt>
      <trkpt lat="46.23934" lon="6.527">
        <ele>1013</ele>
        <time>2019-06-11T17:06:44Z</time>
      </trkpt>
      <trkpt lat="46.2394" lon="6.52705">
        <ele>1012</ele>
        <time>2019-06-11T17:06:45Z</time>
      </trkpt>
      <trkpt lat="46.24021" lon="6.52708">
        <ele>1004</ele>
        <time>2019-06-11T17:07:00Z</time>
      </trkpt>
      <trkpt lat="46.2403" lon="6.52705">
        <ele>1003</ele>
        <time>2019-06-11T17:07:01Z</time>
      </trkpt>
      <trkpt lat="46.24037" lon="6.52699">
        <ele>1003</ele>
        <time>2019-06-11T17:07:03Z</time>
      </trkpt>
      <trkpt lat="46.24045" lon="6.52684">
        <ele>1004</ele>
        <time>2019-06-11T17:07:05Z</time>
      </trkpt>
      <trkpt lat="46.24061" lon="6.5262">
        <ele>1017</ele>
        <time>2019-06-11T17:07:14Z</time>
      </trkpt>
      <trkpt lat="46.24063" lon="6.52614">
        <ele>1019</ele>
        <time>2019-06-11T17:07:14Z</time>
      </trkpt>
      <trkpt lat="46.24069" lon="6.52604">
        <ele>1020</ele>
        <time>2019-06-11T17:07:16Z</time>
      </trkpt>
      <trkpt lat="46.24077" lon="6.526">
        <ele>1020</ele>
        <time>2019-06-11T17:07:18Z</time>
      </trkpt>
      <trkpt lat="46.24115" lon="6.52599">
        <ele>1018</ele>
        <time>2019-06-11T17:07:24Z</time>
      </trkpt>
      <trkpt lat="46.24121" lon="6.52601">
        <ele>1017</ele>
        <time>2019-06-11T17:07:25Z</time>
      </trkpt>
      <trkpt lat="46.24131" lon="6.52606">
        <ele>1016</ele>
        <time>2019-06-11T17:07:27Z</time>
      </trkpt>
      <trkpt lat="46.24139" lon="6.52616">
        <ele>1013</ele>
        <time>2019-06-11T17:07:29Z</time>
      </trkpt>
      <trkpt lat="46.24143" lon="6.52623">
        <ele>1011</ele>
        <time>2019-06-11T17:07:30Z</time>
      </trkpt>
      <trkpt lat="46.24158" lon="6.52661">
        <ele>1000</ele>
        <time>2019-06-11T17:07:36Z</time>
      </trkpt>
      <trkpt lat="46.24168" lon="6.52677">
        <ele>995</ele>
        <time>2019-06-11T17:07:38Z</time>
      </trkpt>
      <trkpt lat="46.2418" lon="6.52683">
        <ele>996</ele>
        <time>2019-06-11T17:07:41Z</time>
      </trkpt>
      <trkpt lat="46.24219" lon="6.5269">
        <ele>1000</ele>
        <time>2019-06-11T17:07:48Z</time>
      </trkpt>
      <trkpt lat="46.24235" lon="6.527">
        <ele>1000</ele>
        <time>2019-06-11T17:07:51Z</time>
      </trkpt>
      <trkpt lat="46.24247" lon="6.52713">
        <ele>999</ele>
        <time>2019-06-11T17:07:53Z</time>
      </trkpt>
      <trkpt lat="46.24318" lon="6.52807">
        <ele>994</ele>
        <time>2019-06-11T17:08:10Z</time>
      </trkpt>
      <trkpt lat="46.24332" lon="6.52833">
        <ele>993</ele>
        <time>2019-06-11T17:08:15Z</time>
      </trkpt>
      <trkpt lat="46.24341" lon="6.52844">
        <ele>991</ele>
        <time>2019-06-11T17:08:17Z</time>
      </trkpt>
      <trkpt lat="46.2435" lon="6.52847">
        <ele>991</ele>
        <time>2019-06-11T17:08:18Z</time>
      </trkpt>
      <trkpt lat="46.24388" lon="6.52836">
        <ele>993</ele>
        <time>2019-06-11T17:08:25Z</time>
      </trkpt>
      <trkpt lat="46.24435" lon="6.52832">
        <ele>992</ele>
        <time>2019-06-11T17:08:34Z</time>
      </trkpt>
      <trkpt lat="46.24485" lon="6.52812">
        <ele>993</ele>
        <time>2019-06-11T17:08:43Z</time>
      </trkpt>
      <trkpt lat="46.24491" lon="6.52808">
        <ele>994</ele>
        <time>2019-06-11T17:08:44Z</time>
      </trkpt>
      <trkpt lat="46.245" lon="6.52798">
        <ele>996</ele>
        <time>2019-06-11T17:08:46Z</time>
      </trkpt>
      <trkpt lat="46.24514" lon="6.52771">
        <ele>999</ele>
        <time>2019-06-11T17:08:50Z</time>
      </trkpt>
      <trkpt lat="46.24521" lon="6.5276">
        <ele>1000</ele>
        <time>2019-06-11T17:08:52Z</time>
      </trkpt>
      <trkpt lat="46.24525" lon="6.52756">
        <ele>1001</ele>
        <time>2019-06-11T17:08:53Z</time>
      </trkpt>
      <trkpt lat="46.24535" lon="6.5275">
        <ele>1000</ele>
        <time>2019-06-11T17:08:55Z</time>
      </trkpt>
      <trkpt lat="46.24545" lon="6.52749">
        <ele>997</ele>
        <time>2019-06-11T17:08:57Z</time>
      </trkpt>
      <trkpt lat="46.24552" lon="6.52751">
        <ele>995</ele>
        <time>2019-06-11T17:08:58Z</time>
      </trkpt>
      <trkpt lat="46.24588" lon="6.52769">
        <ele>982</ele>
        <time>2019-06-11T17:09:05Z</time>
      </trkpt>
      <trkpt lat="46.24599" lon="6.52773">
        <ele>979</ele>
        <time>2019-06-11T17:09:07Z</time>
      </trkpt>
      <trkpt lat="46.24609" lon="6.52772">
        <ele>977</ele>
        <time>2019-06-11T17:09:08Z</time>
      </trkpt>
      <trkpt lat="46.24638" lon="6.52761">
        <ele>974</ele>
        <time>2019-06-11T17:09:14Z</time>
      </trkpt>
      <trkpt lat="46.24654" lon="6.52751">
        <ele>973</ele>
        <time>2019-06-11T17:09:17Z</time>
      </trkpt>
      <trkpt lat="46.24685" lon="6.52716">
        <ele>977</ele>
        <time>2019-06-11T17:09:24Z</time>
      </trkpt>
      <trkpt lat="46.24704" lon="6.52702">
        <ele>978</ele>
        <time>2019-06-11T17:09:28Z</time>
      </trkpt>
      <trkpt lat="46.24769" lon="6.52677">
        <ele>969</ele>
        <time>2019-06-11T17:09:40Z</time>
      </trkpt>
      <trkpt lat="46.24869" lon="6.52616">
        <ele>967</ele>
        <time>2019-06-11T17:09:59Z</time>
      </trkpt>
      <trkpt lat="46.24906" lon="6.526">
        <ele>967</ele>
        <time>2019-06-11T17:10:06Z</time>
      </trkpt>
      <trkpt lat="46.24925" lon="6.52594">
        <ele>967</ele>
        <time>2019-06-11T17:10:09Z</time>
      </trkpt>
      <trkpt lat="46.24951" lon="6.52589">
        <ele>967</ele>
        <time>2019-06-11T17:10:14Z</time>
      </trkpt>
      <trkpt lat="46.24972" lon="6.52592">
        <ele>964</ele>
        <time>2019-06-11T17:10:18Z</time>
      </trkpt>
      <trkpt lat="46.2498" lon="6.52596">
        <ele>962</ele>
        <time>2019-06-11T17:10:19Z</time>
      </trkpt>
      <trkpt lat="46.25012" lon="6.52619">
        <ele>954</ele>
        <time>2019-06-11T17:10:25Z</time>
      </trkpt>
      <trkpt lat="46.25022" lon="6.52623">
        <ele>953</ele>
        <time>2019-06-11T17:10:27Z</time>
      </trkpt>
      <trkpt lat="46.25066" lon="6.52626">
        <ele>954</ele>
        <time>2019-06-11T17:10:35Z</time>
      </trkpt>
      <trkpt lat="46.25107" lon="6.52634">
        <ele>953</ele>
        <time>2019-06-11T17:10:43Z</time>
      </trkpt>
      <trkpt lat="46.25124" lon="6.5264">
        <ele>951</ele>
        <time>2019-06-11T17:10:46Z</time>
      </trkpt>
      <trkpt lat="46.25225" lon="6.52718">
        <ele>935</ele>
        <time>2019-06-11T17:11:06Z</time>
      </trkpt>
      <trkpt lat="46.25235" lon="6.52722">
        <ele>935</ele>
        <time>2019-06-11T17:11:08Z</time>
      </trkpt>
      <trkpt lat="46.25262" lon="6.5272">
        <ele>937</ele>
        <time>2019-06-11T17:11:13Z</time>
      </trkpt>
      <trkpt lat="46.25281" lon="6.52723">
        <ele>937</ele>
        <time>2019-06-11T17:11:16Z</time>
      </trkpt>
      <trkpt lat="46.25368" lon="6.52768">
        <ele>932</ele>
        <time>2019-06-11T17:11:33Z</time>
      </trkpt>
      <trkpt lat="46.25411" lon="6.52784">
        <ele>932</ele>
        <time>2019-06-11T17:11:40Z</time>
      </trkpt>
      <trkpt lat="46.25425" lon="6.52795">
        <ele>933</ele>
        <time>2019-06-11T17:11:43Z</time>
      </trkpt>
      <trkpt lat="46.25436" lon="6.52809">
        <ele>933</ele>
        <time>2019-06-11T17:11:46Z</time>
      </trkpt>
      <trkpt lat="46.25481" lon="6.52887">
        <ele>924</ele>
        <time>2019-06-11T17:11:58Z</time>
      </trkpt>
      <trkpt lat="46.25493" lon="6.52905">
        <ele>922</ele>
        <time>2019-06-11T17:12:01Z</time>
      </trkpt>
      <trkpt lat="46.25501" lon="6.52913">
        <ele>921</ele>
        <time>2019-06-11T17:12:03Z</time>
      </trkpt>
      <trkpt lat="46.25536" lon="6.52935">
        <ele>921</ele>
        <time>2019-06-11T17:12:10Z</time>
      </trkpt>
      <trkpt lat="46.25585" lon="6.52958">
        <ele>922</ele>
        <time>2019-06-11T17:12:19Z</time>
      </trkpt>
      <trkpt lat="46.25599" lon="6.52969">
        <ele>923</ele>
        <time>2019-06-11T17:12:22Z</time>
      </trkpt>
      <trkpt lat="46.25713" lon="6.53127">
        <ele>909</ele>
        <time>2019-06-11T17:12:50Z</time>
      </trkpt>
      <trkpt lat="46.25745" lon="6.53167">
        <ele>904</ele>
        <time>2019-06-11T17:12:58Z</time>
      </trkpt>
      <trkpt lat="46.25767" lon="6.53191">
        <ele>906</ele>
        <time>2019-06-11T17:13:02Z</time>
      </trkpt>
      <trkpt lat="46.25801" lon="6.53216">
        <ele>908</ele>
        <time>2019-06-11T17:13:09Z</time>
      </trkpt>
      <trkpt lat="46.25837" lon="6.53239">
        <ele>907</ele>
        <time>2019-06-11T17:13:16Z</time>
      </trkpt>
      <trkpt lat="46.25855" lon="6.53252">
        <ele>909</ele>
        <time>2019-06-11T17:13:20Z</time>
      </trkpt>
      <trkpt lat="46.25887" lon="6.53284">
        <ele>909</ele>
        <time>2019-06-11T17:13:27Z</time>
      </trkpt>
      <trkpt lat="46.25955" lon="6.53336">
        <ele>902</ele>
        <time>2019-06-11T17:13:40Z</time>
      </trkpt>
      <trkpt lat="46.26049" lon="6.53418">
        <ele>891</ele>
        <time>2019-06-11T17:14:00Z</time>
      </trkpt>
      <trkpt lat="46.26067" lon="6.53431">
        <ele>892</ele>
        <time>2019-06-11T17:14:04Z</time>
      </trkpt>
      <trkpt lat="46.26101" lon="6.5345">
        <ele>892</ele>
        <time>2019-06-11T17:14:10Z</time>
      </trkpt>
      <trkpt lat="46.26144" lon="6.53486">
        <ele>887</ele>
        <time>2019-06-11T17:14:19Z</time>
      </trkpt>
      <trkpt lat="46.26187" lon="6.53505">
        <ele>885</ele>
        <time>2019-06-11T17:14:27Z</time>
      </trkpt>
      <trkpt lat="46.26208" lon="6.53516">
        <ele>885</ele>
        <time>2019-06-11T17:14:31Z</time>
      </trkpt>
      <trkpt lat="46.26282" lon="6.53569">
        <ele>877</ele>
        <time>2019-06-11T17:14:46Z</time>
      </trkpt>
      <trkpt lat="46.26297" lon="6.53575">
        <ele>875</ele>
        <time>2019-06-11T17:14:48Z</time>
      </trkpt>
      <trkpt lat="46.26315" lon="6.53576">
        <ele>875</ele>
        <time>2019-06-11T17:14:52Z</time>
      </trkpt>
      <trkpt lat="46.26417" lon="6.53561">
        <ele>875</ele>
        <time>2019-06-11T17:15:10Z</time>
      </trkpt>
      <trkpt lat="46.26435" lon="6.53562">
        <ele>876</ele>
        <time>2019-06-11T17:15:13Z</time>
      </trkpt>
      <trkpt lat="46.26446" lon="6.53564">
        <ele>877</ele>
        <time>2019-06-11T17:15:15Z</time>
      </trkpt>
      <trkpt lat="46.2651" lon="6.53593">
        <ele>876</ele>
        <time>2019-06-11T17:15:27Z</time>
      </trkpt>
      <trkpt lat="46.26521" lon="6.536">
        <ele>877</ele>
        <time>2019-06-11T17:15:29Z</time>
      </trkpt>
      <trkpt lat="46.26554" lon="6.53628">
        <ele>877</ele>
        <time>2019-06-11T17:15:36Z</time>
      </trkpt>
      <trkpt lat="46.26606" lon="6.53691">
        <ele>868</ele>
        <time>2019-06-11T17:15:48Z</time>
      </trkpt>
      <trkpt lat="46.26635" lon="6.53721">
        <ele>868</ele>
        <time>2019-06-11T17:15:54Z</time>
      </trkpt>
      <trkpt lat="46.26696" lon="6.53795">
        <ele>866</ele>
        <time>2019-06-11T17:16:08Z</time>
      </trkpt>
      <trkpt lat="46.26799" lon="6.53863">
        <ele>869</ele>
        <time>2019-06-11T17:16:29Z</time>
      </trkpt>
      <trkpt lat="46.26851" lon="6.53922">
        <ele>861</ele>
        <time>2019-06-11T17:16:40Z</time>
      </trkpt>
      <trkpt lat="46.26937" lon="6.54003">
        <ele>864</ele>
        <time>2019-06-11T17:16:59Z</time>
      </trkpt>
      <trkpt lat="46.26944" lon="6.54013">
        <ele>864</ele>
        <time>2019-06-11T17:17:00Z</time>
      </trkpt>
      <trkpt lat="46.26971" lon="6.54071">
        <ele>855</ele>
        <time>2019-06-11T17:17:09Z</time>
      </trkpt>
      <trkpt lat="46.2698" lon="6.54088">
        <ele>852</ele>
        <time>2019-06-11T17:17:12Z</time>
      </trkpt>
      <trkpt lat="46.26999" lon="6.54111">
        <ele>852</ele>
        <time>2019-06-11T17:17:16Z</time>
      </trkpt>
      <trkpt lat="46.27047" lon="6.54153">
        <ele>859</ele>
        <time>2019-06-11T17:17:26Z</time>
      </trkpt>
      <trkpt lat="46.27074" lon="6.54194">
        <ele>854</ele>
        <time>2019-06-11T17:17:33Z</time>
      </trkpt>
      <trkpt lat="46.27083" lon="6.54219">
        <ele>849</ele>
        <time>2019-06-11T17:17:36Z</time>
      </trkpt>
      <trkpt lat="46.27084" lon="6.54225">
        <ele>847</ele>
        <time>2019-06-11T17:17:37Z</time>
      </trkpt>
      <trkpt lat="46.27083" lon="6.54291">
        <ele>836</ele>
        <time>2019-06-11T17:17:45Z</time>
      </trkpt>
      <trkpt lat="46.27087" lon="6.54316">
        <ele>835</ele>
        <time>2019-06-11T17:17:48Z</time>
      </trkpt>
      <trkpt lat="46.27126" lon="6.54423">
        <ele>832</ele>
        <time>2019-06-11T17:18:03Z</time>
      </trkpt>
      <trkpt lat="46.27132" lon="6.54435">
        <ele>832</ele>
        <time>2019-06-11T17:18:05Z</time>
      </trkpt>
      <trkpt lat="46.27139" lon="6.54446">
        <ele>831</ele>
        <time>2019-06-11T17:18:07Z</time>
      </trkpt>
      <trkpt lat="46.27152" lon="6.54457">
        <ele>831</ele>
        <time>2019-06-11T17:18:10Z</time>
      </trkpt>
      <trkpt lat="46.27196" lon="6.54478">
        <ele>831</ele>
        <time>2019-06-11T17:18:18Z</time>
      </trkpt>
      <trkpt lat="46.27243" lon="6.54509">
        <ele>829</ele>
        <time>2019-06-11T17:18:27Z</time>
      </trkpt>
      <trkpt lat="46.27261" lon="6.54513">
        <ele>830</ele>
        <time>2019-06-11T17:18:30Z</time>
      </trkpt>
      <trkpt lat="46.27307" lon="6.54516">
        <ele>834</ele>
        <time>2019-06-11T17:18:39Z</time>
      </trkpt>
      <trkpt lat="46.27322" lon="6.54519">
        <ele>835</ele>
        <time>2019-06-11T17:18:41Z</time>
      </trkpt>
      <trkpt lat="46.27336" lon="6.54531">
        <ele>834</ele>
        <time>2019-06-11T17:18:44Z</time>
      </trkpt>
      <trkpt lat="46.27407" lon="6.54647">
        <ele>829</ele>
        <time>2019-06-11T17:19:03Z</time>
      </trkpt>
      <trkpt lat="46.27414" lon="6.54657">
        <ele>827</ele>
        <time>2019-06-11T17:19:05Z</time>
      </trkpt>
      <trkpt lat="46.27496" lon="6.54728">
        <ele>836</ele>
        <time>2019-06-11T17:19:22Z</time>
      </trkpt>
      <trkpt lat="46.27681" lon="6.54935">
        <ele>826</ele>
        <time>2019-06-11T17:20:04Z</time>
      </trkpt>
      <trkpt lat="46.27689" lon="6.54947">
        <ele>826</ele>
        <time>2019-06-11T17:20:06Z</time>
      </trkpt>
      <trkpt lat="46.27695" lon="6.5496">
        <ele>824</ele>
        <time>2019-06-11T17:20:07Z</time>
      </trkpt>
      <trkpt lat="46.27706" lon="6.55004">
        <ele>817</ele>
        <time>2019-06-11T17:20:13Z</time>
      </trkpt>
      <trkpt lat="46.27711" lon="6.55016">
        <ele>817</ele>
        <time>2019-06-11T17:20:15Z</time>
      </trkpt>
      <trkpt lat="46.27741" lon="6.55061">
        <ele>816</ele>
        <time>2019-06-11T17:20:23Z</time>
      </trkpt>
      <trkpt lat="46.2776" lon="6.55099">
        <ele>813</ele>
        <time>2019-06-11T17:20:28Z</time>
      </trkpt>
      <trkpt lat="46.27776" lon="6.5512">
        <ele>813</ele>
        <time>2019-06-11T17:20:32Z</time>
      </trkpt>
      <trkpt lat="46.27786" lon="6.55129">
        <ele>813</ele>
        <time>2019-06-11T17:20:34Z</time>
      </trkpt>
      <trkpt lat="46.27813" lon="6.55148">
        <ele>814</ele>
        <time>2019-06-11T17:20:40Z</time>
      </trkpt>
      <trkpt lat="46.27829" lon="6.55153">
        <ele>815</ele>
        <time>2019-06-11T17:20:43Z</time>
      </trkpt>
      <trkpt lat="46.27839" lon="6.55159">
        <ele>815</ele>
        <time>2019-06-11T17:20:45Z</time>
      </trkpt>
      <trkpt lat="46.27935" lon="6.55246">
        <ele>808</ele>
        <time>2019-06-11T17:21:05Z</time>
      </trkpt>
      <trkpt lat="46.27951" lon="6.55254">
        <ele>807</ele>
        <time>2019-06-11T17:21:08Z</time>
      </trkpt>
      <trkpt lat="46.27967" lon="6.55256">
        <ele>807</ele>
        <time>2019-06-11T17:21:11Z</time>
      </trkpt>
      <trkpt lat="46.28118" lon="6.55251">
        <ele>804</ele>
        <time>2019-06-11T17:21:37Z</time>
      </trkpt>
      <trkpt lat="46.28192" lon="6.55226">
        <ele>809</ele>
        <time>2019-06-11T17:21:51Z</time>
      </trkpt>
      <trkpt lat="46.28303" lon="6.55215">
        <ele>797</ele>
        <time>2019-06-11T17:22:11Z</time>
      </trkpt>
      <trkpt lat="46.28317" lon="6.55208">
        <ele>795</ele>
        <time>2019-06-11T17:22:13Z</time>
      </trkpt>
      <trkpt lat="46.2833" lon="6.55194">
        <ele>794</ele>
        <time>2019-06-11T17:22:16Z</time>
      </trkpt>
      <trkpt lat="46.28363" lon="6.55142">
        <ele>790</ele>
        <time>2019-06-11T17:22:25Z</time>
      </trkpt>
      <trkpt lat="46.28373" lon="6.55121">
        <ele>788</ele>
        <time>2019-06-11T17:22:28Z</time>
      </trkpt>
      <trkpt lat="46.28377" lon="6.55108">
        <ele>787</ele>
        <time>2019-06-11T17:22:30Z</time>
      </trkpt>
      <trkpt lat="46.28388" lon="6.55037">
        <ele>782</ele>
        <time>2019-06-11T17:22:39Z</time>
      </trkpt>
      <trkpt lat="46.28408" lon="6.54882">
        <ele>786</ele>
        <time>2019-06-11T17:22:58Z</time>
      </trkpt>
      <trkpt lat="46.28413" lon="6.54862">
        <ele>790</ele>
        <time>2019-06-11T17:23:01Z</time>
      </trkpt>
      <trkpt lat="46.28417" lon="6.54855">
        <ele>790</ele>
        <time>2019-06-11T17:23:02Z</time>
      </trkpt>
      <trkpt lat="46.28434" lon="6.54836">
        <ele>791</ele>
        <time>2019-06-11T17:23:06Z</time>
      </trkpt>
      <trkpt lat="46.28449" lon="6.54825">
        <ele>791</ele>
        <time>2019-06-11T17:23:09Z</time>
      </trkpt>
      <trkpt lat="46.28512" lon="6.5479">
        <ele>785</ele>
        <time>2019-06-11T17:23:21Z</time>
      </trkpt>
      <trkpt lat="46.28524" lon="6.54779">
        <ele>786</ele>
        <time>2019-06-11T17:23:23Z</time>
      </trkpt>
      <trkpt lat="46.28567" lon="6.54717">
        <ele>793</ele>
        <time>2019-06-11T17:23:34Z</time>
      </trkpt>
      <trkpt lat="46.28579" lon="6.54703">
        <ele>793</ele>
        <time>2019-06-11T17:23:37Z</time>
      </trkpt>
      <trkpt lat="46.28594" lon="6.5469">
        <ele>793</ele>
        <time>2019-06-11T17:23:40Z</time>
      </trkpt>
      <trkpt lat="46.28641" lon="6.54663">
        <ele>787</ele>
        <time>2019-06-11T17:23:49Z</time>
      </trkpt>
      <trkpt lat="46.28663" lon="6.54644">
        <ele>785</ele>
        <time>2019-06-11T17:23:53Z</time>
      </trkpt>
      <trkpt lat="46.28674" lon="6.54638">
        <ele>785</ele>
        <time>2019-06-11T17:23:56Z</time>
      </trkpt>
      <trkpt lat="46.28684" lon="6.54637">
        <ele>784</ele>
        <time>2019-06-11T17:23:57Z</time>
      </trkpt>
      <trkpt lat="46.28717" lon="6.54646">
        <ele>781</ele>
        <time>2019-06-11T17:24:03Z</time>
      </trkpt>
      <trkpt lat="46.28737" lon="6.54643">
        <ele>781</ele>
        <time>2019-06-11T17:24:07Z</time>
      </trkpt>
      <trkpt lat="46.28751" lon="6.5463">
        <ele>781</ele>
        <time>2019-06-11T17:24:10Z</time>
      </trkpt>
      <trkpt lat="46.28762" lon="6.54608">
        <ele>781</ele>
        <time>2019-06-11T17:24:13Z</time>
      </trkpt>
      <trkpt lat="46.28777" lon="6.54559">
        <ele>783</ele>
        <time>2019-06-11T17:24:20Z</time>
      </trkpt>
      <trkpt lat="46.28788" lon="6.54538">
        <ele>784</ele>
        <time>2019-06-11T17:24:23Z</time>
      </trkpt>
      <trkpt lat="46.28796" lon="6.54526">
        <ele>784</ele>
        <time>2019-06-11T17:24:25Z</time>
      </trkpt>
      <trkpt lat="46.28806" lon="6.54519">
        <ele>784</ele>
        <time>2019-06-11T17:24:27Z</time>
      </trkpt>
      <trkpt lat="46.28877" lon="6.54476">
        <ele>786</ele>
        <time>2019-06-11T17:24:41Z</time>
      </trkpt>
      <trkpt lat="46.28889" lon="6.54472">
        <ele>786</ele>
        <time>2019-06-11T17:24:43Z</time>
      </trkpt>
      <trkpt lat="46.289" lon="6.54471">
        <ele>785</ele>
        <time>2019-06-11T17:24:45Z</time>
      </trkpt>
      <trkpt lat="46.28912" lon="6.54473">
        <ele>784</ele>
        <time>2019-06-11T17:24:47Z</time>
      </trkpt>
      <trkpt lat="46.28923" lon="6.54479">
        <ele>784</ele>
        <time>2019-06-11T17:24:49Z</time>
      </trkpt>
      <trkpt lat="46.28959" lon="6.54504">
        <ele>782</ele>
        <time>2019-06-11T17:24:56Z</time>
      </trkpt>
      <trkpt lat="46.28985" lon="6.54514">
        <ele>782</ele>
        <time>2019-06-11T17:25:01Z</time>
      </trkpt>
      <trkpt lat="46.29016" lon="6.54514">
        <ele>781</ele>
        <time>2019-06-11T17:25:07Z</time>
      </trkpt>
      <trkpt lat="46.29052" lon="6.54507">
        <ele>781</ele>
        <time>2019-06-11T17:25:13Z</time>
      </trkpt>
      <trkpt lat="46.29078" lon="6.54491">
        <ele>781</ele>
        <time>2019-06-11T17:25:18Z</time>
      </trkpt>
      <trkpt lat="46.29134" lon="6.54437">
        <ele>787</ele>
        <time>2019-06-11T17:25:30Z</time>
      </trkpt>
      <trkpt lat="46.29151" lon="6.54409">
        <ele>788</ele>
        <time>2019-06-11T17:25:35Z</time>
      </trkpt>
      <trkpt lat="46.29178" lon="6.54338">
        <ele>787</ele>
        <time>2019-06-11T17:25:45Z</time>
      </trkpt>
      <trkpt lat="46.29203" lon="6.54282">
        <ele>785</ele>
        <time>2019-06-11T17:25:53Z</time>
      </trkpt>
      <trkpt lat="46.29228" lon="6.54219">
        <ele>783</ele>
        <time>2019-06-11T17:26:02Z</time>
      </trkpt>
      <trkpt lat="46.29244" lon="6.54167">
        <ele>781</ele>
        <time>2019-06-11T17:26:09Z</time>
      </trkpt>
      <trkpt lat="46.29255" lon="6.54098">
        <ele>783</ele>
        <time>2019-06-11T17:26:17Z</time>
      </trkpt>
      <trkpt lat="46.29265" lon="6.54068">
        <ele>783</ele>
        <time>2019-06-11T17:26:21Z</time>
      </trkpt>
      <trkpt lat="46.29288" lon="6.54014">
        <ele>781</ele>
        <time>2019-06-11T17:26:29Z</time>
      </trkpt>
      <trkpt lat="46.29295" lon="6.53985">
        <ele>781</ele>
        <time>2019-06-11T17:26:33Z</time>
      </trkpt>
      <trkpt lat="46.29296" lon="6.53964">
        <ele>782</ele>
        <time>2019-06-11T17:26:36Z</time>
      </trkpt>
      <trkpt lat="46.29291" lon="6.53904">
        <ele>787</ele>
        <time>2019-06-11T17:26:43Z</time>
      </trkpt>
      <trkpt lat="46.29294" lon="6.53848">
        <ele>790</ele>
        <time>2019-06-11T17:26:50Z</time>
      </trkpt>
      <trkpt lat="46.29297" lon="6.53836">
        <ele>790</ele>
        <time>2019-06-11T17:26:52Z</time>
      </trkpt>
      <trkpt lat="46.29301" lon="6.53828">
        <ele>790</ele>
        <time>2019-06-11T17:26:53Z</time>
      </trkpt>
      <trkpt lat="46.29309" lon="6.53821">
        <ele>789</ele>
        <time>2019-06-11T17:26:54Z</time>
      </trkpt>
      <trkpt lat="46.29342" lon="6.53806">
        <ele>786</ele>
        <time>2019-06-11T17:27:01Z</time>
      </trkpt>
      <trkpt lat="46.29377" lon="6.53774">
        <ele>787</ele>
        <time>2019-06-11T17:27:08Z</time>
      </trkpt>
      <trkpt lat="46.29398" lon="6.53764">
        <ele>787</ele>
        <time>2019-06-11T17:27:12Z</time>
      </trkpt>
      <trkpt lat="46.29554" lon="6.53755">
        <ele>790</ele>
        <time>2019-06-11T17:27:40Z</time>
      </trkpt>
      <trkpt lat="46.29564" lon="6.53758">
        <ele>790</ele>
        <time>2019-06-11T17:27:41Z</time>
      </trkpt>
      <trkpt lat="46.29573" lon="6.53765">
        <ele>790</ele>
        <time>2019-06-11T17:27:43Z</time>
      </trkpt>
      <trkpt lat="46.29627" lon="6.53823">
        <ele>789</ele>
        <time>2019-06-11T17:27:55Z</time>
      </trkpt>
      <trkpt lat="46.29715" lon="6.5386">
        <ele>791</ele>
        <time>2019-06-11T17:28:12Z</time>
      </trkpt>
      <trkpt lat="46.29731" lon="6.53861">
        <ele>792</ele>
        <time>2019-06-11T17:28:14Z</time>
      </trkpt>
      <trkpt lat="46.29746" lon="6.53854">
        <ele>793</ele>
        <time>2019-06-11T17:28:17Z</time>
      </trkpt>
      <trkpt lat="46.2976" lon="6.53839">
        <ele>794</ele>
        <time>2019-06-11T17:28:20Z</time>
      </trkpt>
      <trkpt lat="46.29836" lon="6.53703">
        <ele>797</ele>
        <time>2019-06-11T17:28:42Z</time>
      </trkpt>
      <trkpt lat="46.29843" lon="6.53697">
        <ele>797</ele>
        <time>2019-06-11T17:28:43Z</time>
      </trkpt>
      <trkpt lat="46.29858" lon="6.53695">
        <ele>796</ele>
        <time>2019-06-11T17:28:46Z</time>
      </trkpt>
      <trkpt lat="46.29947" lon="6.53699">
        <ele>790</ele>
        <time>2019-06-11T17:29:02Z</time>
      </trkpt>
      <trkpt lat="46.29964" lon="6.53699">
        <ele>789</ele>
        <time>2019-06-11T17:29:05Z</time>
      </trkpt>
      <trkpt lat="46.30011" lon="6.53687">
        <ele>790</ele>
        <time>2019-06-11T17:29:13Z</time>
      </trkpt>
      <trkpt lat="46.30103" lon="6.53677">
        <ele>792</ele>
        <time>2019-06-11T17:29:30Z</time>
      </trkpt>
      <trkpt lat="46.30115" lon="6.53678">
        <ele>792</ele>
        <time>2019-06-11T17:29:32Z</time>
      </trkpt>
      <trkpt lat="46.30135" lon="6.53682">
        <ele>792</ele>
        <time>2019-06-11T17:29:35Z</time>
      </trkpt>
      <trkpt lat="46.30165" lon="6.53704">
        <ele>792</ele>
        <time>2019-06-11T17:29:41Z</time>
      </trkpt>
      <trkpt lat="46.30211" lon="6.53746">
        <ele>794</ele>
        <time>2019-06-11T17:29:51Z</time>
      </trkpt>
      <trkpt lat="46.30222" lon="6.53762">
        <ele>794</ele>
        <time>2019-06-11T17:29:54Z</time>
      </trkpt>
      <trkpt lat="46.30227" lon="6.53775">
        <ele>795</ele>
        <time>2019-06-11T17:29:56Z</time>
      </trkpt>
      <trkpt lat="46.30231" lon="6.53805">
        <ele>795</ele>
        <time>2019-06-11T17:29:59Z</time>
      </trkpt>
      <trkpt lat="46.30223" lon="6.5405">
        <ele>791</ele>
        <time>2019-06-11T17:30:30Z</time>
      </trkpt>
      <trkpt lat="46.30223" lon="6.54092">
        <ele>790</ele>
        <time>2019-06-11T17:30:35Z</time>
      </trkpt>
      <trkpt lat="46.30228" lon="6.54116">
        <ele>789</ele>
        <time>2019-06-11T17:30:38Z</time>
      </trkpt>
      <trkpt lat="46.30236" lon="6.54138">
        <ele>789</ele>
        <time>2019-06-11T17:30:41Z</time>
      </trkpt>
      <trkpt lat="46.30263" lon="6.54182">
        <ele>790</ele>
        <time>2019-06-11T17:30:48Z</time>
      </trkpt>
      <trkpt lat="46.30272" lon="6.54192">
        <ele>790</ele>
        <time>2019-06-11T17:30:50Z</time>
      </trkpt>
      <trkpt lat="46.30283" lon="6.542">
        <ele>790</ele>
        <time>2019-06-11T17:30:52Z</time>
      </trkpt>
      <trkpt lat="46.30321" lon="6.54212">
        <ele>794</ele>
        <time>2019-06-11T17:30:59Z</time>
      </trkpt>
      <trkpt lat="46.30339" lon="6.54222">
        <ele>796</ele>
        <time>2019-06-11T17:31:03Z</time>
      </trkpt>
      <trkpt lat="46.30346" lon="6.54228">
        <ele>796</ele>
        <time>2019-06-11T17:31:04Z</time>
      </trkpt>
      <trkpt lat="46.3036" lon="6.54253">
        <ele>796</ele>
        <time>2019-06-11T17:31:08Z</time>
      </trkpt>
      <trkpt lat="46.30388" lon="6.54337">
        <ele>792</ele>
        <time>2019-06-11T17:31:20Z</time>
      </trkpt>
      <trkpt lat="46.30401" lon="6.54362">
        <ele>791</ele>
        <time>2019-06-11T17:31:23Z</time>
      </trkpt>
      <trkpt lat="46.30427" lon="6.54401">
        <ele>790</ele>
        <time>2019-06-11T17:31:30Z</time>
      </trkpt>
      <trkpt lat="46.30452" lon="6.54433">
        <ele>788</ele>
        <time>2019-06-11T17:31:36Z</time>
      </trkpt>
      <trkpt lat="46.30483" lon="6.54467">
        <ele>787</ele>
        <time>2019-06-11T17:31:43Z</time>
      </trkpt>
      <trkpt lat="46.30563" lon="6.54569">
        <ele>791</ele>
        <time>2019-06-11T17:32:02Z</time>
      </trkpt>
      <trkpt lat="46.30579" lon="6.54591">
        <ele>792</ele>
        <time>2019-06-11T17:32:06Z</time>
      </trkpt>
      <trkpt lat="46.30588" lon="6.5461">
        <ele>794</ele>
        <time>2019-06-11T17:32:09Z</time>
      </trkpt>
      <trkpt lat="46.30602" lon="6.54683">
        <ele>791</ele>
        <time>2019-06-11T17:32:18Z</time>
      </trkpt>
      <trkpt lat="46.30613" lon="6.54706">
        <ele>791</ele>
        <time>2019-06-11T17:32:21Z</time>
      </trkpt>
      <trkpt lat="46.30673" lon="6.54771">
        <ele>795</ele>
        <time>2019-06-11T17:32:35Z</time>
      </trkpt>
      <trkpt lat="46.30744" lon="6.54837">
        <ele>793</ele>
        <time>2019-06-11T17:32:50Z</time>
      </trkpt>
      <trkpt lat="46.30773" lon="6.54852">
        <ele>791</ele>
        <time>2019-06-11T17:32:55Z</time>
      </trkpt>
      <trkpt lat="46.3081" lon="6.54857">
        <ele>793</ele>
        <time>2019-06-11T17:33:02Z</time>
      </trkpt>
      <trkpt lat="46.30854" lon="6.54871">
        <ele>791</ele>
        <time>2019-06-11T17:33:10Z</time>
      </trkpt>
      <trkpt lat="46.30863" lon="6.54872">
        <ele>791</ele>
        <time>2019-06-11T17:33:11Z</time>
      </trkpt>
      <trkpt lat="46.30872" lon="6.54868">
        <ele>792</ele>
        <time>2019-06-11T17:33:13Z</time>
      </trkpt>
      <trkpt lat="46.30879" lon="6.54862">
        <ele>794</ele>
        <time>2019-06-11T17:33:15Z</time>
      </trkpt>
      <trkpt lat="46.30901" lon="6.54826">
        <ele>802</ele>
        <time>2019-06-11T17:33:21Z</time>
      </trkpt>
      <trkpt lat="46.30916" lon="6.54816">
        <ele>804</ele>
        <time>2019-06-11T17:33:23Z</time>
      </trkpt>
      <trkpt lat="46.30926" lon="6.54815">
        <ele>805</ele>
        <time>2019-06-11T17:33:25Z</time>
      </trkpt>
      <trkpt lat="46.30936" lon="6.54818">
        <ele>806</ele>
        <time>2019-06-11T17:33:27Z</time>
      </trkpt>
      <trkpt lat="46.30954" lon="6.54827">
        <ele>806</ele>
        <time>2019-06-11T17:33:30Z</time>
      </trkpt>
      <trkpt lat="46.30993" lon="6.54856">
        <ele>806</ele>
        <time>2019-06-11T17:33:38Z</time>
      </trkpt>
      <trkpt lat="46.31006" lon="6.54873">
        <ele>806</ele>
        <time>2019-06-11T17:33:41Z</time>
      </trkpt>
      <trkpt lat="46.31017" lon="6.54899">
        <ele>806</ele>
        <time>2019-06-11T17:33:45Z</time>
      </trkpt>
      <trkpt lat="46.31022" lon="6.54913">
        <ele>805</ele>
        <time>2019-06-11T17:33:47Z</time>
      </trkpt>
      <trkpt lat="46.31028" lon="6.54941">
        <ele>804</ele>
        <time>2019-06-11T17:33:51Z</time>
      </trkpt>
      <trkpt lat="46.31037" lon="6.55006">
        <ele>799</ele>
        <time>2019-06-11T17:33:59Z</time>
      </trkpt>
      <trkpt lat="46.31043" lon="6.55037">
        <ele>797</ele>
        <time>2019-06-11T17:34:03Z</time>
      </trkpt>
      <trkpt lat="46.31053" lon="6.55065">
        <ele>798</ele>
        <time>2019-06-11T17:34:07Z</time>
      </trkpt>
      <trkpt lat="46.31067" lon="6.55091">
        <ele>799</ele>
        <time>2019-06-11T17:34:11Z</time>
      </trkpt>
      <trkpt lat="46.31089" lon="6.55118">
        <ele>800</ele>
        <time>2019-06-11T17:34:16Z</time>
      </trkpt>
      <trkpt lat="46.31147" lon="6.55174">
        <ele>803</ele>
        <time>2019-06-11T17:34:28Z</time>
      </trkpt>
      <trkpt lat="46.31193" lon="6.55213">
        <ele>806</ele>
        <time>2019-06-11T17:34:38Z</time>
      </trkpt>
      <trkpt lat="46.31226" lon="6.55248">
        <ele>807</ele>
        <time>2019-06-11T17:34:45Z</time>
      </trkpt>
      <trkpt lat="46.31286" lon="6.55364">
        <ele>802</ele>
        <time>2019-06-11T17:35:03Z</time>
      </trkpt>
      <trkpt lat="46.31306" lon="6.55392">
        <ele>803</ele>
        <time>2019-06-11T17:35:08Z</time>
      </trkpt>
      <trkpt lat="46.31357" lon="6.55445">
        <ele>807</ele>
        <time>2019-06-11T17:35:19Z</time>
      </trkpt>
      <trkpt lat="46.31387" lon="6.5549">
        <ele>803</ele>
        <time>2019-06-11T17:35:27Z</time>
      </trkpt>
      <trkpt lat="46.31401" lon="6.55504">
        <ele>803</ele>
        <time>2019-06-11T17:35:30Z</time>
      </trkpt>
      <trkpt lat="46.31441" lon="6.55533">
        <ele>806</ele>
        <time>2019-06-11T17:35:38Z</time>
      </trkpt>
      <trkpt lat="46.31483" lon="6.55581">
        <ele>802</ele>
        <time>2019-06-11T17:35:47Z</time>
      </trkpt>
      <trkpt lat="46.31532" lon="6.55642">
        <ele>805</ele>
        <time>2019-06-11T17:35:59Z</time>
      </trkpt>
      <trkpt lat="46.31582" lon="6.55726">
        <ele>803</ele>
        <time>2019-06-11T17:36:12Z</time>
      </trkpt>
      <trkpt lat="46.31623" lon="6.55819">
        <ele>801</ele>
        <time>2019-06-11T17:36:26Z</time>
      </trkpt>
      <trkpt lat="46.31637" lon="6.55846">
        <ele>801</ele>
        <time>2019-06-11T17:36:30Z</time>
      </trkpt>
      <trkpt lat="46.31707" lon="6.55949">
        <ele>803</ele>
        <time>2019-06-11T17:36:48Z</time>
      </trkpt>
      <trkpt lat="46.31739" lon="6.55983">
        <ele>806</ele>
        <time>2019-06-11T17:36:55Z</time>
      </trkpt>
      <trkpt lat="46.31831" lon="6.56044">
        <ele>815</ele>
        <time>2019-06-11T17:37:13Z</time>
      </trkpt>
      <trkpt lat="46.3185" lon="6.56059">
        <ele>815</ele>
        <time>2019-06-11T17:37:17Z</time>
      </trkpt>
      <trkpt lat="46.31859" lon="6.56069">
        <ele>814</ele>
        <time>2019-06-11T17:37:19Z</time>
      </trkpt>
      <trkpt lat="46.31894" lon="6.56117">
        <ele>808</ele>
        <time>2019-06-11T17:37:27Z</time>
      </trkpt>
      <trkpt lat="46.3198" lon="6.56219">
        <ele>810</ele>
        <time>2019-06-11T17:37:47Z</time>
      </trkpt>
      <trkpt lat="46.32016" lon="6.56277">
        <ele>801</ele>
        <time>2019-06-11T17:37:57Z</time>
      </trkpt>
      <trkpt lat="46.32027" lon="6.5629">
        <ele>799</ele>
        <time>2019-06-11T17:37:59Z</time>
      </trkpt>
      <trkpt lat="46.32047" lon="6.56305">
        <ele>798</ele>
        <time>2019-06-11T17:38:03Z</time>
      </trkpt>
      <trkpt lat="46.32063" lon="6.56313">
        <ele>799</ele>
        <time>2019-06-11T17:38:06Z</time>
      </trkpt>
      <trkpt lat="46.32136" lon="6.56337">
        <ele>804</ele>
        <time>2019-06-11T17:38:19Z</time>
      </trkpt>
      <trkpt lat="46.32219" lon="6.56367">
        <ele>802</ele>
        <time>2019-06-11T17:38:35Z</time>
      </trkpt>
      <trkpt lat="46.32253" lon="6.56375">
        <ele>801</ele>
        <time>2019-06-11T17:38:41Z</time>
      </trkpt>
      <trkpt lat="46.32264" lon="6.56379">
        <ele>799</ele>
        <time>2019-06-11T17:38:43Z</time>
      </trkpt>
      <trkpt lat="46.32276" lon="6.56388">
        <ele>796</ele>
        <time>2019-06-11T17:38:45Z</time>
      </trkpt>
      <trkpt lat="46.32351" lon="6.56466">
        <ele>778</ele>
        <time>2019-06-11T17:39:02Z</time>
      </trkpt>
      <trkpt lat="46.32369" lon="6.56484">
        <ele>776</ele>
        <time>2019-06-11T17:39:06Z</time>
      </trkpt>
      <trkpt lat="46.32403" lon="6.56506">
        <ele>775</ele>
        <time>2019-06-11T17:39:12Z</time>
      </trkpt>
      <trkpt lat="46.32425" lon="6.56516">
        <ele>775</ele>
        <time>2019-06-11T17:39:16Z</time>
      </trkpt>
      <trkpt lat="46.32441" lon="6.56516">
        <ele>773</ele>
        <time>2019-06-11T17:39:19Z</time>
      </trkpt>
      <trkpt lat="46.32458" lon="6.56508">
        <ele>771</ele>
        <time>2019-06-11T17:39:22Z</time>
      </trkpt>
      <trkpt lat="46.3257" lon="6.56412">
        <ele>767</ele>
        <time>2019-06-11T17:39:45Z</time>
      </trkpt>
      <trkpt lat="46.32598" lon="6.56397">
        <ele>766</ele>
        <time>2019-06-11T17:39:51Z</time>
      </trkpt>
      <trkpt lat="46.32611" lon="6.56392">
        <ele>766</ele>
        <time>2019-06-11T17:39:53Z</time>
      </trkpt>
      <trkpt lat="46.32631" lon="6.56389">
        <ele>765</ele>
        <time>2019-06-11T17:39:57Z</time>
      </trkpt>
      <trkpt lat="46.32668" lon="6.56386">
        <ele>762</ele>
        <time>2019-06-11T17:40:03Z</time>
      </trkpt>
      <trkpt lat="46.32694" lon="6.56387">
        <ele>762</ele>
        <time>2019-06-11T17:40:08Z</time>
      </trkpt>
      <trkpt lat="46.3273" lon="6.56396">
        <ele>759</ele>
        <time>2019-06-11T17:40:14Z</time>
      </trkpt>
      <trkpt lat="46.32778" lon="6.56401">
        <ele>760</ele>
        <time>2019-06-11T17:40:23Z</time>
      </trkpt>
      <trkpt lat="46.32796" lon="6.56405">
        <ele>760</ele>
        <time>2019-06-11T17:40:26Z</time>
      </trkpt>
      <trkpt lat="46.32831" lon="6.56422">
        <ele>757</ele>
        <time>2019-06-11T17:40:33Z</time>
      </trkpt>
      <trkpt lat="46.32907" lon="6.56471">
        <ele>755</ele>
        <time>2019-06-11T17:40:48Z</time>
      </trkpt>
      <trkpt lat="46.33006" lon="6.5651">
        <ele>755</ele>
        <time>2019-06-11T17:41:06Z</time>
      </trkpt>
      <trkpt lat="46.33049" lon="6.56523">
        <ele>753</ele>
        <time>2019-06-11T17:41:14Z</time>
      </trkpt>
      <trkpt lat="46.33092" lon="6.56553">
        <ele>741</ele>
        <time>2019-06-11T17:41:22Z</time>
      </trkpt>
      <trkpt lat="46.33108" lon="6.56559">
        <ele>739</ele>
        <time>2019-06-11T17:41:25Z</time>
      </trkpt>
      <trkpt lat="46.33151" lon="6.56564">
        <ele>739</ele>
        <time>2019-06-11T17:41:33Z</time>
      </trkpt>
      <trkpt lat="46.33202" lon="6.56592">
        <ele>727</ele>
        <time>2019-06-11T17:41:43Z</time>
      </trkpt>
      <trkpt lat="46.33233" lon="6.56598">
        <ele>723</ele>
        <time>2019-06-11T17:41:48Z</time>
      </trkpt>
      <trkpt lat="46.33249" lon="6.56595">
        <ele>724</ele>
        <time>2019-06-11T17:41:51Z</time>
      </trkpt>
      <trkpt lat="46.3326" lon="6.56589">
        <ele>723</ele>
        <time>2019-06-11T17:41:53Z</time>
      </trkpt>
      <trkpt lat="46.33302" lon="6.56546">
        <ele>722</ele>
        <time>2019-06-11T17:42:02Z</time>
      </trkpt>
      <trkpt lat="46.33353" lon="6.56478">
        <ele>723</ele>
        <time>2019-06-11T17:42:15Z</time>
      </trkpt>
      <trkpt lat="46.33384" lon="6.56452">
        <ele>721</ele>
        <time>2019-06-11T17:42:21Z</time>
      </trkpt>
      <trkpt lat="46.3343" lon="6.56378">
        <ele>722</ele>
        <time>2019-06-11T17:42:33Z</time>
      </trkpt>
      <trkpt lat="46.33468" lon="6.56333">
        <ele>714</ele>
        <time>2019-06-11T17:42:42Z</time>
      </trkpt>
      <trkpt lat="46.33477" lon="6.56316">
        <ele>713</ele>
        <time>2019-06-11T17:42:44Z</time>
      </trkpt>
      <trkpt lat="46.33494" lon="6.56237">
        <ele>716</ele>
        <time>2019-06-11T17:42:55Z</time>
      </trkpt>
      <trkpt lat="46.33513" lon="6.56187">
        <ele>713</ele>
        <time>2019-06-11T17:43:02Z</time>
      </trkpt>
      <trkpt lat="46.33528" lon="6.56136">
        <ele>715</ele>
        <time>2019-06-11T17:43:08Z</time>
      </trkpt>
      <trkpt lat="46.33545" lon="6.5609">
        <ele>715</ele>
        <time>2019-06-11T17:43:15Z</time>
      </trkpt>
      <trkpt lat="46.33552" lon="6.56065">
        <ele>715</ele>
        <time>2019-06-11T17:43:18Z</time>
      </trkpt>
      <trkpt lat="46.33562" lon="6.56013">
        <ele>717</ele>
        <time>2019-06-11T17:43:25Z</time>
      </trkpt>
      <trkpt lat="46.33567" lon="6.55998">
        <ele>715</ele>
        <time>2019-06-11T17:43:27Z</time>
      </trkpt>
      <trkpt lat="46.33582" lon="6.55963">
        <ele>711</ele>
        <time>2019-06-11T17:43:32Z</time>
      </trkpt>
      <trkpt lat="46.33591" lon="6.55934">
        <ele>710</ele>
        <time>2019-06-11T17:43:36Z</time>
      </trkpt>
      <trkpt lat="46.33605" lon="6.5586">
        <ele>717</ele>
        <time>2019-06-11T17:43:45Z</time>
      </trkpt>
      <trkpt lat="46.33607" lon="6.55822">
        <ele>724</ele>
        <time>2019-06-11T17:43:50Z</time>
      </trkpt>
      <trkpt lat="46.33607" lon="6.55793">
        <ele>729</ele>
        <time>2019-06-11T17:43:54Z</time>
      </trkpt>
      <trkpt lat="46.3361" lon="6.55772">
        <ele>731</ele>
        <time>2019-06-11T17:43:56Z</time>
      </trkpt>
      <trkpt lat="46.33619" lon="6.55753">
        <ele>728</ele>
        <time>2019-06-11T17:43:59Z</time>
      </trkpt>
      <trkpt lat="46.33646" lon="6.55719">
        <ele>714</ele>
        <time>2019-06-11T17:44:05Z</time>
      </trkpt>
      <trkpt lat="46.33653" lon="6.55707">
        <ele>712</ele>
        <time>2019-06-11T17:44:07Z</time>
      </trkpt>
      <trkpt lat="46.33659" lon="6.55688">
        <ele>711</ele>
        <time>2019-06-11T17:44:10Z</time>
      </trkpt>
      <trkpt lat="46.3366" lon="6.55672">
        <ele>714</ele>
        <time>2019-06-11T17:44:12Z</time>
      </trkpt>
      <trkpt lat="46.33657" lon="6.55606">
        <ele>720</ele>
        <time>2019-06-11T17:44:20Z</time>
      </trkpt>
      <trkpt lat="46.33654" lon="6.5559">
        <ele>723</ele>
        <time>2019-06-11T17:44:22Z</time>
      </trkpt>
      <trkpt lat="46.33636" lon="6.55526">
        <ele>734</ele>
        <time>2019-06-11T17:44:30Z</time>
      </trkpt>
      <trkpt lat="46.33631" lon="6.55447">
        <ele>734</ele>
        <time>2019-06-11T17:44:40Z</time>
      </trkpt>
      <trkpt lat="46.33637" lon="6.55383">
        <ele>732</ele>
        <time>2019-06-11T17:44:48Z</time>
      </trkpt>
      <trkpt lat="46.3365" lon="6.55338">
        <ele>725</ele>
        <time>2019-06-11T17:44:54Z</time>
      </trkpt>
      <trkpt lat="46.33661" lon="6.55276">
        <ele>726</ele>
        <time>2019-06-11T17:45:02Z</time>
      </trkpt>
      <trkpt lat="46.33666" lon="6.55265">
        <ele>724</ele>
        <time>2019-06-11T17:45:04Z</time>
      </trkpt>
      <trkpt lat="46.3369" lon="6.55238">
        <ele>716</ele>
        <time>2019-06-11T17:45:09Z</time>
      </trkpt>
      <trkpt lat="46.33696" lon="6.5523">
        <ele>714</ele>
        <time>2019-06-11T17:45:10Z</time>
      </trkpt>
      <trkpt lat="46.337" lon="6.55218">
        <ele>715</ele>
        <time>2019-06-11T17:45:12Z</time>
      </trkpt>
      <trkpt lat="46.33706" lon="6.55187">
        <ele>719</ele>
        <time>2019-06-11T17:45:16Z</time>
      </trkpt>
      <trkpt lat="46.33716" lon="6.55163">
        <ele>720</ele>
        <time>2019-06-11T17:45:20Z</time>
      </trkpt>
      <trkpt lat="46.33753" lon="6.55122">
        <ele>713</ele>
        <time>2019-06-11T17:45:28Z</time>
      </trkpt>
      <trkpt lat="46.33764" lon="6.55107">
        <ele>712</ele>
        <time>2019-06-11T17:45:31Z</time>
      </trkpt>
      <trkpt lat="46.33771" lon="6.55096">
        <ele>712</ele>
        <time>2019-06-11T17:45:32Z</time>
      </trkpt>
      <trkpt lat="46.33797" lon="6.55033">
        <ele>719</ele>
        <time>2019-06-11T17:45:41Z</time>
      </trkpt>
      <trkpt lat="46.33823" lon="6.54996">
        <ele>719</ele>
        <time>2019-06-11T17:45:48Z</time>
      </trkpt>
      <trkpt lat="46.33837" lon="6.54983">
        <ele>718</ele>
        <time>2019-06-11T17:45:51Z</time>
      </trkpt>
      <trkpt lat="46.33858" lon="6.54971">
        <ele>714</ele>
        <time>2019-06-11T17:45:55Z</time>
      </trkpt>
      <trkpt lat="46.33894" lon="6.54966">
        <ele>700</ele>
        <time>2019-06-11T17:46:01Z</time>
      </trkpt>
      <trkpt lat="46.33907" lon="6.5496">
        <ele>696</ele>
        <time>2019-06-11T17:46:04Z</time>
      </trkpt>
      <trkpt lat="46.33913" lon="6.54951">
        <ele>695</ele>
        <time>2019-06-11T17:46:05Z</time>
      </trkpt>
      <trkpt lat="46.33915" lon="6.54945">
        <ele>696</ele>
        <time>2019-06-11T17:46:06Z</time>
      </trkpt>
      <trkpt lat="46.33915" lon="6.54925">
        <ele>700</ele>
        <time>2019-06-11T17:46:08Z</time>
      </trkpt>
      <trkpt lat="46.33907" lon="6.54879">
        <ele>707</ele>
        <time>2019-06-11T17:46:14Z</time>
      </trkpt>
      <trkpt lat="46.33893" lon="6.54822">
        <ele>717</ele>
        <time>2019-06-11T17:46:22Z</time>
      </trkpt>
      <trkpt lat="46.33891" lon="6.54791">
        <ele>717</ele>
        <time>2019-06-11T17:46:26Z</time>
      </trkpt>
      <trkpt lat="46.33891" lon="6.54768">
        <ele>717</ele>
        <time>2019-06-11T17:46:28Z</time>
      </trkpt>
      <trkpt lat="46.33893" lon="6.54741">
        <ele>716</ele>
        <time>2019-06-11T17:46:32Z</time>
      </trkpt>
      <trkpt lat="46.33896" lon="6.54716">
        <ele>719</ele>
        <time>2019-06-11T17:46:35Z</time>
      </trkpt>
      <trkpt lat="46.33903" lon="6.54684">
        <ele>720</ele>
        <time>2019-06-11T17:46:39Z</time>
      </trkpt>
      <trkpt lat="46.33911" lon="6.5466">
        <ele>720</ele>
        <time>2019-06-11T17:46:42Z</time>
      </trkpt>
      <trkpt lat="46.33923" lon="6.54638">
        <ele>720</ele>
        <time>2019-06-11T17:46:46Z</time>
      </trkpt>
      <trkpt lat="46.33997" lon="6.54553">
        <ele>705</ele>
        <time>2019-06-11T17:47:02Z</time>
      </trkpt>
      <trkpt lat="46.34004" lon="6.5454">
        <ele>706</ele>
        <time>2019-06-11T17:47:05Z</time>
      </trkpt>
      <trkpt lat="46.3402" lon="6.54471">
        <ele>719</ele>
        <time>2019-06-11T17:47:13Z</time>
      </trkpt>
      <trkpt lat="46.34056" lon="6.54377">
        <ele>715</ele>
        <time>2019-06-11T17:47:27Z</time>
      </trkpt>
      <trkpt lat="46.34088" lon="6.54281">
        <ele>708</ele>
        <time>2019-06-11T17:47:40Z</time>
      </trkpt>
      <trkpt lat="46.34116" lon="6.54173">
        <ele>705</ele>
        <time>2019-06-11T17:47:54Z</time>
      </trkpt>
      <trkpt lat="46.3413" lon="6.54142">
        <ele>698</ele>
        <time>2019-06-11T17:47:58Z</time>
      </trkpt>
      <trkpt lat="46.34136" lon="6.54113">
        <ele>696</ele>
        <time>2019-06-11T17:48:02Z</time>
      </trkpt>
      <trkpt lat="46.34124" lon="6.5407">
        <ele>702</ele>
        <time>2019-06-11T17:48:08Z</time>
      </trkpt>
      <trkpt lat="46.34103" lon="6.54017">
        <ele>710</ele>
        <time>2019-06-11T17:48:15Z</time>
      </trkpt>
      <trkpt lat="46.34099" lon="6.53976">
        <ele>711</ele>
        <time>2019-06-11T17:48:20Z</time>
      </trkpt>
      <trkpt lat="46.34115" lon="6.53839">
        <ele>702</ele>
        <time>2019-06-11T17:48:38Z</time>
      </trkpt>
      <trkpt lat="46.34123" lon="6.53754">
        <ele>705</ele>
        <time>2019-06-11T17:48:48Z</time>
      </trkpt>
      <trkpt lat="46.3412" lon="6.53691">
        <ele>711</ele>
        <time>2019-06-11T17:48:56Z</time>
      </trkpt>
      <trkpt lat="46.34126" lon="6.53643">
        <ele>713</ele>
        <time>2019-06-11T17:49:02Z</time>
      </trkpt>
      <trkpt lat="46.34164" lon="6.5356">
        <ele>709</ele>
        <time>2019-06-11T17:49:14Z</time>
      </trkpt>
      <trkpt lat="46.34172" lon="6.5353">
        <ele>706</ele>
        <time>2019-06-11T17:49:18Z</time>
      </trkpt>
      <trkpt lat="46.34173" lon="6.53505">
        <ele>705</ele>
        <time>2019-06-11T17:49:21Z</time>
      </trkpt>
      <trkpt lat="46.34144" lon="6.53425">
        <ele>704</ele>
        <time>2019-06-11T17:49:32Z</time>
      </trkpt>
      <trkpt lat="46.34142" lon="6.53395">
        <ele>705</ele>
        <time>2019-06-11T17:49:36Z</time>
      </trkpt>
      <trkpt lat="46.34149" lon="6.53367">
        <ele>706</ele>
        <time>2019-06-11T17:49:40Z</time>
      </trkpt>
      <trkpt lat="46.34168" lon="6.53343">
        <ele>704</ele>
        <time>2019-06-11T17:49:44Z</time>
      </trkpt>
      <trkpt lat="46.34272" lon="6.53266">
        <ele>695</ele>
        <time>2019-06-11T17:50:05Z</time>
      </trkpt>
      <trkpt lat="46.34287" lon="6.53248">
        <ele>694</ele>
        <time>2019-06-11T17:50:08Z</time>
      </trkpt>
      <trkpt lat="46.34293" lon="6.53225">
        <ele>695</ele>
        <time>2019-06-11T17:50:11Z</time>
      </trkpt>
      <trkpt lat="46.343" lon="6.53028">
        <ele>691</ele>
        <time>2019-06-11T17:50:36Z</time>
      </trkpt>
      <trkpt lat="46.34305" lon="6.53001">
        <ele>688</ele>
        <time>2019-06-11T17:50:39Z</time>
      </trkpt>
      <trkpt lat="46.34312" lon="6.52985">
        <ele>688</ele>
        <time>2019-06-11T17:50:41Z</time>
      </trkpt>
      <trkpt lat="46.34327" lon="6.52975">
        <ele>687</ele>
        <time>2019-06-11T17:50:44Z</time>
      </trkpt>
      <trkpt lat="46.34377" lon="6.52948">
        <ele>679</ele>
        <time>2019-06-11T17:50:54Z</time>
      </trkpt>
      <trkpt lat="46.34401" lon="6.5293">
        <ele>677</ele>
        <time>2019-06-11T17:50:59Z</time>
      </trkpt>
      <trkpt lat="46.34416" lon="6.52909">
        <ele>677</ele>
        <time>2019-06-11T17:51:02Z</time>
      </trkpt>
      <trkpt lat="46.34431" lon="6.52864">
        <ele>677</ele>
        <time>2019-06-11T17:51:08Z</time>
      </trkpt>
      <trkpt lat="46.3445" lon="6.52836">
        <ele>676</ele>
        <time>2019-06-11T17:51:13Z</time>
      </trkpt>
      <trkpt lat="46.34521" lon="6.52771">
        <ele>667</ele>
        <time>2019-06-11T17:51:28Z</time>
      </trkpt>
      <trkpt lat="46.34548" lon="6.52738">
        <ele>668</ele>
        <time>2019-06-11T17:51:34Z</time>
      </trkpt>
      <trkpt lat="46.34566" lon="6.52682">
        <ele>667</ele>
        <time>2019-06-11T17:51:42Z</time>
      </trkpt>
      <trkpt lat="46.34582" lon="6.52652">
        <ele>667</ele>
        <time>2019-06-11T17:51:47Z</time>
      </trkpt>
      <trkpt lat="46.34598" lon="6.52625">
        <ele>664</ele>
        <time>2019-06-11T17:51:51Z</time>
      </trkpt>
      <trkpt lat="46.34622" lon="6.52597">
        <ele>659</ele>
        <time>2019-06-11T17:51:57Z</time>
      </trkpt>
      <trkpt lat="46.34634" lon="6.5257">
        <ele>656</ele>
        <time>2019-06-11T17:52:00Z</time>
      </trkpt>
      <trkpt lat="46.34643" lon="6.52443">
        <ele>653</ele>
        <time>2019-06-11T17:52:16Z</time>
      </trkpt>
      <trkpt lat="46.34644" lon="6.52352">
        <ele>651</ele>
        <time>2019-06-11T17:52:27Z</time>
      </trkpt>
      <trkpt lat="46.34648" lon="6.52326">
        <ele>651</ele>
        <time>2019-06-11T17:52:31Z</time>
      </trkpt>
      <trkpt lat="46.34671" lon="6.52281">
        <ele>651</ele>
        <time>2019-06-11T17:52:38Z</time>
      </trkpt>
      <trkpt lat="46.3474" lon="6.5216">
        <ele>647</ele>
        <time>2019-06-11T17:52:57Z</time>
      </trkpt>
      <trkpt lat="46.34755" lon="6.5213">
        <ele>647</ele>
        <time>2019-06-11T17:53:01Z</time>
      </trkpt>
      <trkpt lat="46.34764" lon="6.52104">
        <ele>648</ele>
        <time>2019-06-11T17:53:05Z</time>
      </trkpt>
      <trkpt lat="46.3477" lon="6.52072">
        <ele>648</ele>
        <time>2019-06-11T17:53:09Z</time>
      </trkpt>
      <trkpt lat="46.34774" lon="6.52032">
        <ele>647</ele>
        <time>2019-06-11T17:53:14Z</time>
      </trkpt>
      <trkpt lat="46.34785" lon="6.52007">
        <ele>645</ele>
        <time>2019-06-11T17:53:18Z</time>
      </trkpt>
      <trkpt lat="46.34799" lon="6.52">
        <ele>643</ele>
        <time>2019-06-11T17:53:20Z</time>
      </trkpt>
      <trkpt lat="46.34816" lon="6.52002">
        <ele>642</ele>
        <time>2019-06-11T17:53:23Z</time>
      </trkpt>
      <trkpt lat="46.34854" lon="6.52021">
        <ele>640</ele>
        <time>2019-06-11T17:53:30Z</time>
      </trkpt>
      <trkpt lat="46.34884" lon="6.52044">
        <ele>640</ele>
        <time>2019-06-11T17:53:36Z</time>
      </trkpt>
      <trkpt lat="46.34934" lon="6.52112">
        <ele>640</ele>
        <time>2019-06-11T17:53:49Z</time>
      </trkpt>
      <trkpt lat="46.34945" lon="6.5212">
        <ele>639</ele>
        <time>2019-06-11T17:53:51Z</time>
      </trkpt>
      <trkpt lat="46.34972" lon="6.52125">
        <ele>639</ele>
        <time>2019-06-11T17:53:56Z</time>
      </trkpt>
      <trkpt lat="46.34997" lon="6.52125">
        <ele>638</ele>
        <time>2019-06-11T17:54:00Z</time>
      </trkpt>
      <trkpt lat="46.35012" lon="6.52114">
        <ele>636</ele>
        <time>2019-06-11T17:54:03Z</time>
      </trkpt>
      <trkpt lat="46.35021" lon="6.52096">
        <ele>634</ele>
        <time>2019-06-11T17:54:06Z</time>
      </trkpt>
      <trkpt lat="46.35043" lon="6.52009">
        <ele>633</ele>
        <time>2019-06-11T17:54:17Z</time>
      </trkpt>
      <trkpt lat="46.35061" lon="6.5187">
        <ele>631</ele>
        <time>2019-06-11T17:54:35Z</time>
      </trkpt>
      <trkpt lat="46.3507" lon="6.51831">
        <ele>630</ele>
        <time>2019-06-11T17:54:40Z</time>
      </trkpt>
      <trkpt lat="46.35133" lon="6.51688">
        <ele>627</ele>
        <time>2019-06-11T17:55:00Z</time>
      </trkpt>
      <trkpt lat="46.35194" lon="6.51562">
        <ele>626</ele>
        <time>2019-06-11T17:55:19Z</time>
      </trkpt>
      <trkpt lat="46.35208" lon="6.51545">
        <ele>625</ele>
        <time>2019-06-11T17:55:23Z</time>
      </trkpt>
      <trkpt lat="46.35227" lon="6.51534">
        <ele>622</ele>
        <time>2019-06-11T17:55:26Z</time>
      </trkpt>
      <trkpt lat="46.35445" lon="6.51461">
        <ele>616</ele>
        <time>2019-06-11T17:56:06Z</time>
      </trkpt>
      <trkpt lat="46.35497" lon="6.51452">
        <ele>616</ele>
        <time>2019-06-11T17:56:15Z</time>
      </trkpt>
      <trkpt lat="46.35559" lon="6.51445">
        <ele>614</ele>
        <time>2019-06-11T17:56:26Z</time>
      </trkpt>
      <trkpt lat="46.35635" lon="6.51456">
        <ele>613</ele>
        <time>2019-06-11T17:56:40Z</time>
      </trkpt>
      <trkpt lat="46.35665" lon="6.51458">
        <ele>613</ele>
        <time>2019-06-11T17:56:45Z</time>
      </trkpt>
      <trkpt lat="46.35707" lon="6.5145">
        <ele>613</ele>
        <time>2019-06-11T17:56:53Z</time>
      </trkpt>
      <trkpt lat="46.35744" lon="6.51438">
        <ele>615</ele>
        <time>2019-06-11T17:57:00Z</time>
      </trkpt>
      <trkpt lat="46.35773" lon="6.51425">
        <ele>614</ele>
        <time>2019-06-11T17:57:05Z</time>
      </trkpt>
      <trkpt lat="46.35836" lon="6.51429">
        <ele>610</ele>
        <time>2019-06-11T17:57:16Z</time>
      </trkpt>
      <trkpt lat="46.35846" lon="6.51434">
        <ele>610</ele>
        <time>2019-06-11T17:57:18Z</time>
      </trkpt>
      <trkpt lat="46.35857" lon="6.51447">
        <ele>609</ele>
        <time>2019-06-11T17:57:21Z</time>
      </trkpt>
      <trkpt lat="46.35866" lon="6.51469">
        <ele>608</ele>
        <time>2019-06-11T17:57:24Z</time>
      </trkpt>
      <trkpt lat="46.35882" lon="6.51518">
        <ele>604</ele>
        <time>2019-06-11T17:57:31Z</time>
      </trkpt>
      <trkpt lat="46.35892" lon="6.51532">
        <ele>603</ele>
        <time>2019-06-11T17:57:33Z</time>
      </trkpt>
      <trkpt lat="46.35929" lon="6.51559">
        <ele>594</ele>
        <time>2019-06-11T17:57:40Z</time>
      </trkpt>
      <trkpt lat="46.35941" lon="6.51561">
        <ele>591</ele>
        <time>2019-06-11T17:57:43Z</time>
      </trkpt>
      <trkpt lat="46.35953" lon="6.51552">
        <ele>589</ele>
        <time>2019-06-11T17:57:45Z</time>
      </trkpt>
      <trkpt lat="46.3596" lon="6.5154">
        <ele>590</ele>
        <time>2019-06-11T17:57:47Z</time>
      </trkpt>
      <trkpt lat="46.35967" lon="6.51522">
        <ele>591</ele>
        <time>2019-06-11T17:57:49Z</time>
      </trkpt>
      <trkpt lat="46.35983" lon="6.51368">
        <ele>594</ele>
        <time>2019-06-11T17:58:08Z</time>
      </trkpt>
      <trkpt lat="46.3601" lon="6.5124">
        <ele>597</ele>
        <time>2019-06-11T17:58:25Z</time>
      </trkpt>
      <trkpt lat="46.3603" lon="6.51184">
        <ele>595</ele>
        <time>2019-06-11T17:58:33Z</time>
      </trkpt>
      <trkpt lat="46.36046" lon="6.51101">
        <ele>592</ele>
        <time>2019-06-11T17:58:43Z</time>
      </trkpt>
      <trkpt lat="46.36062" lon="6.50972">
        <ele>589</ele>
        <time>2019-06-11T17:58:59Z</time>
      </trkpt>
      <trkpt lat="46.36089" lon="6.50878">
        <ele>583</ele>
        <time>2019-06-11T17:59:12Z</time>
      </trkpt>
      <trkpt lat="46.36111" lon="6.50825">
        <ele>582</ele>
        <time>2019-06-11T17:59:19Z</time>
      </trkpt>
      <trkpt lat="46.36125" lon="6.50814">
        <ele>581</ele>
        <time>2019-06-11T17:59:22Z</time>
      </trkpt>
      <trkpt lat="46.3624" lon="6.50766">
        <ele>572</ele>
        <time>2019-06-11T17:59:44Z</time>
      </trkpt>
      <trkpt lat="46.36255" lon="6.50749">
        <ele>569</ele>
        <time>2019-06-11T17:59:47Z</time>
      </trkpt>
      <trkpt lat="46.36271" lon="6.50718">
        <ele>562</ele>
        <time>2019-06-11T17:59:52Z</time>
      </trkpt>
      <trkpt lat="46.36276" lon="6.50688">
        <ele>559</ele>
        <time>2019-06-11T17:59:56Z</time>
      </trkpt>
      <trkpt lat="46.36276" lon="6.50576">
        <ele>562</ele>
        <time>2019-06-11T18:00:09Z</time>
      </trkpt>
      <trkpt lat="46.36283" lon="6.50533">
        <ele>561</ele>
        <time>2019-06-11T18:00:15Z</time>
      </trkpt>
      <trkpt lat="46.36311" lon="6.50449">
        <ele>551</ele>
        <time>2019-06-11T18:00:26Z</time>
      </trkpt>
      <trkpt lat="46.36311" lon="6.50428">
        <ele>550</ele>
        <time>2019-06-11T18:00:29Z</time>
      </trkpt>
      <trkpt lat="46.36288" lon="6.50346">
        <ele>550</ele>
        <time>2019-06-11T18:00:40Z</time>
      </trkpt>
      <trkpt lat="46.36213" lon="6.50261">
        <ele>550</ele>
        <time>2019-06-11T18:00:57Z</time>
      </trkpt>
      <trkpt lat="46.36142" lon="6.50212">
        <ele>549</ele>
        <time>2019-06-11T18:01:11Z</time>
      </trkpt>
      <trkpt lat="46.36074" lon="6.50154">
        <ele>548</ele>
        <time>2019-06-11T18:01:25Z</time>
      </trkpt>
      <trkpt lat="46.36036" lon="6.50075">
        <ele>546</ele>
        <time>2019-06-11T18:01:36Z</time>
      </trkpt>
      <trkpt lat="46.3601" lon="6.50013">
        <ele>543</ele>
        <time>2019-06-11T18:01:45Z</time>
      </trkpt>
      <trkpt lat="46.35998" lon="6.49937">
        <ele>539</ele>
        <time>2019-06-11T18:01:55Z</time>
      </trkpt>
      <trkpt lat="46.36004" lon="6.49847">
        <ele>533</ele>
        <time>2019-06-11T18:02:06Z</time>
      </trkpt>
      <trkpt lat="46.36004" lon="6.498">
        <ele>531</ele>
        <time>2019-06-11T18:02:12Z</time>
      </trkpt>
      <trkpt lat="46.35994" lon="6.49765">
        <ele>530</ele>
        <time>2019-06-11T18:02:16Z</time>
      </trkpt>
      <trkpt lat="46.35944" lon="6.49693">
        <ele>526</ele>
        <time>2019-06-11T18:02:29Z</time>
      </trkpt>
      <trkpt lat="46.35919" lon="6.49664">
        <ele>522</ele>
        <time>2019-06-11T18:02:35Z</time>
      </trkpt>
      <trkpt lat="46.35915" lon="6.49647">
        <ele>520</ele>
        <time>2019-06-11T18:02:37Z</time>
      </trkpt>
      <trkpt lat="46.35913" lon="6.4962">
        <ele>517</ele>
        <time>2019-06-11T18:02:40Z</time>
      </trkpt>
      <trkpt lat="46.35918" lon="6.49598">
        <ele>516</ele>
        <time>2019-06-11T18:02:43Z</time>
      </trkpt>
      <trkpt lat="46.35957" lon="6.49521">
        <ele>516</ele>
        <time>2019-06-11T18:02:55Z</time>
      </trkpt>
      <trkpt lat="46.3599" lon="6.49463">
        <ele>516</ele>
        <time>2019-06-11T18:03:04Z</time>
      </trkpt>
      <trkpt lat="46.36002" lon="6.49438">
        <ele>515</ele>
        <time>2019-06-11T18:03:08Z</time>
      </trkpt>
      <trkpt lat="46.36011" lon="6.49413">
        <ele>514</ele>
        <time>2019-06-11T18:03:11Z</time>
      </trkpt>
      <trkpt lat="46.36028" lon="6.49276">
        <ele>505</ele>
        <time>2019-06-11T18:03:28Z</time>
      </trkpt>
      <trkpt lat="46.36041" lon="6.49188">
        <ele>499</ele>
        <time>2019-06-11T18:03:39Z</time>
      </trkpt>
      <trkpt lat="46.36051" lon="6.49164">
        <ele>498</ele>
        <time>2019-06-11T18:03:43Z</time>
      </trkpt>
      <trkpt lat="46.3606" lon="6.49151">
        <ele>497</ele>
        <time>2019-06-11T18:03:45Z</time>
      </trkpt>
      <trkpt lat="46.36082" lon="6.49137">
        <ele>498</ele>
        <time>2019-06-11T18:03:49Z</time>
      </trkpt>
      <trkpt lat="46.36097" lon="6.49136">
        <ele>496</ele>
        <time>2019-06-11T18:03:52Z</time>
      </trkpt>
      <trkpt lat="46.36117" lon="6.49139">
        <ele>494</ele>
        <time>2019-06-11T18:03:56Z</time>
      </trkpt>
      <trkpt lat="46.36134" lon="6.49148">
        <ele>492</ele>
        <time>2019-06-11T18:03:59Z</time>
      </trkpt>
      <trkpt lat="46.36146" lon="6.49164">
        <ele>491</ele>
        <time>2019-06-11T18:04:02Z</time>
      </trkpt>
      <trkpt lat="46.36158" lon="6.4919">
        <ele>491</ele>
        <time>2019-06-11T18:04:06Z</time>
      </trkpt>
      <trkpt lat="46.36184" lon="6.49266">
        <ele>495</ele>
        <time>2019-06-11T18:04:16Z</time>
      </trkpt>
      <trkpt lat="46.36195" lon="6.49283">
        <ele>494</ele>
        <time>2019-06-11T18:04:19Z</time>
      </trkpt>
      <trkpt lat="46.36205" lon="6.49294">
        <ele>492</ele>
        <time>2019-06-11T18:04:21Z</time>
      </trkpt>
      <trkpt lat="46.36204" lon="6.49305">
        <ele>493</ele>
        <time>2019-06-11T18:04:22Z</time>
      </trkpt>
      <trkpt lat="46.36207" lon="6.49317">
        <ele>493</ele>
        <time>2019-06-11T18:04:24Z</time>
      </trkpt>
      <trkpt lat="46.3621" lon="6.49321">
        <ele>492</ele>
        <time>2019-06-11T18:04:25Z</time>
      </trkpt>
      <trkpt lat="46.36217" lon="6.49325">
        <ele>491</ele>
        <time>2019-06-11T18:04:26Z</time>
      </trkpt>
      <trkpt lat="46.36217" lon="6.49341">
        <ele>491</ele>
        <time>2019-06-11T18:04:28Z</time>
      </trkpt>
      <trkpt lat="46.3622" lon="6.49358">
        <ele>491</ele>
        <time>2019-06-11T18:04:30Z</time>
      </trkpt>
      <trkpt lat="46.36247" lon="6.4945">
        <ele>484</ele>
        <time>2019-06-11T18:04:42Z</time>
      </trkpt>
      <trkpt lat="46.36251" lon="6.49546">
        <ele>483</ele>
        <time>2019-06-11T18:04:54Z</time>
      </trkpt>
      <trkpt lat="46.36254" lon="6.49563">
        <ele>483</ele>
        <time>2019-06-11T18:04:56Z</time>
      </trkpt>
      <trkpt lat="46.3626" lon="6.49575">
        <ele>483</ele>
        <time>2019-06-11T18:04:58Z</time>
      </trkpt>
      <trkpt lat="46.36269" lon="6.49584">
        <ele>482</ele>
        <time>2019-06-11T18:05:00Z</time>
      </trkpt>
      <trkpt lat="46.36274" lon="6.49587">
        <ele>482</ele>
        <time>2019-06-11T18:05:01Z</time>
      </trkpt>
      <trkpt lat="46.36307" lon="6.49591">
        <ele>480</ele>
        <time>2019-06-11T18:05:07Z</time>
      </trkpt>
      <trkpt lat="46.36323" lon="6.49597">
        <ele>479</ele>
        <time>2019-06-11T18:05:10Z</time>
      </trkpt>
      <trkpt lat="46.36373" lon="6.49638">
        <ele>478</ele>
        <time>2019-06-11T18:05:20Z</time>
      </trkpt>
      <trkpt lat="46.36395" lon="6.49666">
        <ele>478</ele>
        <time>2019-06-11T18:05:25Z</time>
      </trkpt>
      <trkpt lat="46.36412" lon="6.49691">
        <ele>478</ele>
        <time>2019-06-11T18:05:30Z</time>
      </trkpt>
      <trkpt lat="46.36428" lon="6.49738">
        <ele>480</ele>
        <time>2019-06-11T18:05:36Z</time>
      </trkpt>
      <trkpt lat="46.36436" lon="6.49747">
        <ele>479</ele>
        <time>2019-06-11T18:05:38Z</time>
      </trkpt>
      <trkpt lat="46.3644" lon="6.4975">
        <ele>479</ele>
        <time>2019-06-11T18:05:39Z</time>
      </trkpt>
      <trkpt lat="46.36445" lon="6.49751">
        <ele>478</ele>
        <time>2019-06-11T18:05:40Z</time>
      </trkpt>
      <trkpt lat="46.36456" lon="6.4975">
        <ele>475</ele>
        <time>2019-06-11T18:05:42Z</time>
      </trkpt>
      <trkpt lat="46.36508" lon="6.49722">
        <ele>466</ele>
        <time>2019-06-11T18:05:51Z</time>
      </trkpt>
      <trkpt lat="46.3654" lon="6.49691">
        <ele>466</ele>
        <time>2019-06-11T18:05:58Z</time>
      </trkpt>
      <trkpt lat="46.36549" lon="6.49684">
        <ele>467</ele>
        <time>2019-06-11T18:06:00Z</time>
      </trkpt>
      <trkpt lat="46.36565" lon="6.49676">
        <ele>469</ele>
        <time>2019-06-11T18:06:03Z</time>
      </trkpt>
      <trkpt lat="46.36582" lon="6.49675">
        <ele>470</ele>
        <time>2019-06-11T18:06:06Z</time>
      </trkpt>
      <trkpt lat="46.36633" lon="6.49688">
        <ele>461</ele>
        <time>2019-06-11T18:06:15Z</time>
      </trkpt>
      <trkpt lat="46.36647" lon="6.49687">
        <ele>460</ele>
        <time>2019-06-11T18:06:18Z</time>
      </trkpt>
      <trkpt lat="46.36662" lon="6.49679">
        <ele>459</ele>
        <time>2019-06-11T18:06:21Z</time>
      </trkpt>
      <trkpt lat="46.36689" lon="6.49656">
        <ele>458</ele>
        <time>2019-06-11T18:06:26Z</time>
      </trkpt>
      <trkpt lat="46.36717" lon="6.49629">
        <ele>457</ele>
        <time>2019-06-11T18:06:32Z</time>
      </trkpt>
      <trkpt lat="46.36777" lon="6.49549">
        <ele>455</ele>
        <time>2019-06-11T18:06:47Z</time>
      </trkpt>
      <trkpt lat="46.36789" lon="6.49531">
        <ele>454</ele>
        <time>2019-06-11T18:06:50Z</time>
      </trkpt>
      <trkpt lat="46.3682" lon="6.49467">
        <ele>451</ele>
        <time>2019-06-11T18:06:59Z</time>
      </trkpt>
      <trkpt lat="46.36856" lon="6.49408">
        <ele>450</ele>
        <time>2019-06-11T18:07:09Z</time>
      </trkpt>
      <trkpt lat="46.36882" lon="6.49373">
        <ele>448</ele>
        <time>2019-06-11T18:07:15Z</time>
      </trkpt>
      <trkpt lat="46.36897" lon="6.49346">
        <ele>447</ele>
        <time>2019-06-11T18:07:20Z</time>
      </trkpt>
      <trkpt lat="46.3692" lon="6.4928">
        <ele>446</ele>
        <time>2019-06-11T18:07:29Z</time>
      </trkpt>
      <trkpt lat="46.36935" lon="6.49254">
        <ele>445</ele>
        <time>2019-06-11T18:07:33Z</time>
      </trkpt>
      <trkpt lat="46.36949" lon="6.49236">
        <ele>445</ele>
        <time>2019-06-11T18:07:36Z</time>
      </trkpt>
      <trkpt lat="46.36984" lon="6.49207">
        <ele>445</ele>
        <time>2019-06-11T18:07:43Z</time>
      </trkpt>
      <trkpt lat="46.37011" lon="6.49174">
        <ele>446</ele>
        <time>2019-06-11T18:07:50Z</time>
      </trkpt>
      <trkpt lat="46.37021" lon="6.49155">
        <ele>446</ele>
        <time>2019-06-11T18:07:53Z</time>
      </trkpt>
      <trkpt lat="46.37028" lon="6.49137">
        <ele>446</ele>
        <time>2019-06-11T18:07:55Z</time>
      </trkpt>
      <trkpt lat="46.37037" lon="6.49123">
        <ele>446</ele>
        <time>2019-06-11T18:07:58Z</time>
      </trkpt>
      <trkpt lat="46.37049" lon="6.49117">
        <ele>444</ele>
        <time>2019-06-11T18:08:00Z</time>
      </trkpt>
      <trkpt lat="46.3705" lon="6.49121">
        <ele>444</ele>
        <time>2019-06-11T18:08:00Z</time>
      </trkpt>
      <trkpt lat="46.37054" lon="6.49128">
        <ele>443</ele>
        <time>2019-06-11T18:08:01Z</time>
      </trkpt>
      <trkpt lat="46.37057" lon="6.4913">
        <ele>442</ele>
        <time>2019-06-11T18:08:02Z</time>
      </trkpt>
      <trkpt lat="46.37063" lon="6.4913">
        <ele>441</ele>
        <time>2019-06-11T18:08:03Z</time>
      </trkpt>
      <trkpt lat="46.37068" lon="6.49125">
        <ele>440</ele>
        <time>2019-06-11T18:08:04Z</time>
      </trkpt>
      <trkpt lat="46.37083" lon="6.49145">
        <ele>438</ele>
        <time>2019-06-11T18:08:08Z</time>
      </trkpt>
      <trkpt lat="46.37135" lon="6.49242">
        <ele>438</ele>
        <time>2019-06-11T18:08:23Z</time>
      </trkpt>
      <trkpt lat="46.3716" lon="6.49297">
        <ele>438</ele>
        <time>2019-06-11T18:08:31Z</time>
      </trkpt>
      <trkpt lat="46.3717" lon="6.49334">
        <ele>438</ele>
        <time>2019-06-11T18:08:36Z</time>
      </trkpt>
      <trkpt lat="46.3718" lon="6.49387">
        <ele>437</ele>
        <time>2019-06-11T18:08:43Z</time>
      </trkpt>
      <trkpt lat="46.37187" lon="6.49447">
        <ele>437</ele>
        <time>2019-06-11T18:08:50Z</time>
      </trkpt>
      <trkpt lat="46.37183" lon="6.49451">
        <ele>437</ele>
        <time>2019-06-11T18:08:51Z</time>
      </trkpt>
      <trkpt lat="46.37182" lon="6.49457">
        <ele>437</ele>
        <time>2019-06-11T18:08:52Z</time>
      </trkpt>
      <trkpt lat="46.37185" lon="6.49462">
        <ele>437</ele>
        <time>2019-06-11T18:08:52Z</time>
      </trkpt>
      <trkpt lat="46.37189" lon="6.49462">
        <ele>437</ele>
        <time>2019-06-11T18:08:53Z</time>
      </trkpt>
      <trkpt lat="46.37209" lon="6.49561">
        <ele>438</ele>
        <time>2019-06-11T18:09:06Z</time>
      </trkpt>
      <trkpt lat="46.37244" lon="6.49604">
        <ele>437</ele>
        <time>2019-06-11T18:09:14Z</time>
      </trkpt>
      <trkpt lat="46.37278" lon="6.49648">
        <ele>434</ele>
        <time>2019-06-11T18:09:22Z</time>
      </trkpt>
      <trkpt lat="46.37311" lon="6.49724">
        <ele>432</ele>
        <time>2019-06-11T18:09:33Z</time>
      </trkpt>
      <trkpt lat="46.37344" lon="6.49774">
        <ele>430</ele>
        <time>2019-06-11T18:09:42Z</time>
      </trkpt>
      <trkpt lat="46.37431" lon="6.49878">
        <ele>428</ele>
        <time>2019-06-11T18:10:02Z</time>
      </trkpt>
      <trkpt lat="46.37463" lon="6.49928">
        <ele>427</ele>
        <time>2019-06-11T18:10:10Z</time>
      </trkpt>
      <trkpt lat="46.37479" lon="6.49946">
        <ele>425</ele>
        <time>2019-06-11T18:10:14Z</time>
      </trkpt>
      <trkpt lat="46.37487" lon="6.49951">
        <ele>425</ele>
        <time>2019-06-11T18:10:15Z</time>
      </trkpt>
      <trkpt lat="46.37505" lon="6.49959">
        <ele>423</ele>
        <time>2019-06-11T18:10:19Z</time>
      </trkpt>
      <trkpt lat="46.37523" lon="6.4996">
        <ele>422</ele>
        <time>2019-06-11T18:10:22Z</time>
      </trkpt>
      <trkpt lat="46.37582" lon="6.49944">
        <ele>421</ele>
        <time>2019-06-11T18:10:32Z</time>
      </trkpt>
      <trkpt lat="46.37596" lon="6.49944">
        <ele>421</ele>
        <time>2019-06-11T18:10:35Z</time>
      </trkpt>
      <trkpt lat="46.37626" lon="6.49949">
        <ele>421</ele>
        <time>2019-06-11T18:10:40Z</time>
      </trkpt>
      <trkpt lat="46.37686" lon="6.49964">
        <ele>419</ele>
        <time>2019-06-11T18:10:51Z</time>
      </trkpt>
      <trkpt lat="46.37695" lon="6.49965">
        <ele>419</ele>
        <time>2019-06-11T18:10:53Z</time>
      </trkpt>
      <trkpt lat="46.37741" lon="6.49961">
        <ele>419</ele>
        <time>2019-06-11T18:11:01Z</time>
      </trkpt>
      <trkpt lat="46.37765" lon="6.49964">
        <ele>419</ele>
        <time>2019-06-11T18:11:05Z</time>
      </trkpt>
      <trkpt lat="46.37833" lon="6.49996">
        <ele>416</ele>
        <time>2019-06-11T18:11:18Z</time>
      </trkpt>
      <trkpt lat="46.37848" lon="6.50007">
        <ele>415</ele>
        <time>2019-06-11T18:11:21Z</time>
      </trkpt>
      <trkpt lat="46.37864" lon="6.50024">
        <ele>412</ele>
        <time>2019-06-11T18:11:25Z</time>
      </trkpt>
      <trkpt lat="46.37875" lon="6.5004">
        <ele>410</ele>
        <time>2019-06-11T18:11:27Z</time>
      </trkpt>
      <trkpt lat="46.37936" lon="6.50144">
        <ele>405</ele>
        <time>2019-06-11T18:11:44Z</time>
      </trkpt>
      <trkpt lat="46.37966" lon="6.50207">
        <ele>404</ele>
        <time>2019-06-11T18:11:53Z</time>
      </trkpt>
      <trkpt lat="46.37987" lon="6.50241">
        <ele>403</ele>
        <time>2019-06-11T18:11:59Z</time>
      </trkpt>
      <trkpt lat="46.37999" lon="6.50256">
        <ele>403</ele>
        <time>2019-06-11T18:12:02Z</time>
      </trkpt>
      <trkpt lat="46.38072" lon="6.50322">
        <ele>403</ele>
        <time>2019-06-11T18:12:17Z</time>
      </trkpt>
      <trkpt lat="46.38088" lon="6.50331">
        <ele>403</ele>
        <time>2019-06-11T18:12:20Z</time>
      </trkpt>
      <trkpt lat="46.38145" lon="6.50358">
        <ele>402</ele>
        <time>2019-06-11T18:12:31Z</time>
      </trkpt>
      <trkpt lat="46.38192" lon="6.50403">
        <ele>401</ele>
        <time>2019-06-11T18:12:41Z</time>
      </trkpt>
      <trkpt lat="46.38209" lon="6.50417">
        <ele>402</ele>
        <time>2019-06-11T18:12:44Z</time>
      </trkpt>
      <trkpt lat="46.38271" lon="6.50442">
        <ele>401</ele>
        <time>2019-06-11T18:12:56Z</time>
      </trkpt>
      <trkpt lat="46.38289" lon="6.50531">
        <ele>399</ele>
        <time>2019-06-11T18:13:07Z</time>
      </trkpt>
      <trkpt lat="46.38294" lon="6.50564">
        <ele>398</ele>
        <time>2019-06-11T18:13:11Z</time>
      </trkpt>
      <trkpt lat="46.38295" lon="6.5059">
        <ele>397</ele>
        <time>2019-06-11T18:13:15Z</time>
      </trkpt>
      <trkpt lat="46.38292" lon="6.50715">
        <ele>394</ele>
        <time>2019-06-11T18:13:30Z</time>
      </trkpt>
      <trkpt lat="46.38287" lon="6.50852">
        <ele>397</ele>
        <time>2019-06-11T18:13:47Z</time>
      </trkpt>
      <trkpt lat="46.38285" lon="6.50989">
        <ele>398</ele>
        <time>2019-06-11T18:14:04Z</time>
      </trkpt>
      <trkpt lat="46.38286" lon="6.51019">
        <ele>398</ele>
        <time>2019-06-11T18:14:07Z</time>
      </trkpt>
      <trkpt lat="46.3829" lon="6.51067">
        <ele>398</ele>
        <time>2019-06-11T18:14:13Z</time>
      </trkpt>
      <trkpt lat="46.38299" lon="6.51111">
        <ele>398</ele>
        <time>2019-06-11T18:14:19Z</time>
      </trkpt>
      <trkpt lat="46.38307" lon="6.51139">
        <ele>398</ele>
        <time>2019-06-11T18:14:23Z</time>
      </trkpt>
      <trkpt lat="46.38321" lon="6.51174">
        <ele>397</ele>
        <time>2019-06-11T18:14:28Z</time>
      </trkpt>
      <trkpt lat="46.38321" lon="6.51187">
        <ele>398</ele>
        <time>2019-06-11T18:14:29Z</time>
      </trkpt>
      <trkpt lat="46.38341" lon="6.51235">
        <ele>399</ele>
        <time>2019-06-11T18:14:36Z</time>
      </trkpt>
      <trkpt lat="46.38352" lon="6.51257">
        <ele>400</ele>
        <time>2019-06-11T18:14:39Z</time>
      </trkpt>
      <trkpt lat="46.38372" lon="6.51294">
        <ele>400</ele>
        <time>2019-06-11T18:14:45Z</time>
      </trkpt>
      <trkpt lat="46.38384" lon="6.51311">
        <ele>399</ele>
        <time>2019-06-11T18:14:48Z</time>
      </trkpt>
      <trkpt lat="46.38396" lon="6.51322">
        <ele>398</ele>
        <time>2019-06-11T18:14:51Z</time>
      </trkpt>
      <trkpt lat="46.38402" lon="6.51325">
        <ele>397</ele>
        <time>2019-06-11T18:14:52Z</time>
      </trkpt>
      <trkpt lat="46.38413" lon="6.51322">
        <ele>396</ele>
        <time>2019-06-11T18:14:54Z</time>
      </trkpt>
      <trkpt lat="46.38425" lon="6.51311">
        <ele>395</ele>
        <time>2019-06-11T18:14:56Z</time>
      </trkpt>
      <trkpt lat="46.3843" lon="6.5131">
        <ele>395</ele>
        <time>2019-06-11T18:14:57Z</time>
      </trkpt>
      <trkpt lat="46.38435" lon="6.51315">
        <ele>395</ele>
        <time>2019-06-11T18:14:58Z</time>
      </trkpt>
      <trkpt lat="46.38531" lon="6.51536">
        <ele>395</ele>
        <time>2019-06-11T18:15:30Z</time>
      </trkpt>
      <trkpt lat="46.38544" lon="6.51558">
        <ele>395</ele>
        <time>2019-06-11T18:15:34Z</time>
      </trkpt>
      <trkpt lat="46.38555" lon="6.51566">
        <ele>395</ele>
        <time>2019-06-11T18:15:36Z</time>
      </trkpt>
      <trkpt lat="46.38572" lon="6.51575">
        <ele>394</ele>
        <time>2019-06-11T18:15:39Z</time>
      </trkpt>
      <trkpt lat="46.38577" lon="6.51581">
        <ele>393</ele>
        <time>2019-06-11T18:15:40Z</time>
      </trkpt>
      <trkpt lat="46.38581" lon="6.51589">
        <ele>393</ele>
        <time>2019-06-11T18:15:42Z</time>
      </trkpt>
      <trkpt lat="46.38583" lon="6.51605">
        <ele>393</ele>
        <time>2019-06-11T18:15:44Z</time>
      </trkpt>
      <trkpt lat="46.38581" lon="6.51641">
        <ele>394</ele>
        <time>2019-06-11T18:15:48Z</time>
      </trkpt>
      <trkpt lat="46.38582" lon="6.51658">
        <ele>394</ele>
        <time>2019-06-11T18:15:50Z</time>
      </trkpt>
      <trkpt lat="46.38696" lon="6.51919">
        <ele>393</ele>
        <time>2019-06-11T18:16:28Z</time>
      </trkpt>
      <trkpt lat="46.38717" lon="6.51963">
        <ele>393</ele>
        <time>2019-06-11T18:16:35Z</time>
      </trkpt>
      <trkpt lat="46.38721" lon="6.51975">
        <ele>393</ele>
        <time>2019-06-11T18:16:36Z</time>
      </trkpt>
      <trkpt lat="46.3873" lon="6.52021">
        <ele>393</ele>
        <time>2019-06-11T18:16:42Z</time>
      </trkpt>
      <trkpt lat="46.38779" lon="6.52208">
        <ele>393</ele>
        <time>2019-06-11T18:17:07Z</time>
      </trkpt>
      <trkpt lat="46.38789" lon="6.52241">
        <ele>393</ele>
        <time>2019-06-11T18:17:11Z</time>
      </trkpt>
      <trkpt lat="46.388" lon="6.52269">
        <ele>394</ele>
        <time>2019-06-11T18:17:15Z</time>
      </trkpt>
      <trkpt lat="46.38809" lon="6.52285">
        <ele>394</ele>
        <time>2019-06-11T18:17:18Z</time>
      </trkpt>
      <trkpt lat="46.38821" lon="6.52301">
        <ele>392</ele>
        <time>2019-06-11T18:17:20Z</time>
      </trkpt>
      <trkpt lat="46.38882" lon="6.52372">
        <ele>388</ele>
        <time>2019-06-11T18:17:34Z</time>
      </trkpt>
      <trkpt lat="46.38896" lon="6.52386">
        <ele>388</ele>
        <time>2019-06-11T18:17:37Z</time>
      </trkpt>
      <trkpt lat="46.38922" lon="6.52406">
        <ele>386</ele>
        <time>2019-06-11T18:17:43Z</time>
      </trkpt>
      <trkpt lat="46.3894" lon="6.52428">
        <ele>386</ele>
        <time>2019-06-11T18:17:47Z</time>
      </trkpt>
      <trkpt lat="46.38925" lon="6.52453">
        <ele>386</ele>
        <time>2019-06-11T18:17:51Z</time>
      </trkpt>
      <trkpt lat="46.38902" lon="6.5247">
        <ele>388</ele>
        <time>2019-06-11T18:17:56Z</time>
      </trkpt>
      <trkpt lat="46.38894" lon="6.52473">
        <ele>389</ele>
        <time>2019-06-11T18:17:57Z</time>
      </trkpt>
      <trkpt lat="46.3888" lon="6.52475">
        <ele>390</ele>
        <time>2019-06-11T18:17:59Z</time>
      </trkpt>
      <trkpt lat="46.38872" lon="6.52478">
        <ele>390</ele>
        <time>2019-06-11T18:18:01Z</time>
      </trkpt>
      <trkpt lat="46.38864" lon="6.52487">
        <ele>391</ele>
        <time>2019-06-11T18:18:03Z</time>
      </trkpt>
      <trkpt lat="46.3886" lon="6.52497">
        <ele>392</ele>
        <time>2019-06-11T18:18:04Z</time>
      </trkpt>
      <trkpt lat="46.38859" lon="6.5251">
        <ele>392</ele>
        <time>2019-06-11T18:18:06Z</time>
      </trkpt>
      <trkpt lat="46.3886" lon="6.52522">
        <ele>392</ele>
        <time>2019-06-11T18:18:07Z</time>
      </trkpt>
      <trkpt lat="46.38865" lon="6.52531">
        <ele>392</ele>
        <time>2019-06-11T18:18:09Z</time>
      </trkpt>
      <trkpt lat="46.38889" lon="6.52558">
        <ele>391</ele>
        <time>2019-06-11T18:18:14Z</time>
      </trkpt>
      <trkpt lat="46.38909" lon="6.52602">
        <ele>391</ele>
        <time>2019-06-11T18:18:21Z</time>
      </trkpt>
      <trkpt lat="46.3892" lon="6.52619">
        <ele>391</ele>
        <time>2019-06-11T18:18:23Z</time>
      </trkpt>
      <trkpt lat="46.3899" lon="6.52699">
        <ele>387</ele>
        <time>2019-06-11T18:18:39Z</time>
      </trkpt>
      <trkpt lat="46.39003" lon="6.52716">
        <ele>387</ele>
        <time>2019-06-11T18:18:42Z</time>
      </trkpt>
      <trkpt lat="46.39019" lon="6.52744">
        <ele>386</ele>
        <time>2019-06-11T18:18:47Z</time>
      </trkpt>
      <trkpt lat="46.39031" lon="6.52753">
        <ele>386</ele>
        <time>2019-06-11T18:18:49Z</time>
      </trkpt>
      <trkpt lat="46.39052" lon="6.5276">
        <ele>386</ele>
        <time>2019-06-11T18:18:53Z</time>
      </trkpt>
      <trkpt lat="46.39055" lon="6.52765">
        <ele>386</ele>
        <time>2019-06-11T18:18:54Z</time>
      </trkpt>
      <trkpt lat="46.39061" lon="6.52783">
        <ele>386</ele>
        <time>2019-06-11T18:18:56Z</time>
      </trkpt>
      <trkpt lat="46.39078" lon="6.52859">
        <ele>387</ele>
        <time>2019-06-11T18:19:06Z</time>
      </trkpt>
      <trkpt lat="46.3909" lon="6.52931">
        <ele>386</ele>
        <time>2019-06-11T18:19:15Z</time>
      </trkpt>
      <trkpt lat="46.39098" lon="6.52999">
        <ele>384</ele>
        <time>2019-06-11T18:19:24Z</time>
      </trkpt>
      <trkpt lat="46.39117" lon="6.53097">
        <ele>386</ele>
        <time>2019-06-11T18:19:36Z</time>
      </trkpt>
      <trkpt lat="46.39133" lon="6.53151">
        <ele>386</ele>
        <time>2019-06-11T18:19:43Z</time>
      </trkpt>
      <trkpt lat="46.39148" lon="6.53193">
        <ele>386</ele>
        <time>2019-06-11T18:19:49Z</time>
      </trkpt>
      <trkpt lat="46.39236" lon="6.53368">
        <ele>382</ele>
        <time>2019-06-11T18:20:16Z</time>
      </trkpt>
      <trkpt lat="46.39257" lon="6.53421">
        <ele>381</ele>
        <time>2019-06-11T18:20:23Z</time>
      </trkpt>
      <trkpt lat="46.3927" lon="6.53475">
        <ele>379</ele>
        <time>2019-06-11T18:20:30Z</time>
      </trkpt>
      <trkpt lat="46.39274" lon="6.53509">
        <ele>378</ele>
        <time>2019-06-11T18:20:35Z</time>
      </trkpt>
      <trkpt lat="46.3927" lon="6.53517">
        <ele>378</ele>
        <time>2019-06-11T18:20:36Z</time>
      </trkpt>
      <trkpt lat="46.39269" lon="6.53525">
        <ele>378</ele>
        <time>2019-06-11T18:20:37Z</time>
      </trkpt>
      <trkpt lat="46.3927" lon="6.53538">
        <ele>378</ele>
        <time>2019-06-11T18:20:38Z</time>
      </trkpt>
      <trkpt lat="46.39274" lon="6.53546">
        <ele>378</ele>
        <time>2019-06-11T18:20:40Z</time>
      </trkpt>
      <trkpt lat="46.39284" lon="6.53553">
        <ele>378</ele>
        <time>2019-06-11T18:20:42Z</time>
      </trkpt>
      <trkpt lat="46.39292" lon="6.53552">
        <ele>378</ele>
        <time>2019-06-11T18:20:43Z</time>
      </trkpt>
      <trkpt lat="46.39323" lon="6.53628">
        <ele>379</ele>
        <time>2019-06-11T18:20:54Z</time>
      </trkpt>
      <trkpt lat="46.39415" lon="6.53883">
        <ele>378</ele>
        <time>2019-06-11T18:21:29Z</time>
      </trkpt>
      <trkpt lat="46.39423" lon="6.53899">
        <ele>378</ele>
        <time>2019-06-11T18:21:32Z</time>
      </trkpt>
      <trkpt lat="46.39472" lon="6.53973">
        <ele>378</ele>
        <time>2019-06-11T18:21:44Z</time>
      </trkpt>
      <trkpt lat="46.39487" lon="6.54001">
        <ele>377</ele>
        <time>2019-06-11T18:21:49Z</time>
      </trkpt>
      <trkpt lat="46.39493" lon="6.54021">
        <ele>377</ele>
        <time>2019-06-11T18:21:51Z</time>
      </trkpt>
      <trkpt lat="46.395" lon="6.54063">
        <ele>378</ele>
        <time>2019-06-11T18:21:56Z</time>
      </trkpt>
      <trkpt lat="46.39502" lon="6.54095">
        <ele>378</ele>
        <time>2019-06-11T18:22:00Z</time>
      </trkpt>
      <trkpt lat="46.39501" lon="6.54226">
        <ele>379</ele>
        <time>2019-06-11T18:22:17Z</time>
      </trkpt>
      <trkpt lat="46.39494" lon="6.5429">
        <ele>378</ele>
        <time>2019-06-11T18:22:24Z</time>
      </trkpt>
      <trkpt lat="46.39464" lon="6.5445">
        <ele>375</ele>
        <time>2019-06-11T18:22:45Z</time>
      </trkpt>
      <trkpt lat="46.39459" lon="6.54511">
        <ele>376</ele>
        <time>2019-06-11T18:22:52Z</time>
      </trkpt>
      <trkpt lat="46.39459" lon="6.54549">
        <ele>377</ele>
        <time>2019-06-11T18:22:57Z</time>
      </trkpt>
      <trkpt lat="46.39467" lon="6.54664">
        <ele>378</ele>
        <time>2019-06-11T18:23:11Z</time>
      </trkpt>
      <trkpt lat="46.39472" lon="6.54764">
        <ele>381</ele>
        <time>2019-06-11T18:23:24Z</time>
      </trkpt>
      <trkpt lat="46.39503" lon="6.55222">
        <ele>392</ele>
        <time>2019-06-11T18:24:20Z</time>
      </trkpt>
      <trkpt lat="46.39568" lon="6.55593">
        <ele>394</ele>
        <time>2019-06-11T18:25:07Z</time>
      </trkpt>
      <trkpt lat="46.39658" lon="6.56187">
        <ele>401</ele>
        <time>2019-06-11T18:26:22Z</time>
      </trkpt>
      <trkpt lat="46.39811" lon="6.57246">
        <ele>395</ele>
        <time>2019-06-11T18:28:34Z</time>
      </trkpt>
      <trkpt lat="46.39812" lon="6.57263">
        <ele>395</ele>
        <time>2019-06-11T18:28:36Z</time>
      </trkpt>
      <trkpt lat="46.39808" lon="6.57265">
        <ele>396</ele>
        <time>2019-06-11T18:28:37Z</time>
      </trkpt>
      <trkpt lat="46.39807" lon="6.5727">
        <ele>396</ele>
        <time>2019-06-11T18:28:38Z</time>
      </trkpt>
      <trkpt lat="46.39812" lon="6.57308">
        <ele>397</ele>
        <time>2019-06-11T18:28:43Z</time>
      </trkpt>
      <trkpt lat="46.39815" lon="6.57313">
        <ele>397</ele>
        <time>2019-06-11T18:28:43Z</time>
      </trkpt>
      <trkpt lat="46.39822" lon="6.57314">
        <ele>395</ele>
        <time>2019-06-11T18:28:45Z</time>
      </trkpt>
      <trkpt lat="46.39866" lon="6.57607">
        <ele>399</ele>
        <time>2019-06-11T18:29:21Z</time>
      </trkpt>
      <trkpt lat="46.39885" lon="6.57671">
        <ele>397</ele>
        <time>2019-06-11T18:29:30Z</time>
      </trkpt>
      <trkpt lat="46.39887" lon="6.57698">
        <ele>397</ele>
        <time>2019-06-11T18:29:33Z</time>
      </trkpt>
      <trkpt lat="46.39884" lon="6.57697">
        <ele>398</ele>
        <time>2019-06-11T18:29:34Z</time>
      </trkpt>
      <trkpt lat="46.39878" lon="6.57699">
        <ele>399</ele>
        <time>2019-06-11T18:29:35Z</time>
      </trkpt>
      <trkpt lat="46.39873" lon="6.57709">
        <ele>400</ele>
        <time>2019-06-11T18:29:36Z</time>
      </trkpt>
      <trkpt lat="46.39873" lon="6.57714">
        <ele>400</ele>
        <time>2019-06-11T18:29:37Z</time>
      </trkpt>
      <trkpt lat="46.39877" lon="6.57724">
        <ele>399</ele>
        <time>2019-06-11T18:29:39Z</time>
      </trkpt>
      <trkpt lat="46.39883" lon="6.57727">
        <ele>399</ele>
        <time>2019-06-11T18:29:40Z</time>
      </trkpt>
      <trkpt lat="46.39933" lon="6.58078">
        <ele>392</ele>
        <time>2019-06-11T18:30:24Z</time>
      </trkpt>
      <trkpt lat="46.39932" lon="6.58116">
        <ele>392</ele>
        <time>2019-06-11T18:30:28Z</time>
      </trkpt>
      <trkpt lat="46.39933" lon="6.58129">
        <ele>392</ele>
        <time>2019-06-11T18:30:30Z</time>
      </trkpt>
      <trkpt lat="46.39948" lon="6.58146">
        <ele>389</ele>
        <time>2019-06-11T18:30:33Z</time>
      </trkpt>
      <trkpt lat="46.39955" lon="6.58149">
        <ele>388</ele>
        <time>2019-06-11T18:30:35Z</time>
      </trkpt>
      <trkpt lat="46.4004" lon="6.58332">
        <ele>381</ele>
        <time>2019-06-11T18:31:02Z</time>
      </trkpt>
      <trkpt lat="46.40046" lon="6.58356">
        <ele>381</ele>
        <time>2019-06-11T18:31:05Z</time>
      </trkpt>
      <trkpt lat="46.40059" lon="6.58384">
        <ele>381</ele>
        <time>2019-06-11T18:31:09Z</time>
      </trkpt>
      <trkpt lat="46.40062" lon="6.58392">
        <ele>381</ele>
        <time>2019-06-11T18:31:10Z</time>
      </trkpt>
      <trkpt lat="46.40067" lon="6.58396">
        <ele>380</ele>
        <time>2019-06-11T18:31:11Z</time>
      </trkpt>
      <trkpt lat="46.40089" lon="6.58443">
        <ele>379</ele>
        <time>2019-06-11T18:31:18Z</time>
      </trkpt>
      <trkpt lat="46.4009" lon="6.58448">
        <ele>379</ele>
        <time>2019-06-11T18:31:19Z</time>
      </trkpt>
      <trkpt lat="46.4014" lon="6.58558">
        <ele>376</ele>
        <time>2019-06-11T18:31:35Z</time>
      </trkpt>
      <trkpt lat="46.40157" lon="6.58603">
        <ele>376</ele>
        <time>2019-06-11T18:31:41Z</time>
      </trkpt>
      <trkpt lat="46.40167" lon="6.58643">
        <ele>376</ele>
        <time>2019-06-11T18:31:46Z</time>
      </trkpt>
      <trkpt lat="46.40172" lon="6.58671">
        <ele>376</ele>
        <time>2019-06-11T18:31:50Z</time>
      </trkpt>
      <trkpt lat="46.40175" lon="6.58695">
        <ele>376</ele>
        <time>2019-06-11T18:31:53Z</time>
      </trkpt>
      <trkpt lat="46.4017" lon="6.58699">
        <ele>376</ele>
        <time>2019-06-11T18:31:54Z</time>
      </trkpt>
      <trkpt lat="46.40167" lon="6.58707">
        <ele>376</ele>
        <time>2019-06-11T18:31:55Z</time>
      </trkpt>
      <trkpt lat="46.40166" lon="6.58717">
        <ele>377</ele>
        <time>2019-06-11T18:31:56Z</time>
      </trkpt>
      <trkpt lat="46.40167" lon="6.58724">
        <ele>377</ele>
        <time>2019-06-11T18:31:57Z</time>
      </trkpt>
      <trkpt lat="46.40172" lon="6.58732">
        <ele>376</ele>
        <time>2019-06-11T18:31:58Z</time>
      </trkpt>
      <trkpt lat="46.40176" lon="6.58735">
        <ele>376</ele>
        <time>2019-06-11T18:31:59Z</time>
      </trkpt>
      <trkpt lat="46.40184" lon="6.58734">
        <ele>375</ele>
        <time>2019-06-11T18:32:01Z</time>
      </trkpt>
      <trkpt lat="46.40184" lon="6.5874">
        <ele>375</ele>
        <time>2019-06-11T18:32:01Z</time>
      </trkpt>
      <trkpt lat="46.40189" lon="6.58755">
        <ele>375</ele>
        <time>2019-06-11T18:32:03Z</time>
      </trkpt>
      <trkpt lat="46.40198" lon="6.58803">
        <ele>375</ele>
        <time>2019-06-11T18:32:10Z</time>
      </trkpt>
      <trkpt lat="46.40201" lon="6.58832">
        <ele>375</ele>
        <time>2019-06-11T18:32:13Z</time>
      </trkpt>
      <trkpt lat="46.40201" lon="6.58855">
        <ele>375</ele>
        <time>2019-06-11T18:32:16Z</time>
      </trkpt>
      <trkpt lat="46.40205" lon="6.58916">
        <ele>375</ele>
        <time>2019-06-11T18:32:24Z</time>
      </trkpt>
      <trkpt lat="46.40203" lon="6.58984">
        <ele>375</ele>
        <time>2019-06-11T18:32:32Z</time>
      </trkpt>
      <trkpt lat="46.40195" lon="6.59072">
        <ele>374</ele>
        <time>2019-06-11T18:32:43Z</time>
      </trkpt>
      <trkpt lat="46.40189" lon="6.5912">
        <ele>375</ele>
        <time>2019-06-11T18:32:49Z</time>
      </trkpt>
      <trkpt lat="46.40179" lon="6.59168">
        <ele>376</ele>
        <time>2019-06-11T18:32:55Z</time>
      </trkpt>
      <trkpt lat="46.40153" lon="6.59252">
        <ele>382</ele>
        <time>2019-06-11T18:33:06Z</time>
      </trkpt>
      <trkpt lat="46.40144" lon="6.59299">
        <ele>382</ele>
        <time>2019-06-11T18:33:12Z</time>
      </trkpt>
      <trkpt lat="46.40129" lon="6.59412">
        <ele>378</ele>
        <time>2019-06-11T18:33:26Z</time>
      </trkpt>
      <trkpt lat="46.40128" lon="6.59435">
        <ele>378</ele>
        <time>2019-06-11T18:33:29Z</time>
      </trkpt>
      <trkpt lat="46.40148" lon="6.59595">
        <ele>377</ele>
        <time>2019-06-11T18:33:49Z</time>
      </trkpt>
      <trkpt lat="46.40146" lon="6.59624">
        <ele>379</ele>
        <time>2019-06-11T18:33:53Z</time>
      </trkpt>
      <trkpt lat="46.40142" lon="6.59635">
        <ele>380</ele>
        <time>2019-06-11T18:33:54Z</time>
      </trkpt>
      <trkpt lat="46.40147" lon="6.59663">
        <ele>381</ele>
        <time>2019-06-11T18:33:58Z</time>
      </trkpt>
      <trkpt lat="46.40148" lon="6.59711">
        <ele>380</ele>
        <time>2019-06-11T18:34:04Z</time>
      </trkpt>
      <trkpt lat="46.40143" lon="6.59854">
        <ele>379</ele>
        <time>2019-06-11T18:34:21Z</time>
      </trkpt>
      <trkpt lat="46.40141" lon="6.59927">
        <ele>380</ele>
        <time>2019-06-11T18:34:30Z</time>
      </trkpt>
      <trkpt lat="46.40142" lon="6.59963">
        <ele>379</ele>
        <time>2019-06-11T18:34:35Z</time>
      </trkpt>
      <trkpt lat="46.40174" lon="6.60375">
        <ele>377</ele>
        <time>2019-06-11T18:35:25Z</time>
      </trkpt>
      <trkpt lat="46.40143" lon="6.6038">
        <ele>381</ele>
        <time>2019-06-11T18:35:31Z</time>
      </trkpt>
    </trkseg>
  </trk>
</gpx>